<?xml version="1.0" encoding="UTF-8" standalone="no" ?>
<gpx xmlns="http://www.topografix.com/GPX/1/1" xmlns:xsi="http://www.w3.org/2001/XMLSchema-instance" xsi:schemaLocation="http://www.topografix.com/GPX/1/1 http://www.topografix.com/GPX/1/1/gpx.xsd" version="1.1" creator="VisuGPX - https://www.visugpx.com">
  <metadata>
    <name>83-M-2012-24-10-Lorgues - Château Renard - Franquèse</name>
    <desc><![CDATA[Lorgues - Château Renard - Franquèse]]></desc>
  </metadata>
  <trk>
    <name><![CDATA[2012-10-24-lorgues]]></name>
    <trkseg>
      <trkpt lat="43.49196" lon="6.33795">
        <ele>166.854858</ele>
        <time>2012-10-24T11:42:35Z</time>
      </trkpt>
      <trkpt lat="43.4919" lon="6.33803">
        <ele>166.297088</ele>
        <time>2012-10-24T11:45:52Z</time>
      </trkpt>
      <trkpt lat="43.4919" lon="6.33804">
        <ele>166.305053</ele>
        <time>2012-10-24T11:45:53Z</time>
      </trkpt>
      <trkpt lat="43.49178" lon="6.33819">
        <ele>165.8</ele>
        <time>2012-10-24T11:46:11Z</time>
      </trkpt>
      <trkpt lat="43.49171" lon="6.33826">
        <ele>165</ele>
        <time>2012-10-24T11:46:17Z</time>
      </trkpt>
      <trkpt lat="43.49163" lon="6.33825">
        <ele>164.9</ele>
        <time>2012-10-24T11:46:29Z</time>
      </trkpt>
      <trkpt lat="43.4916" lon="6.33813">
        <ele>164.6</ele>
        <time>2012-10-24T11:46:45Z</time>
      </trkpt>
      <trkpt lat="43.49154" lon="6.33822">
        <ele>164.1</ele>
        <time>2012-10-24T11:48:25Z</time>
      </trkpt>
      <trkpt lat="43.49153" lon="6.33824">
        <ele>164.1</ele>
        <time>2012-10-24T11:48:26Z</time>
      </trkpt>
      <trkpt lat="43.49164" lon="6.33802">
        <ele>164.7</ele>
        <time>2012-10-24T11:49:20Z</time>
      </trkpt>
      <trkpt lat="43.49168" lon="6.33812">
        <ele>164.9</ele>
        <time>2012-10-24T11:49:54Z</time>
      </trkpt>
      <trkpt lat="43.49168" lon="6.33813">
        <ele>164.9</ele>
        <time>2012-10-24T11:49:55Z</time>
      </trkpt>
      <trkpt lat="43.49163" lon="6.33835">
        <ele>165.2</ele>
        <time>2012-10-24T11:51:11Z</time>
      </trkpt>
      <trkpt lat="43.49162" lon="6.33836">
        <ele>165.2</ele>
        <time>2012-10-24T11:51:12Z</time>
      </trkpt>
      <trkpt lat="43.49165" lon="6.33822">
        <ele>165.9</ele>
        <time>2012-10-24T11:53:06Z</time>
      </trkpt>
      <trkpt lat="43.49179" lon="6.33812">
        <ele>167.2</ele>
        <time>2012-10-24T11:53:21Z</time>
      </trkpt>
      <trkpt lat="43.49187" lon="6.33808">
        <ele>167.9</ele>
        <time>2012-10-24T11:53:27Z</time>
      </trkpt>
      <trkpt lat="43.49193" lon="6.33798">
        <ele>168.5</ele>
        <time>2012-10-24T11:53:34Z</time>
      </trkpt>
      <trkpt lat="43.49191" lon="6.33786">
        <ele>170.3</ele>
        <time>2012-10-24T11:53:50Z</time>
      </trkpt>
      <trkpt lat="43.49184" lon="6.33779">
        <ele>170.4</ele>
        <time>2012-10-24T11:54:00Z</time>
      </trkpt>
      <trkpt lat="43.49176" lon="6.33779">
        <ele>170.3</ele>
        <time>2012-10-24T11:54:09Z</time>
      </trkpt>
      <trkpt lat="43.49175" lon="6.33778">
        <ele>170.3</ele>
        <time>2012-10-24T11:54:10Z</time>
      </trkpt>
      <trkpt lat="43.49168" lon="6.33761">
        <ele>169.5</ele>
        <time>2012-10-24T11:55:17Z</time>
      </trkpt>
      <trkpt lat="43.49167" lon="6.3376">
        <ele>169.2</ele>
        <time>2012-10-24T11:55:18Z</time>
      </trkpt>
      <trkpt lat="43.49181" lon="6.3377">
        <ele>170.4</ele>
        <time>2012-10-24T11:56:14Z</time>
      </trkpt>
      <trkpt lat="43.49188" lon="6.33777">
        <ele>170.9</ele>
        <time>2012-10-24T11:56:22Z</time>
      </trkpt>
      <trkpt lat="43.49189" lon="6.33777">
        <ele>170.9</ele>
        <time>2012-10-24T11:56:23Z</time>
      </trkpt>
      <trkpt lat="43.49204" lon="6.33788">
        <ele>170.3</ele>
        <time>2012-10-24T11:56:37Z</time>
      </trkpt>
      <trkpt lat="43.49212" lon="6.33789">
        <ele>170.3</ele>
        <time>2012-10-24T11:56:45Z</time>
      </trkpt>
      <trkpt lat="43.4922" lon="6.33788">
        <ele>170.3</ele>
        <time>2012-10-24T11:56:52Z</time>
      </trkpt>
      <trkpt lat="43.49228" lon="6.3379">
        <ele>171.1</ele>
        <time>2012-10-24T11:56:59Z</time>
      </trkpt>
      <trkpt lat="43.49237" lon="6.3379">
        <ele>171.4</ele>
        <time>2012-10-24T11:57:06Z</time>
      </trkpt>
      <trkpt lat="43.49243" lon="6.33782">
        <ele>172.1</ele>
        <time>2012-10-24T11:57:14Z</time>
      </trkpt>
      <trkpt lat="43.49247" lon="6.33771">
        <ele>172.9</ele>
        <time>2012-10-24T11:57:23Z</time>
      </trkpt>
      <trkpt lat="43.49247" lon="6.3377">
        <ele>172.5</ele>
        <time>2012-10-24T11:57:24Z</time>
      </trkpt>
      <trkpt lat="43.49249" lon="6.33748">
        <ele>173.8</ele>
        <time>2012-10-24T11:57:40Z</time>
      </trkpt>
      <trkpt lat="43.49249" lon="6.33736">
        <ele>173.8</ele>
        <time>2012-10-24T11:57:47Z</time>
      </trkpt>
      <trkpt lat="43.49249" lon="6.33725">
        <ele>173.9</ele>
        <time>2012-10-24T11:57:55Z</time>
      </trkpt>
      <trkpt lat="43.49249" lon="6.33713">
        <ele>173.5</ele>
        <time>2012-10-24T11:58:03Z</time>
      </trkpt>
      <trkpt lat="43.49249" lon="6.33703">
        <ele>173</ele>
        <time>2012-10-24T11:58:09Z</time>
      </trkpt>
      <trkpt lat="43.49249" lon="6.33692">
        <ele>171.7</ele>
        <time>2012-10-24T11:58:15Z</time>
      </trkpt>
      <trkpt lat="43.4925" lon="6.3368">
        <ele>171.7</ele>
        <time>2012-10-24T11:58:21Z</time>
      </trkpt>
      <trkpt lat="43.49252" lon="6.33669">
        <ele>171.8</ele>
        <time>2012-10-24T11:58:27Z</time>
      </trkpt>
      <trkpt lat="43.49252" lon="6.33667">
        <ele>171.6</ele>
        <time>2012-10-24T11:58:28Z</time>
      </trkpt>
      <trkpt lat="43.4926" lon="6.3365">
        <ele>171.9</ele>
        <time>2012-10-24T11:58:42Z</time>
      </trkpt>
      <trkpt lat="43.49261" lon="6.33638">
        <ele>171.4</ele>
        <time>2012-10-24T11:58:49Z</time>
      </trkpt>
      <trkpt lat="43.49259" lon="6.33627">
        <ele>171.4</ele>
        <time>2012-10-24T11:58:56Z</time>
      </trkpt>
      <trkpt lat="43.49255" lon="6.33616">
        <ele>171.7</ele>
        <time>2012-10-24T11:59:08Z</time>
      </trkpt>
      <trkpt lat="43.4925" lon="6.33608">
        <ele>171.5</ele>
        <time>2012-10-24T11:59:33Z</time>
      </trkpt>
      <trkpt lat="43.49249" lon="6.33606">
        <ele>171.2</ele>
        <time>2012-10-24T11:59:34Z</time>
      </trkpt>
      <trkpt lat="43.49243" lon="6.33588">
        <ele>171.3</ele>
        <time>2012-10-24T11:59:45Z</time>
      </trkpt>
      <trkpt lat="43.4924" lon="6.33576">
        <ele>171.1</ele>
        <time>2012-10-24T11:59:53Z</time>
      </trkpt>
      <trkpt lat="43.49238" lon="6.33565">
        <ele>170.8</ele>
        <time>2012-10-24T12:00:01Z</time>
      </trkpt>
      <trkpt lat="43.49235" lon="6.33553">
        <ele>171.4</ele>
        <time>2012-10-24T12:00:08Z</time>
      </trkpt>
      <trkpt lat="43.49235" lon="6.33541">
        <ele>170.9</ele>
        <time>2012-10-24T12:00:14Z</time>
      </trkpt>
      <trkpt lat="43.49238" lon="6.3353">
        <ele>170.6</ele>
        <time>2012-10-24T12:00:21Z</time>
      </trkpt>
      <trkpt lat="43.49236" lon="6.33519">
        <ele>170.2</ele>
        <time>2012-10-24T12:00:28Z</time>
      </trkpt>
      <trkpt lat="43.49234" lon="6.33509">
        <ele>169.9</ele>
        <time>2012-10-24T12:00:34Z</time>
      </trkpt>
      <trkpt lat="43.49234" lon="6.33507">
        <ele>169.7</ele>
        <time>2012-10-24T12:00:35Z</time>
      </trkpt>
      <trkpt lat="43.4924" lon="6.33488">
        <ele>169.2</ele>
        <time>2012-10-24T12:00:45Z</time>
      </trkpt>
      <trkpt lat="43.49238" lon="6.33478">
        <ele>169</ele>
        <time>2012-10-24T12:00:53Z</time>
      </trkpt>
      <trkpt lat="43.49237" lon="6.33465">
        <ele>166.9</ele>
        <time>2012-10-24T12:01:01Z</time>
      </trkpt>
      <trkpt lat="43.49235" lon="6.33453">
        <ele>166.3</ele>
        <time>2012-10-24T12:01:09Z</time>
      </trkpt>
      <trkpt lat="43.49229" lon="6.33444">
        <ele>165.5</ele>
        <time>2012-10-24T12:01:16Z</time>
      </trkpt>
      <trkpt lat="43.49226" lon="6.33434">
        <ele>164.5</ele>
        <time>2012-10-24T12:01:22Z</time>
      </trkpt>
      <trkpt lat="43.49223" lon="6.33423">
        <ele>164.4</ele>
        <time>2012-10-24T12:01:29Z</time>
      </trkpt>
      <trkpt lat="43.49222" lon="6.33411">
        <ele>164.2</ele>
        <time>2012-10-24T12:01:37Z</time>
      </trkpt>
      <trkpt lat="43.49222" lon="6.3341">
        <ele>164.3</ele>
        <time>2012-10-24T12:01:38Z</time>
      </trkpt>
      <trkpt lat="43.49207" lon="6.33406">
        <ele>164.7</ele>
        <time>2012-10-24T12:01:49Z</time>
      </trkpt>
      <trkpt lat="43.49199" lon="6.33405">
        <ele>164.9</ele>
        <time>2012-10-24T12:01:55Z</time>
      </trkpt>
      <trkpt lat="43.4919" lon="6.33403">
        <ele>166.2</ele>
        <time>2012-10-24T12:02:06Z</time>
      </trkpt>
      <trkpt lat="43.49193" lon="6.33392">
        <ele>166.6</ele>
        <time>2012-10-24T12:02:39Z</time>
      </trkpt>
      <trkpt lat="43.49194" lon="6.33392">
        <ele>166.6</ele>
        <time>2012-10-24T12:02:40Z</time>
      </trkpt>
      <trkpt lat="43.49177" lon="6.33399">
        <ele>168.7</ele>
        <time>2012-10-24T12:03:32Z</time>
      </trkpt>
      <trkpt lat="43.49169" lon="6.334">
        <ele>169.9</ele>
        <time>2012-10-24T12:03:38Z</time>
      </trkpt>
      <trkpt lat="43.4916" lon="6.33403">
        <ele>170.8</ele>
        <time>2012-10-24T12:03:47Z</time>
      </trkpt>
      <trkpt lat="43.49159" lon="6.33402">
        <ele>170.8</ele>
        <time>2012-10-24T12:03:48Z</time>
      </trkpt>
      <trkpt lat="43.49143" lon="6.33401">
        <ele>172</ele>
        <time>2012-10-24T12:04:04Z</time>
      </trkpt>
      <trkpt lat="43.49135" lon="6.33398">
        <ele>172.6</ele>
        <time>2012-10-24T12:04:13Z</time>
      </trkpt>
      <trkpt lat="43.49127" lon="6.33395">
        <ele>173.2</ele>
        <time>2012-10-24T12:04:21Z</time>
      </trkpt>
      <trkpt lat="43.49119" lon="6.33391">
        <ele>173.1</ele>
        <time>2012-10-24T12:04:29Z</time>
      </trkpt>
      <trkpt lat="43.49112" lon="6.33383">
        <ele>172.1</ele>
        <time>2012-10-24T12:04:38Z</time>
      </trkpt>
      <trkpt lat="43.49105" lon="6.33379">
        <ele>171.4</ele>
        <time>2012-10-24T12:04:45Z</time>
      </trkpt>
      <trkpt lat="43.49097" lon="6.33374">
        <ele>171</ele>
        <time>2012-10-24T12:04:52Z</time>
      </trkpt>
      <trkpt lat="43.49096" lon="6.33374">
        <ele>171.1</ele>
        <time>2012-10-24T12:04:53Z</time>
      </trkpt>
      <trkpt lat="43.49082" lon="6.33367">
        <ele>169.2</ele>
        <time>2012-10-24T12:05:06Z</time>
      </trkpt>
      <trkpt lat="43.49073" lon="6.33364">
        <ele>167</ele>
        <time>2012-10-24T12:05:17Z</time>
      </trkpt>
      <trkpt lat="43.49066" lon="6.3336">
        <ele>165.1</ele>
        <time>2012-10-24T12:05:27Z</time>
      </trkpt>
      <trkpt lat="43.49061" lon="6.3335">
        <ele>164.5</ele>
        <time>2012-10-24T12:05:34Z</time>
      </trkpt>
      <trkpt lat="43.49054" lon="6.33343">
        <ele>162.9</ele>
        <time>2012-10-24T12:05:42Z</time>
      </trkpt>
      <trkpt lat="43.49046" lon="6.3334">
        <ele>160.6</ele>
        <time>2012-10-24T12:05:56Z</time>
      </trkpt>
      <trkpt lat="43.49045" lon="6.33339">
        <ele>160.5</ele>
        <time>2012-10-24T12:05:57Z</time>
      </trkpt>
      <trkpt lat="43.4904" lon="6.33327">
        <ele>158.2</ele>
        <time>2012-10-24T12:06:13Z</time>
      </trkpt>
      <trkpt lat="43.4904" lon="6.33315">
        <ele>158.5</ele>
        <time>2012-10-24T12:06:22Z</time>
      </trkpt>
      <trkpt lat="43.49033" lon="6.33322">
        <ele>158.6</ele>
        <time>2012-10-24T12:06:50Z</time>
      </trkpt>
      <trkpt lat="43.49026" lon="6.33329">
        <ele>158.1</ele>
        <time>2012-10-24T12:07:02Z</time>
      </trkpt>
      <trkpt lat="43.49025" lon="6.33329">
        <ele>158</ele>
        <time>2012-10-24T12:07:03Z</time>
      </trkpt>
      <trkpt lat="43.49013" lon="6.33345">
        <ele>157.5</ele>
        <time>2012-10-24T12:07:43Z</time>
      </trkpt>
      <trkpt lat="43.49007" lon="6.33354">
        <ele>157.3</ele>
        <time>2012-10-24T12:07:54Z</time>
      </trkpt>
      <trkpt lat="43.49004" lon="6.33365">
        <ele>157.5</ele>
        <time>2012-10-24T12:08:06Z</time>
      </trkpt>
      <trkpt lat="43.49003" lon="6.33366">
        <ele>157.4</ele>
        <time>2012-10-24T12:08:07Z</time>
      </trkpt>
      <trkpt lat="43.48995" lon="6.33385">
        <ele>157.7</ele>
        <time>2012-10-24T12:08:24Z</time>
      </trkpt>
      <trkpt lat="43.48992" lon="6.33396">
        <ele>158</ele>
        <time>2012-10-24T12:08:32Z</time>
      </trkpt>
      <trkpt lat="43.48993" lon="6.33407">
        <ele>156.5</ele>
        <time>2012-10-24T12:08:41Z</time>
      </trkpt>
      <trkpt lat="43.48995" lon="6.33418">
        <ele>155.8</ele>
        <time>2012-10-24T12:08:47Z</time>
      </trkpt>
      <trkpt lat="43.48991" lon="6.3343">
        <ele>154.9</ele>
        <time>2012-10-24T12:08:55Z</time>
      </trkpt>
      <trkpt lat="43.48986" lon="6.33438">
        <ele>155.1</ele>
        <time>2012-10-24T12:09:02Z</time>
      </trkpt>
      <trkpt lat="43.48981" lon="6.33446">
        <ele>154</ele>
        <time>2012-10-24T12:09:09Z</time>
      </trkpt>
      <trkpt lat="43.4898" lon="6.33448">
        <ele>153.5</ele>
        <time>2012-10-24T12:09:10Z</time>
      </trkpt>
      <trkpt lat="43.48967" lon="6.33446">
        <ele>152.6</ele>
        <time>2012-10-24T12:10:32Z</time>
      </trkpt>
      <trkpt lat="43.48966" lon="6.33445">
        <ele>152.3</ele>
        <time>2012-10-24T12:10:33Z</time>
      </trkpt>
      <trkpt lat="43.48955" lon="6.33461">
        <ele>152.3</ele>
        <time>2012-10-24T12:10:53Z</time>
      </trkpt>
      <trkpt lat="43.48949" lon="6.33469">
        <ele>152.4</ele>
        <time>2012-10-24T12:11:00Z</time>
      </trkpt>
      <trkpt lat="43.4894" lon="6.33471">
        <ele>152.5</ele>
        <time>2012-10-24T12:11:07Z</time>
      </trkpt>
      <trkpt lat="43.48932" lon="6.33473">
        <ele>151.8</ele>
        <time>2012-10-24T12:11:14Z</time>
      </trkpt>
      <trkpt lat="43.48924" lon="6.33479">
        <ele>151.3</ele>
        <time>2012-10-24T12:11:20Z</time>
      </trkpt>
      <trkpt lat="43.48916" lon="6.33482">
        <ele>151.1</ele>
        <time>2012-10-24T12:11:26Z</time>
      </trkpt>
      <trkpt lat="43.48908" lon="6.33486">
        <ele>150.9</ele>
        <time>2012-10-24T12:11:31Z</time>
      </trkpt>
      <trkpt lat="43.48901" lon="6.33489">
        <ele>150.7</ele>
        <time>2012-10-24T12:11:36Z</time>
      </trkpt>
      <trkpt lat="43.489" lon="6.3349">
        <ele>150.5</ele>
        <time>2012-10-24T12:11:37Z</time>
      </trkpt>
      <trkpt lat="43.48885" lon="6.33493">
        <ele>149.5</ele>
        <time>2012-10-24T12:11:48Z</time>
      </trkpt>
      <trkpt lat="43.48877" lon="6.33496">
        <ele>149.2</ele>
        <time>2012-10-24T12:11:56Z</time>
      </trkpt>
      <trkpt lat="43.48869" lon="6.335">
        <ele>149.2</ele>
        <time>2012-10-24T12:12:03Z</time>
      </trkpt>
      <trkpt lat="43.48861" lon="6.33504">
        <ele>148.6</ele>
        <time>2012-10-24T12:12:11Z</time>
      </trkpt>
      <trkpt lat="43.48855" lon="6.33509">
        <ele>148.3</ele>
        <time>2012-10-24T12:12:18Z</time>
      </trkpt>
      <trkpt lat="43.48847" lon="6.33513">
        <ele>148.4</ele>
        <time>2012-10-24T12:12:23Z</time>
      </trkpt>
      <trkpt lat="43.48842" lon="6.3352">
        <ele>148.3</ele>
        <time>2012-10-24T12:12:29Z</time>
      </trkpt>
      <trkpt lat="43.48834" lon="6.33526">
        <ele>148.4</ele>
        <time>2012-10-24T12:12:35Z</time>
      </trkpt>
      <trkpt lat="43.48827" lon="6.33533">
        <ele>149.2</ele>
        <time>2012-10-24T12:12:41Z</time>
      </trkpt>
      <trkpt lat="43.48826" lon="6.33534">
        <ele>149.2</ele>
        <time>2012-10-24T12:12:42Z</time>
      </trkpt>
      <trkpt lat="43.48811" lon="6.33541">
        <ele>149.4</ele>
        <time>2012-10-24T12:12:55Z</time>
      </trkpt>
      <trkpt lat="43.48803" lon="6.33544">
        <ele>149.6</ele>
        <time>2012-10-24T12:13:02Z</time>
      </trkpt>
      <trkpt lat="43.48794" lon="6.33549">
        <ele>149.3</ele>
        <time>2012-10-24T12:13:10Z</time>
      </trkpt>
      <trkpt lat="43.48787" lon="6.33554">
        <ele>148.8</ele>
        <time>2012-10-24T12:13:17Z</time>
      </trkpt>
      <trkpt lat="43.4878" lon="6.3356">
        <ele>148.9</ele>
        <time>2012-10-24T12:13:23Z</time>
      </trkpt>
      <trkpt lat="43.48773" lon="6.33565">
        <ele>149.3</ele>
        <time>2012-10-24T12:13:28Z</time>
      </trkpt>
      <trkpt lat="43.48765" lon="6.3357">
        <ele>150</ele>
        <time>2012-10-24T12:13:34Z</time>
      </trkpt>
      <trkpt lat="43.48757" lon="6.33572">
        <ele>150.5</ele>
        <time>2012-10-24T12:13:41Z</time>
      </trkpt>
      <trkpt lat="43.48749" lon="6.3357">
        <ele>150.7</ele>
        <time>2012-10-24T12:13:48Z</time>
      </trkpt>
      <trkpt lat="43.48748" lon="6.3357">
        <ele>150.8</ele>
        <time>2012-10-24T12:13:49Z</time>
      </trkpt>
      <trkpt lat="43.48737" lon="6.33559">
        <ele>151.1</ele>
        <time>2012-10-24T12:14:04Z</time>
      </trkpt>
      <trkpt lat="43.48743" lon="6.33551">
        <ele>152.8</ele>
        <time>2012-10-24T12:14:09Z</time>
      </trkpt>
      <trkpt lat="43.48748" lon="6.33542">
        <ele>153.7</ele>
        <time>2012-10-24T12:14:16Z</time>
      </trkpt>
      <trkpt lat="43.48754" lon="6.33537">
        <ele>154.8</ele>
        <time>2012-10-24T12:14:22Z</time>
      </trkpt>
      <trkpt lat="43.4876" lon="6.33529">
        <ele>155.5</ele>
        <time>2012-10-24T12:14:29Z</time>
      </trkpt>
      <trkpt lat="43.48765" lon="6.33519">
        <ele>156.7</ele>
        <time>2012-10-24T12:14:38Z</time>
      </trkpt>
      <trkpt lat="43.48763" lon="6.33508">
        <ele>159.7</ele>
        <time>2012-10-24T12:14:50Z</time>
      </trkpt>
      <trkpt lat="43.48762" lon="6.33507">
        <ele>159.9</ele>
        <time>2012-10-24T12:14:51Z</time>
      </trkpt>
      <trkpt lat="43.48765" lon="6.33487">
        <ele>162.2</ele>
        <time>2012-10-24T12:15:04Z</time>
      </trkpt>
      <trkpt lat="43.48771" lon="6.33479">
        <ele>163</ele>
        <time>2012-10-24T12:15:11Z</time>
      </trkpt>
      <trkpt lat="43.48777" lon="6.33472">
        <ele>163.7</ele>
        <time>2012-10-24T12:15:17Z</time>
      </trkpt>
      <trkpt lat="43.48784" lon="6.33464">
        <ele>164.7</ele>
        <time>2012-10-24T12:15:24Z</time>
      </trkpt>
      <trkpt lat="43.48787" lon="6.33453">
        <ele>166</ele>
        <time>2012-10-24T12:15:33Z</time>
      </trkpt>
      <trkpt lat="43.48786" lon="6.33441">
        <ele>167.2</ele>
        <time>2012-10-24T12:15:40Z</time>
      </trkpt>
      <trkpt lat="43.48785" lon="6.3343">
        <ele>168.8</ele>
        <time>2012-10-24T12:15:52Z</time>
      </trkpt>
      <trkpt lat="43.48785" lon="6.33429">
        <ele>168.9</ele>
        <time>2012-10-24T12:15:53Z</time>
      </trkpt>
      <trkpt lat="43.48788" lon="6.33407">
        <ele>170.1</ele>
        <time>2012-10-24T12:16:03Z</time>
      </trkpt>
      <trkpt lat="43.4879" lon="6.33396">
        <ele>170.8</ele>
        <time>2012-10-24T12:16:09Z</time>
      </trkpt>
      <trkpt lat="43.48792" lon="6.33385">
        <ele>171.4</ele>
        <time>2012-10-24T12:16:15Z</time>
      </trkpt>
      <trkpt lat="43.48796" lon="6.33375">
        <ele>172.8</ele>
        <time>2012-10-24T12:16:21Z</time>
      </trkpt>
      <trkpt lat="43.48798" lon="6.33363">
        <ele>172.5</ele>
        <time>2012-10-24T12:16:27Z</time>
      </trkpt>
      <trkpt lat="43.48801" lon="6.33353">
        <ele>173.2</ele>
        <time>2012-10-24T12:16:33Z</time>
      </trkpt>
      <trkpt lat="43.48806" lon="6.33343">
        <ele>174.2</ele>
        <time>2012-10-24T12:16:41Z</time>
      </trkpt>
      <trkpt lat="43.48809" lon="6.33331">
        <ele>174.6</ele>
        <time>2012-10-24T12:16:48Z</time>
      </trkpt>
      <trkpt lat="43.48814" lon="6.33322">
        <ele>175.3</ele>
        <time>2012-10-24T12:16:55Z</time>
      </trkpt>
      <trkpt lat="43.48814" lon="6.33321">
        <ele>175.4</ele>
        <time>2012-10-24T12:16:56Z</time>
      </trkpt>
      <trkpt lat="43.48822" lon="6.33304">
        <ele>175.6</ele>
        <time>2012-10-24T12:17:08Z</time>
      </trkpt>
      <trkpt lat="43.48827" lon="6.33295">
        <ele>175.9</ele>
        <time>2012-10-24T12:17:15Z</time>
      </trkpt>
      <trkpt lat="43.48833" lon="6.33288">
        <ele>176.5</ele>
        <time>2012-10-24T12:17:21Z</time>
      </trkpt>
      <trkpt lat="43.48838" lon="6.33279">
        <ele>177.7</ele>
        <time>2012-10-24T12:17:29Z</time>
      </trkpt>
      <trkpt lat="43.48841" lon="6.33268">
        <ele>179.1</ele>
        <time>2012-10-24T12:17:39Z</time>
      </trkpt>
      <trkpt lat="43.48844" lon="6.33258">
        <ele>179.8</ele>
        <time>2012-10-24T12:17:45Z</time>
      </trkpt>
      <trkpt lat="43.48847" lon="6.33248">
        <ele>180.1</ele>
        <time>2012-10-24T12:17:50Z</time>
      </trkpt>
      <trkpt lat="43.48851" lon="6.33239">
        <ele>180.4</ele>
        <time>2012-10-24T12:17:55Z</time>
      </trkpt>
      <trkpt lat="43.48855" lon="6.3323">
        <ele>181.6</ele>
        <time>2012-10-24T12:18:01Z</time>
      </trkpt>
      <trkpt lat="43.48856" lon="6.33229">
        <ele>181.7</ele>
        <time>2012-10-24T12:18:02Z</time>
      </trkpt>
      <trkpt lat="43.48868" lon="6.33214">
        <ele>181.4</ele>
        <time>2012-10-24T12:18:16Z</time>
      </trkpt>
      <trkpt lat="43.48875" lon="6.33207">
        <ele>181</ele>
        <time>2012-10-24T12:18:24Z</time>
      </trkpt>
      <trkpt lat="43.4888" lon="6.33198">
        <ele>180.8</ele>
        <time>2012-10-24T12:18:31Z</time>
      </trkpt>
      <trkpt lat="43.48883" lon="6.33187">
        <ele>180.4</ele>
        <time>2012-10-24T12:18:37Z</time>
      </trkpt>
      <trkpt lat="43.48886" lon="6.33177">
        <ele>180.1</ele>
        <time>2012-10-24T12:18:44Z</time>
      </trkpt>
      <trkpt lat="43.4889" lon="6.33167">
        <ele>180.8</ele>
        <time>2012-10-24T12:18:50Z</time>
      </trkpt>
      <trkpt lat="43.48893" lon="6.33157">
        <ele>180.4</ele>
        <time>2012-10-24T12:18:57Z</time>
      </trkpt>
      <trkpt lat="43.48899" lon="6.33148">
        <ele>179.9</ele>
        <time>2012-10-24T12:19:05Z</time>
      </trkpt>
      <trkpt lat="43.489" lon="6.33148">
        <ele>179.9</ele>
        <time>2012-10-24T12:19:06Z</time>
      </trkpt>
      <trkpt lat="43.48916" lon="6.33148">
        <ele>181</ele>
        <time>2012-10-24T12:19:20Z</time>
      </trkpt>
      <trkpt lat="43.48924" lon="6.33147">
        <ele>181.1</ele>
        <time>2012-10-24T12:19:26Z</time>
      </trkpt>
      <trkpt lat="43.48932" lon="6.33147">
        <ele>180.9</ele>
        <time>2012-10-24T12:19:31Z</time>
      </trkpt>
      <trkpt lat="43.48941" lon="6.33147">
        <ele>181</ele>
        <time>2012-10-24T12:19:36Z</time>
      </trkpt>
      <trkpt lat="43.48949" lon="6.33146">
        <ele>180.8</ele>
        <time>2012-10-24T12:19:44Z</time>
      </trkpt>
      <trkpt lat="43.48957" lon="6.33147">
        <ele>180.9</ele>
        <time>2012-10-24T12:19:51Z</time>
      </trkpt>
      <trkpt lat="43.48966" lon="6.33145">
        <ele>181.4</ele>
        <time>2012-10-24T12:19:58Z</time>
      </trkpt>
      <trkpt lat="43.48974" lon="6.33139">
        <ele>181.6</ele>
        <time>2012-10-24T12:20:07Z</time>
      </trkpt>
      <trkpt lat="43.48974" lon="6.33139">
        <ele>181.8</ele>
        <time>2012-10-24T12:20:08Z</time>
      </trkpt>
      <trkpt lat="43.48976" lon="6.33117">
        <ele>182</ele>
        <time>2012-10-24T12:20:27Z</time>
      </trkpt>
      <trkpt lat="43.48977" lon="6.33105">
        <ele>182.6</ele>
        <time>2012-10-24T12:20:35Z</time>
      </trkpt>
      <trkpt lat="43.48978" lon="6.33094">
        <ele>182.8</ele>
        <time>2012-10-24T12:20:41Z</time>
      </trkpt>
      <trkpt lat="43.48979" lon="6.33082">
        <ele>183.7</ele>
        <time>2012-10-24T12:20:48Z</time>
      </trkpt>
      <trkpt lat="43.48979" lon="6.3307">
        <ele>184.3</ele>
        <time>2012-10-24T12:20:55Z</time>
      </trkpt>
      <trkpt lat="43.48979" lon="6.33059">
        <ele>184.7</ele>
        <time>2012-10-24T12:21:01Z</time>
      </trkpt>
      <trkpt lat="43.48981" lon="6.33047">
        <ele>184.9</ele>
        <time>2012-10-24T12:21:08Z</time>
      </trkpt>
      <trkpt lat="43.48981" lon="6.33046">
        <ele>184.9</ele>
        <time>2012-10-24T12:21:09Z</time>
      </trkpt>
      <trkpt lat="43.48988" lon="6.33026">
        <ele>185.5</ele>
        <time>2012-10-24T12:21:21Z</time>
      </trkpt>
      <trkpt lat="43.48994" lon="6.33017">
        <ele>186.5</ele>
        <time>2012-10-24T12:21:28Z</time>
      </trkpt>
      <trkpt lat="43.48986" lon="6.33013">
        <ele>186.2</ele>
        <time>2012-10-24T12:21:49Z</time>
      </trkpt>
      <trkpt lat="43.48977" lon="6.33014">
        <ele>184.9</ele>
        <time>2012-10-24T12:21:56Z</time>
      </trkpt>
      <trkpt lat="43.48969" lon="6.33013">
        <ele>183.7</ele>
        <time>2012-10-24T12:22:03Z</time>
      </trkpt>
      <trkpt lat="43.48961" lon="6.33011">
        <ele>183.7</ele>
        <time>2012-10-24T12:22:12Z</time>
      </trkpt>
      <trkpt lat="43.4896" lon="6.3301">
        <ele>183.6</ele>
        <time>2012-10-24T12:22:13Z</time>
      </trkpt>
      <trkpt lat="43.48958" lon="6.3299">
        <ele>182.8</ele>
        <time>2012-10-24T12:22:28Z</time>
      </trkpt>
      <trkpt lat="43.48959" lon="6.32977">
        <ele>182.2</ele>
        <time>2012-10-24T12:22:37Z</time>
      </trkpt>
      <trkpt lat="43.48958" lon="6.32966">
        <ele>182</ele>
        <time>2012-10-24T12:22:44Z</time>
      </trkpt>
      <trkpt lat="43.48958" lon="6.32955">
        <ele>182</ele>
        <time>2012-10-24T12:22:52Z</time>
      </trkpt>
      <trkpt lat="43.48956" lon="6.32943">
        <ele>181.4</ele>
        <time>2012-10-24T12:23:00Z</time>
      </trkpt>
      <trkpt lat="43.48956" lon="6.32932">
        <ele>181.3</ele>
        <time>2012-10-24T12:23:08Z</time>
      </trkpt>
      <trkpt lat="43.48955" lon="6.3292">
        <ele>181.5</ele>
        <time>2012-10-24T12:23:15Z</time>
      </trkpt>
      <trkpt lat="43.48955" lon="6.32919">
        <ele>181.5</ele>
        <time>2012-10-24T12:23:16Z</time>
      </trkpt>
      <trkpt lat="43.48952" lon="6.32897">
        <ele>181.3</ele>
        <time>2012-10-24T12:23:36Z</time>
      </trkpt>
      <trkpt lat="43.48944" lon="6.32899">
        <ele>182.1</ele>
        <time>2012-10-24T12:26:48Z</time>
      </trkpt>
      <trkpt lat="43.48943" lon="6.32899">
        <ele>182</ele>
        <time>2012-10-24T12:26:49Z</time>
      </trkpt>
      <trkpt lat="43.48927" lon="6.32902">
        <ele>181.5</ele>
        <time>2012-10-24T12:27:03Z</time>
      </trkpt>
      <trkpt lat="43.48918" lon="6.32903">
        <ele>181.2</ele>
        <time>2012-10-24T12:27:12Z</time>
      </trkpt>
      <trkpt lat="43.4891" lon="6.32905">
        <ele>181.1</ele>
        <time>2012-10-24T12:27:21Z</time>
      </trkpt>
      <trkpt lat="43.48902" lon="6.32906">
        <ele>180.8</ele>
        <time>2012-10-24T12:27:28Z</time>
      </trkpt>
      <trkpt lat="43.48894" lon="6.32905">
        <ele>180.8</ele>
        <time>2012-10-24T12:27:35Z</time>
      </trkpt>
      <trkpt lat="43.48885" lon="6.32906">
        <ele>181.1</ele>
        <time>2012-10-24T12:27:42Z</time>
      </trkpt>
      <trkpt lat="43.48876" lon="6.32907">
        <ele>180.9</ele>
        <time>2012-10-24T12:27:51Z</time>
      </trkpt>
      <trkpt lat="43.48875" lon="6.32907">
        <ele>180.8</ele>
        <time>2012-10-24T12:27:52Z</time>
      </trkpt>
      <trkpt lat="43.48861" lon="6.32904">
        <ele>181.4</ele>
        <time>2012-10-24T12:28:04Z</time>
      </trkpt>
      <trkpt lat="43.48852" lon="6.32904">
        <ele>181.8</ele>
        <time>2012-10-24T12:28:10Z</time>
      </trkpt>
      <trkpt lat="43.48844" lon="6.32901">
        <ele>182.9</ele>
        <time>2012-10-24T12:28:17Z</time>
      </trkpt>
      <trkpt lat="43.48836" lon="6.32898">
        <ele>183.9</ele>
        <time>2012-10-24T12:28:27Z</time>
      </trkpt>
      <trkpt lat="43.48828" lon="6.32901">
        <ele>184.5</ele>
        <time>2012-10-24T12:28:34Z</time>
      </trkpt>
      <trkpt lat="43.48819" lon="6.32899">
        <ele>185.2</ele>
        <time>2012-10-24T12:28:42Z</time>
      </trkpt>
      <trkpt lat="43.48812" lon="6.32896">
        <ele>185.4</ele>
        <time>2012-10-24T12:28:49Z</time>
      </trkpt>
      <trkpt lat="43.48805" lon="6.3289">
        <ele>185.5</ele>
        <time>2012-10-24T12:28:57Z</time>
      </trkpt>
      <trkpt lat="43.48803" lon="6.3289">
        <ele>185.4</ele>
        <time>2012-10-24T12:28:58Z</time>
      </trkpt>
      <trkpt lat="43.48788" lon="6.32886">
        <ele>184.6</ele>
        <time>2012-10-24T12:29:11Z</time>
      </trkpt>
      <trkpt lat="43.4878" lon="6.32887">
        <ele>184.2</ele>
        <time>2012-10-24T12:29:17Z</time>
      </trkpt>
      <trkpt lat="43.48772" lon="6.32883">
        <ele>184.1</ele>
        <time>2012-10-24T12:29:25Z</time>
      </trkpt>
      <trkpt lat="43.48765" lon="6.32878">
        <ele>183.7</ele>
        <time>2012-10-24T12:29:30Z</time>
      </trkpt>
      <trkpt lat="43.48757" lon="6.32875">
        <ele>183.8</ele>
        <time>2012-10-24T12:29:36Z</time>
      </trkpt>
      <trkpt lat="43.48749" lon="6.3287">
        <ele>183.7</ele>
        <time>2012-10-24T12:29:43Z</time>
      </trkpt>
      <trkpt lat="43.48741" lon="6.32864">
        <ele>183.9</ele>
        <time>2012-10-24T12:29:51Z</time>
      </trkpt>
      <trkpt lat="43.48739" lon="6.32852">
        <ele>185.8</ele>
        <time>2012-10-24T12:30:01Z</time>
      </trkpt>
      <trkpt lat="43.48739" lon="6.32851">
        <ele>186</ele>
        <time>2012-10-24T12:30:02Z</time>
      </trkpt>
      <trkpt lat="43.48742" lon="6.32831">
        <ele>189</ele>
        <time>2012-10-24T12:30:15Z</time>
      </trkpt>
      <trkpt lat="43.48745" lon="6.32822">
        <ele>189.9</ele>
        <time>2012-10-24T12:30:19Z</time>
      </trkpt>
      <trkpt lat="43.48748" lon="6.32811">
        <ele>191.1</ele>
        <time>2012-10-24T12:30:25Z</time>
      </trkpt>
      <trkpt lat="43.48753" lon="6.32802">
        <ele>192</ele>
        <time>2012-10-24T12:30:31Z</time>
      </trkpt>
      <trkpt lat="43.48759" lon="6.32796">
        <ele>194.6</ele>
        <time>2012-10-24T12:30:40Z</time>
      </trkpt>
      <trkpt lat="43.48766" lon="6.32789">
        <ele>195.4</ele>
        <time>2012-10-24T12:30:47Z</time>
      </trkpt>
      <trkpt lat="43.48772" lon="6.32783">
        <ele>195.9</ele>
        <time>2012-10-24T12:30:53Z</time>
      </trkpt>
      <trkpt lat="43.4878" lon="6.32777">
        <ele>196.4</ele>
        <time>2012-10-24T12:31:00Z</time>
      </trkpt>
      <trkpt lat="43.48786" lon="6.32769">
        <ele>196.7</ele>
        <time>2012-10-24T12:31:07Z</time>
      </trkpt>
      <trkpt lat="43.48787" lon="6.32767">
        <ele>196.7</ele>
        <time>2012-10-24T12:31:08Z</time>
      </trkpt>
      <trkpt lat="43.48787" lon="6.32747">
        <ele>196.8</ele>
        <time>2012-10-24T12:31:22Z</time>
      </trkpt>
      <trkpt lat="43.48788" lon="6.32735">
        <ele>196.3</ele>
        <time>2012-10-24T12:31:30Z</time>
      </trkpt>
      <trkpt lat="43.4879" lon="6.32723">
        <ele>195.5</ele>
        <time>2012-10-24T12:31:36Z</time>
      </trkpt>
      <trkpt lat="43.4879" lon="6.32711">
        <ele>194.7</ele>
        <time>2012-10-24T12:31:44Z</time>
      </trkpt>
      <trkpt lat="43.48792" lon="6.32701">
        <ele>194.4</ele>
        <time>2012-10-24T12:31:51Z</time>
      </trkpt>
      <trkpt lat="43.48795" lon="6.3269">
        <ele>193.9</ele>
        <time>2012-10-24T12:31:59Z</time>
      </trkpt>
      <trkpt lat="43.48798" lon="6.32678">
        <ele>192.7</ele>
        <time>2012-10-24T12:32:12Z</time>
      </trkpt>
      <trkpt lat="43.48798" lon="6.32676">
        <ele>192.5</ele>
        <time>2012-10-24T12:32:13Z</time>
      </trkpt>
      <trkpt lat="43.48802" lon="6.32657">
        <ele>190.2</ele>
        <time>2012-10-24T12:32:27Z</time>
      </trkpt>
      <trkpt lat="43.48801" lon="6.32645">
        <ele>189.8</ele>
        <time>2012-10-24T12:32:32Z</time>
      </trkpt>
      <trkpt lat="43.48802" lon="6.32634">
        <ele>189.3</ele>
        <time>2012-10-24T12:32:41Z</time>
      </trkpt>
      <trkpt lat="43.48804" lon="6.32622">
        <ele>189.3</ele>
        <time>2012-10-24T12:32:49Z</time>
      </trkpt>
      <trkpt lat="43.48804" lon="6.3261">
        <ele>188.9</ele>
        <time>2012-10-24T12:32:57Z</time>
      </trkpt>
      <trkpt lat="43.48803" lon="6.326">
        <ele>189.4</ele>
        <time>2012-10-24T12:33:02Z</time>
      </trkpt>
      <trkpt lat="43.48804" lon="6.32589">
        <ele>190.2</ele>
        <time>2012-10-24T12:33:08Z</time>
      </trkpt>
      <trkpt lat="43.48806" lon="6.32579">
        <ele>190.3</ele>
        <time>2012-10-24T12:33:16Z</time>
      </trkpt>
      <trkpt lat="43.48807" lon="6.32577">
        <ele>190.3</ele>
        <time>2012-10-24T12:33:17Z</time>
      </trkpt>
      <trkpt lat="43.4881" lon="6.32554">
        <ele>191.3</ele>
        <time>2012-10-24T12:33:29Z</time>
      </trkpt>
      <trkpt lat="43.48814" lon="6.32548">
        <ele>191.6</ele>
        <time>2012-10-24T12:33:33Z</time>
      </trkpt>
      <trkpt lat="43.48821" lon="6.32542">
        <ele>191.7</ele>
        <time>2012-10-24T12:33:38Z</time>
      </trkpt>
      <trkpt lat="43.48828" lon="6.32536">
        <ele>192.6</ele>
        <time>2012-10-24T12:33:46Z</time>
      </trkpt>
      <trkpt lat="43.48833" lon="6.32528">
        <ele>193.3</ele>
        <time>2012-10-24T12:33:52Z</time>
      </trkpt>
      <trkpt lat="43.48839" lon="6.3252">
        <ele>194.2</ele>
        <time>2012-10-24T12:33:59Z</time>
      </trkpt>
      <trkpt lat="43.48845" lon="6.32512">
        <ele>196.1</ele>
        <time>2012-10-24T12:34:08Z</time>
      </trkpt>
      <trkpt lat="43.48849" lon="6.32501">
        <ele>197.6</ele>
        <time>2012-10-24T12:34:17Z</time>
      </trkpt>
      <trkpt lat="43.4885" lon="6.32501">
        <ele>197.7</ele>
        <time>2012-10-24T12:34:18Z</time>
      </trkpt>
      <trkpt lat="43.48863" lon="6.32487">
        <ele>200.7</ele>
        <time>2012-10-24T12:34:34Z</time>
      </trkpt>
      <trkpt lat="43.48869" lon="6.32478">
        <ele>201.2</ele>
        <time>2012-10-24T12:34:41Z</time>
      </trkpt>
      <trkpt lat="43.48872" lon="6.32468">
        <ele>202</ele>
        <time>2012-10-24T12:34:49Z</time>
      </trkpt>
      <trkpt lat="43.48875" lon="6.32456">
        <ele>205</ele>
        <time>2012-10-24T12:35:04Z</time>
      </trkpt>
      <trkpt lat="43.48875" lon="6.32445">
        <ele>206.9</ele>
        <time>2012-10-24T12:35:14Z</time>
      </trkpt>
      <trkpt lat="43.48873" lon="6.32433">
        <ele>210.6</ele>
        <time>2012-10-24T12:35:29Z</time>
      </trkpt>
      <trkpt lat="43.48873" lon="6.32431">
        <ele>210.9</ele>
        <time>2012-10-24T12:35:30Z</time>
      </trkpt>
      <trkpt lat="43.48873" lon="6.3241">
        <ele>213.4</ele>
        <time>2012-10-24T12:35:44Z</time>
      </trkpt>
      <trkpt lat="43.48871" lon="6.32398">
        <ele>214.3</ele>
        <time>2012-10-24T12:35:55Z</time>
      </trkpt>
      <trkpt lat="43.48871" lon="6.32386">
        <ele>215.7</ele>
        <time>2012-10-24T12:36:03Z</time>
      </trkpt>
      <trkpt lat="43.48868" lon="6.32374">
        <ele>216.8</ele>
        <time>2012-10-24T12:36:11Z</time>
      </trkpt>
      <trkpt lat="43.48865" lon="6.32363">
        <ele>218.4</ele>
        <time>2012-10-24T12:36:21Z</time>
      </trkpt>
      <trkpt lat="43.48863" lon="6.32352">
        <ele>219.3</ele>
        <time>2012-10-24T12:36:28Z</time>
      </trkpt>
      <trkpt lat="43.48863" lon="6.32341">
        <ele>219.9</ele>
        <time>2012-10-24T12:36:33Z</time>
      </trkpt>
      <trkpt lat="43.48863" lon="6.32339">
        <ele>220.2</ele>
        <time>2012-10-24T12:36:34Z</time>
      </trkpt>
      <trkpt lat="43.48861" lon="6.32319">
        <ele>222.9</ele>
        <time>2012-10-24T12:36:49Z</time>
      </trkpt>
      <trkpt lat="43.48861" lon="6.32306">
        <ele>224</ele>
        <time>2012-10-24T12:36:57Z</time>
      </trkpt>
      <trkpt lat="43.48861" lon="6.32295">
        <ele>224.3</ele>
        <time>2012-10-24T12:37:04Z</time>
      </trkpt>
      <trkpt lat="43.4886" lon="6.32283">
        <ele>224.8</ele>
        <time>2012-10-24T12:37:11Z</time>
      </trkpt>
      <trkpt lat="43.48862" lon="6.32272">
        <ele>225.1</ele>
        <time>2012-10-24T12:37:17Z</time>
      </trkpt>
      <trkpt lat="43.48865" lon="6.32261">
        <ele>224.7</ele>
        <time>2012-10-24T12:37:23Z</time>
      </trkpt>
      <trkpt lat="43.48865" lon="6.3225">
        <ele>224.6</ele>
        <time>2012-10-24T12:37:29Z</time>
      </trkpt>
      <trkpt lat="43.48863" lon="6.32239">
        <ele>224.6</ele>
        <time>2012-10-24T12:37:33Z</time>
      </trkpt>
      <trkpt lat="43.48863" lon="6.32228">
        <ele>224.6</ele>
        <time>2012-10-24T12:37:40Z</time>
      </trkpt>
      <trkpt lat="43.48863" lon="6.32226">
        <ele>224.7</ele>
        <time>2012-10-24T12:37:41Z</time>
      </trkpt>
      <trkpt lat="43.48869" lon="6.32206">
        <ele>226.1</ele>
        <time>2012-10-24T12:37:51Z</time>
      </trkpt>
      <trkpt lat="43.48877" lon="6.32205">
        <ele>226.9</ele>
        <time>2012-10-24T12:38:07Z</time>
      </trkpt>
      <trkpt lat="43.48885" lon="6.32212">
        <ele>227.4</ele>
        <time>2012-10-24T12:38:23Z</time>
      </trkpt>
      <trkpt lat="43.48878" lon="6.32217">
        <ele>227.5</ele>
        <time>2012-10-24T12:38:42Z</time>
      </trkpt>
      <trkpt lat="43.48877" lon="6.32218">
        <ele>227.4</ele>
        <time>2012-10-24T12:38:43Z</time>
      </trkpt>
      <trkpt lat="43.48878" lon="6.32219">
        <ele>227.3</ele>
        <time>2012-10-24T12:39:48Z</time>
      </trkpt>
      <trkpt lat="43.48879" lon="6.32219">
        <ele>227.6</ele>
        <time>2012-10-24T12:39:49Z</time>
      </trkpt>
      <trkpt lat="43.4887" lon="6.32225">
        <ele>227.1</ele>
        <time>2012-10-24T12:41:02Z</time>
      </trkpt>
      <trkpt lat="43.48864" lon="6.32202">
        <ele>229.3</ele>
        <time>2012-10-24T12:41:35Z</time>
      </trkpt>
      <trkpt lat="43.48866" lon="6.32192">
        <ele>229.9</ele>
        <time>2012-10-24T12:41:40Z</time>
      </trkpt>
      <trkpt lat="43.48871" lon="6.32181">
        <ele>230.7</ele>
        <time>2012-10-24T12:41:47Z</time>
      </trkpt>
      <trkpt lat="43.48868" lon="6.3217">
        <ele>231.5</ele>
        <time>2012-10-24T12:41:54Z</time>
      </trkpt>
      <trkpt lat="43.48872" lon="6.3216">
        <ele>232.5</ele>
        <time>2012-10-24T12:42:00Z</time>
      </trkpt>
      <trkpt lat="43.48868" lon="6.3215">
        <ele>235.3</ele>
        <time>2012-10-24T12:42:17Z</time>
      </trkpt>
      <trkpt lat="43.48867" lon="6.32149">
        <ele>235.6</ele>
        <time>2012-10-24T12:42:18Z</time>
      </trkpt>
      <trkpt lat="43.48853" lon="6.32145">
        <ele>237.8</ele>
        <time>2012-10-24T12:42:32Z</time>
      </trkpt>
      <trkpt lat="43.48847" lon="6.32137">
        <ele>238.5</ele>
        <time>2012-10-24T12:42:44Z</time>
      </trkpt>
      <trkpt lat="43.48841" lon="6.32128">
        <ele>239</ele>
        <time>2012-10-24T12:42:53Z</time>
      </trkpt>
      <trkpt lat="43.48837" lon="6.32117">
        <ele>240</ele>
        <time>2012-10-24T12:43:09Z</time>
      </trkpt>
      <trkpt lat="43.48836" lon="6.32105">
        <ele>240.5</ele>
        <time>2012-10-24T12:43:18Z</time>
      </trkpt>
      <trkpt lat="43.48837" lon="6.32104">
        <ele>240.7</ele>
        <time>2012-10-24T12:43:19Z</time>
      </trkpt>
      <trkpt lat="43.48832" lon="6.32082">
        <ele>244.8</ele>
        <time>2012-10-24T12:43:50Z</time>
      </trkpt>
      <trkpt lat="43.48827" lon="6.32074">
        <ele>246.2</ele>
        <time>2012-10-24T12:43:58Z</time>
      </trkpt>
      <trkpt lat="43.48822" lon="6.32065">
        <ele>248.3</ele>
        <time>2012-10-24T12:44:10Z</time>
      </trkpt>
      <trkpt lat="43.48819" lon="6.32053">
        <ele>248.9</ele>
        <time>2012-10-24T12:44:21Z</time>
      </trkpt>
      <trkpt lat="43.4882" lon="6.32052">
        <ele>249.4</ele>
        <time>2012-10-24T12:44:22Z</time>
      </trkpt>
      <trkpt lat="43.48811" lon="6.32032">
        <ele>252.1</ele>
        <time>2012-10-24T12:44:41Z</time>
      </trkpt>
      <trkpt lat="43.48806" lon="6.32023">
        <ele>252.8</ele>
        <time>2012-10-24T12:44:50Z</time>
      </trkpt>
      <trkpt lat="43.48804" lon="6.32011">
        <ele>253.2</ele>
        <time>2012-10-24T12:44:58Z</time>
      </trkpt>
      <trkpt lat="43.48798" lon="6.32003">
        <ele>254.6</ele>
        <time>2012-10-24T12:45:07Z</time>
      </trkpt>
      <trkpt lat="43.48791" lon="6.31995">
        <ele>256.1</ele>
        <time>2012-10-24T12:45:20Z</time>
      </trkpt>
      <trkpt lat="43.48789" lon="6.31983">
        <ele>257.3</ele>
        <time>2012-10-24T12:45:28Z</time>
      </trkpt>
      <trkpt lat="43.48789" lon="6.31982">
        <ele>257.4</ele>
        <time>2012-10-24T12:45:29Z</time>
      </trkpt>
      <trkpt lat="43.48781" lon="6.31962">
        <ele>260</ele>
        <time>2012-10-24T12:45:47Z</time>
      </trkpt>
      <trkpt lat="43.48775" lon="6.31954">
        <ele>260.7</ele>
        <time>2012-10-24T12:46:00Z</time>
      </trkpt>
      <trkpt lat="43.4877" lon="6.31945">
        <ele>262</ele>
        <time>2012-10-24T12:46:07Z</time>
      </trkpt>
      <trkpt lat="43.48769" lon="6.31934">
        <ele>262.5</ele>
        <time>2012-10-24T12:46:18Z</time>
      </trkpt>
      <trkpt lat="43.48771" lon="6.31923">
        <ele>263.3</ele>
        <time>2012-10-24T12:46:28Z</time>
      </trkpt>
      <trkpt lat="43.48772" lon="6.31911">
        <ele>265.2</ele>
        <time>2012-10-24T12:46:39Z</time>
      </trkpt>
      <trkpt lat="43.48772" lon="6.3191">
        <ele>265.4</ele>
        <time>2012-10-24T12:46:40Z</time>
      </trkpt>
      <trkpt lat="43.48772" lon="6.31888">
        <ele>266.9</ele>
        <time>2012-10-24T12:46:54Z</time>
      </trkpt>
      <trkpt lat="43.48774" lon="6.31876">
        <ele>268</ele>
        <time>2012-10-24T12:47:06Z</time>
      </trkpt>
      <trkpt lat="43.48778" lon="6.31866">
        <ele>268.8</ele>
        <time>2012-10-24T12:49:18Z</time>
      </trkpt>
      <trkpt lat="43.48778" lon="6.31864">
        <ele>268.9</ele>
        <time>2012-10-24T12:49:19Z</time>
      </trkpt>
      <trkpt lat="43.48773" lon="6.31843">
        <ele>269.9</ele>
        <time>2012-10-24T12:49:37Z</time>
      </trkpt>
      <trkpt lat="43.48769" lon="6.31832">
        <ele>272.4</ele>
        <time>2012-10-24T12:49:49Z</time>
      </trkpt>
      <trkpt lat="43.48769" lon="6.3182">
        <ele>272.6</ele>
        <time>2012-10-24T12:49:57Z</time>
      </trkpt>
      <trkpt lat="43.48764" lon="6.3181">
        <ele>274</ele>
        <time>2012-10-24T12:50:06Z</time>
      </trkpt>
      <trkpt lat="43.48757" lon="6.31803">
        <ele>273.9</ele>
        <time>2012-10-24T12:50:15Z</time>
      </trkpt>
      <trkpt lat="43.48753" lon="6.31793">
        <ele>274.3</ele>
        <time>2012-10-24T12:50:23Z</time>
      </trkpt>
      <trkpt lat="43.48752" lon="6.31793">
        <ele>274.2</ele>
        <time>2012-10-24T12:50:24Z</time>
      </trkpt>
      <trkpt lat="43.48755" lon="6.31772">
        <ele>276.2</ele>
        <time>2012-10-24T12:50:43Z</time>
      </trkpt>
      <trkpt lat="43.48755" lon="6.3176">
        <ele>276</ele>
        <time>2012-10-24T12:50:54Z</time>
      </trkpt>
      <trkpt lat="43.48751" lon="6.3175">
        <ele>276.2</ele>
        <time>2012-10-24T12:51:05Z</time>
      </trkpt>
      <trkpt lat="43.48751" lon="6.31739">
        <ele>277</ele>
        <time>2012-10-24T12:51:13Z</time>
      </trkpt>
      <trkpt lat="43.48752" lon="6.31728">
        <ele>276.8</ele>
        <time>2012-10-24T12:51:19Z</time>
      </trkpt>
      <trkpt lat="43.48752" lon="6.31716">
        <ele>277.6</ele>
        <time>2012-10-24T12:51:28Z</time>
      </trkpt>
      <trkpt lat="43.48752" lon="6.31715">
        <ele>277.9</ele>
        <time>2012-10-24T12:51:29Z</time>
      </trkpt>
      <trkpt lat="43.48753" lon="6.31693">
        <ele>278.7</ele>
        <time>2012-10-24T12:51:43Z</time>
      </trkpt>
      <trkpt lat="43.48752" lon="6.31681">
        <ele>278.6</ele>
        <time>2012-10-24T12:51:52Z</time>
      </trkpt>
      <trkpt lat="43.48752" lon="6.31669">
        <ele>280</ele>
        <time>2012-10-24T12:52:03Z</time>
      </trkpt>
      <trkpt lat="43.4875" lon="6.31658">
        <ele>279.3</ele>
        <time>2012-10-24T12:52:10Z</time>
      </trkpt>
      <trkpt lat="43.48749" lon="6.31647">
        <ele>279.7</ele>
        <time>2012-10-24T12:52:16Z</time>
      </trkpt>
      <trkpt lat="43.48747" lon="6.31635">
        <ele>279.3</ele>
        <time>2012-10-24T12:52:22Z</time>
      </trkpt>
      <trkpt lat="43.48746" lon="6.31623">
        <ele>279.1</ele>
        <time>2012-10-24T12:52:29Z</time>
      </trkpt>
      <trkpt lat="43.48746" lon="6.31622">
        <ele>278.6</ele>
        <time>2012-10-24T12:52:30Z</time>
      </trkpt>
      <trkpt lat="43.48743" lon="6.31601">
        <ele>278.4</ele>
        <time>2012-10-24T12:52:44Z</time>
      </trkpt>
      <trkpt lat="43.48743" lon="6.3159">
        <ele>276.7</ele>
        <time>2012-10-24T12:52:51Z</time>
      </trkpt>
      <trkpt lat="43.48744" lon="6.31578">
        <ele>276.1</ele>
        <time>2012-10-24T12:52:56Z</time>
      </trkpt>
      <trkpt lat="43.48748" lon="6.31567">
        <ele>275.6</ele>
        <time>2012-10-24T12:53:02Z</time>
      </trkpt>
      <trkpt lat="43.48753" lon="6.31559">
        <ele>275.6</ele>
        <time>2012-10-24T12:53:08Z</time>
      </trkpt>
      <trkpt lat="43.48754" lon="6.31547">
        <ele>274.4</ele>
        <time>2012-10-24T12:53:26Z</time>
      </trkpt>
      <trkpt lat="43.48746" lon="6.31553">
        <ele>274.5</ele>
        <time>2012-10-24T12:55:54Z</time>
      </trkpt>
      <trkpt lat="43.48745" lon="6.31553">
        <ele>274.1</ele>
        <time>2012-10-24T12:55:55Z</time>
      </trkpt>
      <trkpt lat="43.4873" lon="6.31554">
        <ele>274.7</ele>
        <time>2012-10-24T12:56:09Z</time>
      </trkpt>
      <trkpt lat="43.48721" lon="6.31553">
        <ele>275.4</ele>
        <time>2012-10-24T12:56:18Z</time>
      </trkpt>
      <trkpt lat="43.48713" lon="6.31552">
        <ele>277.1</ele>
        <time>2012-10-24T12:56:30Z</time>
      </trkpt>
      <trkpt lat="43.48704" lon="6.31553">
        <ele>278.4</ele>
        <time>2012-10-24T12:56:39Z</time>
      </trkpt>
      <trkpt lat="43.48697" lon="6.31558">
        <ele>279.8</ele>
        <time>2012-10-24T12:56:50Z</time>
      </trkpt>
      <trkpt lat="43.48689" lon="6.31561">
        <ele>281.6</ele>
        <time>2012-10-24T12:57:01Z</time>
      </trkpt>
      <trkpt lat="43.48688" lon="6.31561">
        <ele>282.1</ele>
        <time>2012-10-24T12:57:02Z</time>
      </trkpt>
      <trkpt lat="43.48673" lon="6.31565">
        <ele>285.1</ele>
        <time>2012-10-24T12:57:15Z</time>
      </trkpt>
      <trkpt lat="43.48664" lon="6.31567">
        <ele>285.4</ele>
        <time>2012-10-24T12:57:23Z</time>
      </trkpt>
      <trkpt lat="43.48656" lon="6.31571">
        <ele>285</ele>
        <time>2012-10-24T12:57:32Z</time>
      </trkpt>
      <trkpt lat="43.48649" lon="6.31577">
        <ele>285.6</ele>
        <time>2012-10-24T12:57:41Z</time>
      </trkpt>
      <trkpt lat="43.48644" lon="6.31586">
        <ele>285.4</ele>
        <time>2012-10-24T12:57:51Z</time>
      </trkpt>
      <trkpt lat="43.48639" lon="6.31593">
        <ele>286.6</ele>
        <time>2012-10-24T12:57:58Z</time>
      </trkpt>
      <trkpt lat="43.48634" lon="6.31602">
        <ele>287.2</ele>
        <time>2012-10-24T12:58:04Z</time>
      </trkpt>
      <trkpt lat="43.48633" lon="6.31604">
        <ele>287.4</ele>
        <time>2012-10-24T12:58:05Z</time>
      </trkpt>
      <trkpt lat="43.48623" lon="6.31621">
        <ele>287.1</ele>
        <time>2012-10-24T12:58:19Z</time>
      </trkpt>
      <trkpt lat="43.48617" lon="6.31629">
        <ele>287.5</ele>
        <time>2012-10-24T12:58:36Z</time>
      </trkpt>
      <trkpt lat="43.48608" lon="6.31626">
        <ele>287.4</ele>
        <time>2012-10-24T12:58:45Z</time>
      </trkpt>
      <trkpt lat="43.48602" lon="6.31621">
        <ele>287.2</ele>
        <time>2012-10-24T12:58:53Z</time>
      </trkpt>
      <trkpt lat="43.48595" lon="6.31612">
        <ele>287.2</ele>
        <time>2012-10-24T12:59:00Z</time>
      </trkpt>
      <trkpt lat="43.48589" lon="6.31604">
        <ele>286.3</ele>
        <time>2012-10-24T12:59:07Z</time>
      </trkpt>
      <trkpt lat="43.48589" lon="6.31602">
        <ele>286.4</ele>
        <time>2012-10-24T12:59:08Z</time>
      </trkpt>
      <trkpt lat="43.48579" lon="6.31586">
        <ele>284.6</ele>
        <time>2012-10-24T12:59:21Z</time>
      </trkpt>
      <trkpt lat="43.48572" lon="6.31578">
        <ele>283.1</ele>
        <time>2012-10-24T12:59:30Z</time>
      </trkpt>
      <trkpt lat="43.48567" lon="6.3157">
        <ele>280.6</ele>
        <time>2012-10-24T12:59:37Z</time>
      </trkpt>
      <trkpt lat="43.48561" lon="6.31561">
        <ele>280.1</ele>
        <time>2012-10-24T12:59:44Z</time>
      </trkpt>
      <trkpt lat="43.48554" lon="6.31554">
        <ele>278.8</ele>
        <time>2012-10-24T12:59:52Z</time>
      </trkpt>
      <trkpt lat="43.48549" lon="6.31545">
        <ele>276.6</ele>
        <time>2012-10-24T13:00:01Z</time>
      </trkpt>
      <trkpt lat="43.48545" lon="6.31535">
        <ele>275.4</ele>
        <time>2012-10-24T13:00:08Z</time>
      </trkpt>
      <trkpt lat="43.48544" lon="6.31534">
        <ele>275.8</ele>
        <time>2012-10-24T13:00:09Z</time>
      </trkpt>
      <trkpt lat="43.48536" lon="6.31515">
        <ele>272.9</ele>
        <time>2012-10-24T13:00:25Z</time>
      </trkpt>
      <trkpt lat="43.48536" lon="6.31503">
        <ele>272.1</ele>
        <time>2012-10-24T13:00:33Z</time>
      </trkpt>
      <trkpt lat="43.48533" lon="6.31492">
        <ele>270.7</ele>
        <time>2012-10-24T13:00:40Z</time>
      </trkpt>
      <trkpt lat="43.48529" lon="6.31483">
        <ele>269</ele>
        <time>2012-10-24T13:00:48Z</time>
      </trkpt>
      <trkpt lat="43.48525" lon="6.31473">
        <ele>268</ele>
        <time>2012-10-24T13:00:53Z</time>
      </trkpt>
      <trkpt lat="43.48519" lon="6.31464">
        <ele>266.2</ele>
        <time>2012-10-24T13:01:01Z</time>
      </trkpt>
      <trkpt lat="43.48511" lon="6.31459">
        <ele>265.3</ele>
        <time>2012-10-24T13:01:08Z</time>
      </trkpt>
      <trkpt lat="43.48505" lon="6.31451">
        <ele>265.1</ele>
        <time>2012-10-24T13:01:16Z</time>
      </trkpt>
      <trkpt lat="43.48504" lon="6.3145">
        <ele>265.1</ele>
        <time>2012-10-24T13:01:17Z</time>
      </trkpt>
      <trkpt lat="43.48494" lon="6.31433">
        <ele>262.6</ele>
        <time>2012-10-24T13:01:30Z</time>
      </trkpt>
      <trkpt lat="43.48489" lon="6.31423">
        <ele>261.7</ele>
        <time>2012-10-24T13:01:37Z</time>
      </trkpt>
      <trkpt lat="43.48487" lon="6.31412">
        <ele>261</ele>
        <time>2012-10-24T13:01:45Z</time>
      </trkpt>
      <trkpt lat="43.48483" lon="6.31401">
        <ele>259.8</ele>
        <time>2012-10-24T13:01:53Z</time>
      </trkpt>
      <trkpt lat="43.48481" lon="6.31391">
        <ele>258.5</ele>
        <time>2012-10-24T13:01:58Z</time>
      </trkpt>
      <trkpt lat="43.48479" lon="6.3138">
        <ele>258.4</ele>
        <time>2012-10-24T13:02:05Z</time>
      </trkpt>
      <trkpt lat="43.48475" lon="6.31369">
        <ele>257.5</ele>
        <time>2012-10-24T13:02:13Z</time>
      </trkpt>
      <trkpt lat="43.48474" lon="6.31358">
        <ele>256.6</ele>
        <time>2012-10-24T13:02:20Z</time>
      </trkpt>
      <trkpt lat="43.48474" lon="6.31357">
        <ele>256.7</ele>
        <time>2012-10-24T13:02:21Z</time>
      </trkpt>
      <trkpt lat="43.48473" lon="6.31336">
        <ele>254.5</ele>
        <time>2012-10-24T13:02:33Z</time>
      </trkpt>
      <trkpt lat="43.48472" lon="6.31324">
        <ele>253.7</ele>
        <time>2012-10-24T13:02:41Z</time>
      </trkpt>
      <trkpt lat="43.4847" lon="6.31313">
        <ele>252.8</ele>
        <time>2012-10-24T13:02:49Z</time>
      </trkpt>
      <trkpt lat="43.48465" lon="6.31302">
        <ele>252</ele>
        <time>2012-10-24T13:02:57Z</time>
      </trkpt>
      <trkpt lat="43.48458" lon="6.31295">
        <ele>250.5</ele>
        <time>2012-10-24T13:03:05Z</time>
      </trkpt>
      <trkpt lat="43.4845" lon="6.31292">
        <ele>248.9</ele>
        <time>2012-10-24T13:03:14Z</time>
      </trkpt>
      <trkpt lat="43.48441" lon="6.31291">
        <ele>247.8</ele>
        <time>2012-10-24T13:03:22Z</time>
      </trkpt>
      <trkpt lat="43.4844" lon="6.31291">
        <ele>247.8</ele>
        <time>2012-10-24T13:03:23Z</time>
      </trkpt>
      <trkpt lat="43.48426" lon="6.31282">
        <ele>244.5</ele>
        <time>2012-10-24T13:04:27Z</time>
      </trkpt>
      <trkpt lat="43.48425" lon="6.31282">
        <ele>244.1</ele>
        <time>2012-10-24T13:04:28Z</time>
      </trkpt>
      <trkpt lat="43.48412" lon="6.31269">
        <ele>240.4</ele>
        <time>2012-10-24T13:04:44Z</time>
      </trkpt>
      <trkpt lat="43.48409" lon="6.31258">
        <ele>238.6</ele>
        <time>2012-10-24T13:04:54Z</time>
      </trkpt>
      <trkpt lat="43.48404" lon="6.31249">
        <ele>237.3</ele>
        <time>2012-10-24T13:05:04Z</time>
      </trkpt>
      <trkpt lat="43.484" lon="6.31239">
        <ele>235.8</ele>
        <time>2012-10-24T13:05:15Z</time>
      </trkpt>
      <trkpt lat="43.48393" lon="6.31231">
        <ele>234.4</ele>
        <time>2012-10-24T13:05:25Z</time>
      </trkpt>
      <trkpt lat="43.48385" lon="6.31233">
        <ele>233.2</ele>
        <time>2012-10-24T13:05:35Z</time>
      </trkpt>
      <trkpt lat="43.48384" lon="6.31233">
        <ele>233.1</ele>
        <time>2012-10-24T13:05:36Z</time>
      </trkpt>
      <trkpt lat="43.48371" lon="6.31246">
        <ele>231.5</ele>
        <time>2012-10-24T13:05:50Z</time>
      </trkpt>
      <trkpt lat="43.48366" lon="6.31256">
        <ele>230.9</ele>
        <time>2012-10-24T13:05:58Z</time>
      </trkpt>
      <trkpt lat="43.48359" lon="6.31263">
        <ele>230.9</ele>
        <time>2012-10-24T13:06:04Z</time>
      </trkpt>
      <trkpt lat="43.48351" lon="6.31262">
        <ele>229.7</ele>
        <time>2012-10-24T13:06:12Z</time>
      </trkpt>
      <trkpt lat="43.48343" lon="6.31261">
        <ele>228.3</ele>
        <time>2012-10-24T13:06:19Z</time>
      </trkpt>
      <trkpt lat="43.48337" lon="6.31254">
        <ele>226.2</ele>
        <time>2012-10-24T13:06:28Z</time>
      </trkpt>
      <trkpt lat="43.4833" lon="6.31247">
        <ele>224.4</ele>
        <time>2012-10-24T13:06:35Z</time>
      </trkpt>
      <trkpt lat="43.48326" lon="6.31237">
        <ele>223.2</ele>
        <time>2012-10-24T13:06:40Z</time>
      </trkpt>
      <trkpt lat="43.48325" lon="6.31235">
        <ele>223</ele>
        <time>2012-10-24T13:06:41Z</time>
      </trkpt>
      <trkpt lat="43.48312" lon="6.31228">
        <ele>219.2</ele>
        <time>2012-10-24T13:06:58Z</time>
      </trkpt>
      <trkpt lat="43.48306" lon="6.3122">
        <ele>217.8</ele>
        <time>2012-10-24T13:07:06Z</time>
      </trkpt>
      <trkpt lat="43.483" lon="6.31211">
        <ele>215.5</ele>
        <time>2012-10-24T13:07:16Z</time>
      </trkpt>
      <trkpt lat="43.48293" lon="6.31204">
        <ele>213</ele>
        <time>2012-10-24T13:07:27Z</time>
      </trkpt>
      <trkpt lat="43.48289" lon="6.31195">
        <ele>212.1</ele>
        <time>2012-10-24T13:07:33Z</time>
      </trkpt>
      <trkpt lat="43.48283" lon="6.31187">
        <ele>211</ele>
        <time>2012-10-24T13:07:40Z</time>
      </trkpt>
      <trkpt lat="43.48275" lon="6.31182">
        <ele>209.6</ele>
        <time>2012-10-24T13:07:48Z</time>
      </trkpt>
      <trkpt lat="43.48274" lon="6.31182">
        <ele>209.5</ele>
        <time>2012-10-24T13:07:49Z</time>
      </trkpt>
      <trkpt lat="43.48261" lon="6.31192">
        <ele>208</ele>
        <time>2012-10-24T13:08:03Z</time>
      </trkpt>
      <trkpt lat="43.48252" lon="6.31196">
        <ele>207.2</ele>
        <time>2012-10-24T13:08:12Z</time>
      </trkpt>
      <trkpt lat="43.48245" lon="6.31195">
        <ele>206.6</ele>
        <time>2012-10-24T13:08:19Z</time>
      </trkpt>
      <trkpt lat="43.48237" lon="6.31195">
        <ele>206.2</ele>
        <time>2012-10-24T13:08:25Z</time>
      </trkpt>
      <trkpt lat="43.48228" lon="6.31197">
        <ele>205.5</ele>
        <time>2012-10-24T13:08:35Z</time>
      </trkpt>
      <trkpt lat="43.48222" lon="6.31188">
        <ele>205.9</ele>
        <time>2012-10-24T13:09:50Z</time>
      </trkpt>
      <trkpt lat="43.48221" lon="6.31188">
        <ele>206.1</ele>
        <time>2012-10-24T13:09:51Z</time>
      </trkpt>
      <trkpt lat="43.48224" lon="6.31199">
        <ele>206.6</ele>
        <time>2012-10-24T13:11:27Z</time>
      </trkpt>
      <trkpt lat="43.48224" lon="6.31201">
        <ele>206.6</ele>
        <time>2012-10-24T13:11:28Z</time>
      </trkpt>
      <trkpt lat="43.48227" lon="6.31222">
        <ele>207.9</ele>
        <time>2012-10-24T13:11:43Z</time>
      </trkpt>
      <trkpt lat="43.4823" lon="6.31234">
        <ele>208.3</ele>
        <time>2012-10-24T13:11:51Z</time>
      </trkpt>
      <trkpt lat="43.48232" lon="6.31245">
        <ele>209.2</ele>
        <time>2012-10-24T13:11:59Z</time>
      </trkpt>
      <trkpt lat="43.48231" lon="6.31257">
        <ele>210</ele>
        <time>2012-10-24T13:12:08Z</time>
      </trkpt>
      <trkpt lat="43.48232" lon="6.31269">
        <ele>209.8</ele>
        <time>2012-10-24T13:12:19Z</time>
      </trkpt>
      <trkpt lat="43.48226" lon="6.31276">
        <ele>209.2</ele>
        <time>2012-10-24T13:12:24Z</time>
      </trkpt>
      <trkpt lat="43.48224" lon="6.31288">
        <ele>209.4</ele>
        <time>2012-10-24T13:12:35Z</time>
      </trkpt>
      <trkpt lat="43.48224" lon="6.31289">
        <ele>209.4</ele>
        <time>2012-10-24T13:12:36Z</time>
      </trkpt>
      <trkpt lat="43.48223" lon="6.31312">
        <ele>209.6</ele>
        <time>2012-10-24T13:12:53Z</time>
      </trkpt>
      <trkpt lat="43.48219" lon="6.31323">
        <ele>209.9</ele>
        <time>2012-10-24T13:13:02Z</time>
      </trkpt>
      <trkpt lat="43.48217" lon="6.31333">
        <ele>209.7</ele>
        <time>2012-10-24T13:13:10Z</time>
      </trkpt>
      <trkpt lat="43.48219" lon="6.31345">
        <ele>209.1</ele>
        <time>2012-10-24T13:13:18Z</time>
      </trkpt>
      <trkpt lat="43.48218" lon="6.31357">
        <ele>208.4</ele>
        <time>2012-10-24T13:13:28Z</time>
      </trkpt>
      <trkpt lat="43.48212" lon="6.31364">
        <ele>207.8</ele>
        <time>2012-10-24T13:13:32Z</time>
      </trkpt>
      <trkpt lat="43.48211" lon="6.31375">
        <ele>207.1</ele>
        <time>2012-10-24T13:13:38Z</time>
      </trkpt>
      <trkpt lat="43.48211" lon="6.31377">
        <ele>206.9</ele>
        <time>2012-10-24T13:13:39Z</time>
      </trkpt>
      <trkpt lat="43.48216" lon="6.31396">
        <ele>204.7</ele>
        <time>2012-10-24T13:13:58Z</time>
      </trkpt>
      <trkpt lat="43.48224" lon="6.31402">
        <ele>203.9</ele>
        <time>2012-10-24T13:14:48Z</time>
      </trkpt>
      <trkpt lat="43.48225" lon="6.31403">
        <ele>204.1</ele>
        <time>2012-10-24T13:14:49Z</time>
      </trkpt>
      <trkpt lat="43.48237" lon="6.31413">
        <ele>203.7</ele>
        <time>2012-10-24T13:14:58Z</time>
      </trkpt>
      <trkpt lat="43.48238" lon="6.31424">
        <ele>203.2</ele>
        <time>2012-10-24T13:15:04Z</time>
      </trkpt>
      <trkpt lat="43.48238" lon="6.31436">
        <ele>202.9</ele>
        <time>2012-10-24T13:15:11Z</time>
      </trkpt>
      <trkpt lat="43.48236" lon="6.31447">
        <ele>202.8</ele>
        <time>2012-10-24T13:15:17Z</time>
      </trkpt>
      <trkpt lat="43.48238" lon="6.31458">
        <ele>202.2</ele>
        <time>2012-10-24T13:15:24Z</time>
      </trkpt>
      <trkpt lat="43.48239" lon="6.3147">
        <ele>203</ele>
        <time>2012-10-24T13:15:31Z</time>
      </trkpt>
      <trkpt lat="43.48233" lon="6.31478">
        <ele>202.8</ele>
        <time>2012-10-24T13:15:39Z</time>
      </trkpt>
      <trkpt lat="43.48225" lon="6.31478">
        <ele>201.9</ele>
        <time>2012-10-24T13:15:46Z</time>
      </trkpt>
      <trkpt lat="43.48216" lon="6.31476">
        <ele>201.3</ele>
        <time>2012-10-24T13:15:52Z</time>
      </trkpt>
      <trkpt lat="43.48215" lon="6.31477">
        <ele>201.1</ele>
        <time>2012-10-24T13:15:53Z</time>
      </trkpt>
      <trkpt lat="43.48201" lon="6.31484">
        <ele>200.5</ele>
        <time>2012-10-24T13:16:04Z</time>
      </trkpt>
      <trkpt lat="43.48193" lon="6.31483">
        <ele>200.1</ele>
        <time>2012-10-24T13:16:14Z</time>
      </trkpt>
      <trkpt lat="43.48185" lon="6.31485">
        <ele>199.3</ele>
        <time>2012-10-24T13:16:19Z</time>
      </trkpt>
      <trkpt lat="43.48177" lon="6.3149">
        <ele>199</ele>
        <time>2012-10-24T13:16:26Z</time>
      </trkpt>
      <trkpt lat="43.48169" lon="6.31493">
        <ele>198.3</ele>
        <time>2012-10-24T13:16:33Z</time>
      </trkpt>
      <trkpt lat="43.48161" lon="6.31498">
        <ele>198.5</ele>
        <time>2012-10-24T13:16:49Z</time>
      </trkpt>
      <trkpt lat="43.48157" lon="6.31488">
        <ele>198.7</ele>
        <time>2012-10-24T13:17:42Z</time>
      </trkpt>
      <trkpt lat="43.48156" lon="6.31487">
        <ele>198.7</ele>
        <time>2012-10-24T13:17:43Z</time>
      </trkpt>
      <trkpt lat="43.48173" lon="6.31478">
        <ele>199.4</ele>
        <time>2012-10-24T13:18:48Z</time>
      </trkpt>
      <trkpt lat="43.48174" lon="6.31478">
        <ele>199.5</ele>
        <time>2012-10-24T13:18:49Z</time>
      </trkpt>
      <trkpt lat="43.48189" lon="6.31472">
        <ele>199.8</ele>
        <time>2012-10-24T13:19:00Z</time>
      </trkpt>
      <trkpt lat="43.48198" lon="6.31469">
        <ele>200</ele>
        <time>2012-10-24T13:19:06Z</time>
      </trkpt>
      <trkpt lat="43.48204" lon="6.31462">
        <ele>200.2</ele>
        <time>2012-10-24T13:19:12Z</time>
      </trkpt>
      <trkpt lat="43.48212" lon="6.3146">
        <ele>201.1</ele>
        <time>2012-10-24T13:19:20Z</time>
      </trkpt>
      <trkpt lat="43.4822" lon="6.31466">
        <ele>201.4</ele>
        <time>2012-10-24T13:19:25Z</time>
      </trkpt>
      <trkpt lat="43.48228" lon="6.31469">
        <ele>202.3</ele>
        <time>2012-10-24T13:19:31Z</time>
      </trkpt>
      <trkpt lat="43.48234" lon="6.31461">
        <ele>203.3</ele>
        <time>2012-10-24T13:19:51Z</time>
      </trkpt>
      <trkpt lat="43.48234" lon="6.3146">
        <ele>203.3</ele>
        <time>2012-10-24T13:19:52Z</time>
      </trkpt>
      <trkpt lat="43.48233" lon="6.31437">
        <ele>203.1</ele>
        <time>2012-10-24T13:20:12Z</time>
      </trkpt>
      <trkpt lat="43.48233" lon="6.31426">
        <ele>203.9</ele>
        <time>2012-10-24T13:20:19Z</time>
      </trkpt>
      <trkpt lat="43.48233" lon="6.31415">
        <ele>204</ele>
        <time>2012-10-24T13:20:26Z</time>
      </trkpt>
      <trkpt lat="43.48225" lon="6.3141">
        <ele>204.3</ele>
        <time>2012-10-24T13:20:36Z</time>
      </trkpt>
      <trkpt lat="43.48217" lon="6.31406">
        <ele>204.6</ele>
        <time>2012-10-24T13:20:44Z</time>
      </trkpt>
      <trkpt lat="43.48209" lon="6.31402">
        <ele>205.3</ele>
        <time>2012-10-24T13:20:52Z</time>
      </trkpt>
      <trkpt lat="43.48209" lon="6.31401">
        <ele>205.3</ele>
        <time>2012-10-24T13:20:53Z</time>
      </trkpt>
      <trkpt lat="43.48209" lon="6.31378">
        <ele>206.8</ele>
        <time>2012-10-24T13:21:06Z</time>
      </trkpt>
      <trkpt lat="43.4821" lon="6.31366">
        <ele>207.8</ele>
        <time>2012-10-24T13:21:13Z</time>
      </trkpt>
      <trkpt lat="43.48209" lon="6.31355">
        <ele>208.1</ele>
        <time>2012-10-24T13:21:21Z</time>
      </trkpt>
      <trkpt lat="43.4821" lon="6.31343">
        <ele>209.1</ele>
        <time>2012-10-24T13:21:31Z</time>
      </trkpt>
      <trkpt lat="43.48211" lon="6.31332">
        <ele>209.8</ele>
        <time>2012-10-24T13:21:39Z</time>
      </trkpt>
      <trkpt lat="43.48212" lon="6.3132">
        <ele>210</ele>
        <time>2012-10-24T13:21:45Z</time>
      </trkpt>
      <trkpt lat="43.48215" lon="6.3131">
        <ele>210</ele>
        <time>2012-10-24T13:21:52Z</time>
      </trkpt>
      <trkpt lat="43.48219" lon="6.31299">
        <ele>210</ele>
        <time>2012-10-24T13:21:59Z</time>
      </trkpt>
      <trkpt lat="43.48219" lon="6.31298">
        <ele>209.8</ele>
        <time>2012-10-24T13:22:00Z</time>
      </trkpt>
      <trkpt lat="43.48218" lon="6.31277">
        <ele>209.6</ele>
        <time>2012-10-24T13:22:15Z</time>
      </trkpt>
      <trkpt lat="43.48223" lon="6.31268">
        <ele>209.8</ele>
        <time>2012-10-24T13:22:24Z</time>
      </trkpt>
      <trkpt lat="43.48225" lon="6.31256">
        <ele>210.5</ele>
        <time>2012-10-24T13:22:31Z</time>
      </trkpt>
      <trkpt lat="43.48226" lon="6.31244">
        <ele>209.9</ele>
        <time>2012-10-24T13:22:39Z</time>
      </trkpt>
      <trkpt lat="43.48222" lon="6.31235">
        <ele>209.4</ele>
        <time>2012-10-24T13:22:47Z</time>
      </trkpt>
      <trkpt lat="43.48219" lon="6.31223">
        <ele>208.4</ele>
        <time>2012-10-24T13:22:54Z</time>
      </trkpt>
      <trkpt lat="43.48219" lon="6.31211">
        <ele>207.5</ele>
        <time>2012-10-24T13:23:00Z</time>
      </trkpt>
      <trkpt lat="43.48222" lon="6.312">
        <ele>207.3</ele>
        <time>2012-10-24T13:23:06Z</time>
      </trkpt>
      <trkpt lat="43.48223" lon="6.31199">
        <ele>207</ele>
        <time>2012-10-24T13:23:07Z</time>
      </trkpt>
      <trkpt lat="43.48217" lon="6.31188">
        <ele>205.5</ele>
        <time>2012-10-24T13:23:50Z</time>
      </trkpt>
      <trkpt lat="43.48208" lon="6.31186">
        <ele>204.4</ele>
        <time>2012-10-24T13:23:58Z</time>
      </trkpt>
      <trkpt lat="43.482" lon="6.31189">
        <ele>204.1</ele>
        <time>2012-10-24T13:24:10Z</time>
      </trkpt>
      <trkpt lat="43.48199" lon="6.31189">
        <ele>204.1</ele>
        <time>2012-10-24T13:24:11Z</time>
      </trkpt>
      <trkpt lat="43.48199" lon="6.31168">
        <ele>202.4</ele>
        <time>2012-10-24T13:24:25Z</time>
      </trkpt>
      <trkpt lat="43.482" lon="6.31157">
        <ele>201</ele>
        <time>2012-10-24T13:24:40Z</time>
      </trkpt>
      <trkpt lat="43.48195" lon="6.31146">
        <ele>199.8</ele>
        <time>2012-10-24T13:24:48Z</time>
      </trkpt>
      <trkpt lat="43.48192" lon="6.31136">
        <ele>198.8</ele>
        <time>2012-10-24T13:24:59Z</time>
      </trkpt>
      <trkpt lat="43.48188" lon="6.31125">
        <ele>196.7</ele>
        <time>2012-10-24T13:25:09Z</time>
      </trkpt>
      <trkpt lat="43.48189" lon="6.31114">
        <ele>195.2</ele>
        <time>2012-10-24T13:25:20Z</time>
      </trkpt>
      <trkpt lat="43.4819" lon="6.31113">
        <ele>194.9</ele>
        <time>2012-10-24T13:25:21Z</time>
      </trkpt>
      <trkpt lat="43.48188" lon="6.31089">
        <ele>191.8</ele>
        <time>2012-10-24T13:25:37Z</time>
      </trkpt>
      <trkpt lat="43.48184" lon="6.31078">
        <ele>190.2</ele>
        <time>2012-10-24T13:25:47Z</time>
      </trkpt>
      <trkpt lat="43.48183" lon="6.31066">
        <ele>188.2</ele>
        <time>2012-10-24T13:25:55Z</time>
      </trkpt>
      <trkpt lat="43.48181" lon="6.31055">
        <ele>187.2</ele>
        <time>2012-10-24T13:26:01Z</time>
      </trkpt>
      <trkpt lat="43.48181" lon="6.31044">
        <ele>186.4</ele>
        <time>2012-10-24T13:26:08Z</time>
      </trkpt>
      <trkpt lat="43.4818" lon="6.31032">
        <ele>184.9</ele>
        <time>2012-10-24T13:26:16Z</time>
      </trkpt>
      <trkpt lat="43.48184" lon="6.31021">
        <ele>184</ele>
        <time>2012-10-24T13:26:24Z</time>
      </trkpt>
      <trkpt lat="43.48185" lon="6.3102">
        <ele>183.8</ele>
        <time>2012-10-24T13:26:25Z</time>
      </trkpt>
      <trkpt lat="43.48174" lon="6.31003">
        <ele>181.4</ele>
        <time>2012-10-24T13:26:40Z</time>
      </trkpt>
      <trkpt lat="43.48174" lon="6.30993">
        <ele>180.3</ele>
        <time>2012-10-24T13:26:47Z</time>
      </trkpt>
      <trkpt lat="43.48176" lon="6.30982">
        <ele>179.6</ele>
        <time>2012-10-24T13:26:53Z</time>
      </trkpt>
      <trkpt lat="43.48178" lon="6.30971">
        <ele>179.3</ele>
        <time>2012-10-24T13:27:01Z</time>
      </trkpt>
      <trkpt lat="43.48178" lon="6.30959">
        <ele>179.8</ele>
        <time>2012-10-24T13:27:09Z</time>
      </trkpt>
      <trkpt lat="43.48176" lon="6.30948">
        <ele>179.2</ele>
        <time>2012-10-24T13:27:16Z</time>
      </trkpt>
      <trkpt lat="43.48173" lon="6.30937">
        <ele>178.1</ele>
        <time>2012-10-24T13:27:21Z</time>
      </trkpt>
      <trkpt lat="43.48171" lon="6.30925">
        <ele>175.2</ele>
        <time>2012-10-24T13:27:31Z</time>
      </trkpt>
      <trkpt lat="43.48172" lon="6.30925">
        <ele>175.2</ele>
        <time>2012-10-24T13:27:32Z</time>
      </trkpt>
      <trkpt lat="43.4816" lon="6.3092">
        <ele>174.6</ele>
        <time>2012-10-24T13:28:06Z</time>
      </trkpt>
      <trkpt lat="43.48153" lon="6.30924">
        <ele>174.1</ele>
        <time>2012-10-24T13:28:12Z</time>
      </trkpt>
      <trkpt lat="43.48146" lon="6.30919">
        <ele>174.2</ele>
        <time>2012-10-24T13:28:19Z</time>
      </trkpt>
      <trkpt lat="43.48138" lon="6.30916">
        <ele>173.7</ele>
        <time>2012-10-24T13:28:28Z</time>
      </trkpt>
      <trkpt lat="43.48131" lon="6.3091">
        <ele>173.7</ele>
        <time>2012-10-24T13:28:34Z</time>
      </trkpt>
      <trkpt lat="43.4813" lon="6.30909">
        <ele>173.6</ele>
        <time>2012-10-24T13:28:35Z</time>
      </trkpt>
      <trkpt lat="43.48127" lon="6.30888">
        <ele>173.3</ele>
        <time>2012-10-24T13:28:44Z</time>
      </trkpt>
      <trkpt lat="43.48127" lon="6.30878">
        <ele>172</ele>
        <time>2012-10-24T13:28:49Z</time>
      </trkpt>
      <trkpt lat="43.48128" lon="6.30867">
        <ele>171.5</ele>
        <time>2012-10-24T13:28:53Z</time>
      </trkpt>
      <trkpt lat="43.48127" lon="6.30855">
        <ele>171.1</ele>
        <time>2012-10-24T13:28:59Z</time>
      </trkpt>
      <trkpt lat="43.48122" lon="6.30846">
        <ele>171.2</ele>
        <time>2012-10-24T13:29:12Z</time>
      </trkpt>
      <trkpt lat="43.48117" lon="6.30835">
        <ele>170.4</ele>
        <time>2012-10-24T13:29:20Z</time>
      </trkpt>
      <trkpt lat="43.48119" lon="6.30823">
        <ele>169.8</ele>
        <time>2012-10-24T13:29:25Z</time>
      </trkpt>
      <trkpt lat="43.48121" lon="6.30811">
        <ele>170.7</ele>
        <time>2012-10-24T13:29:31Z</time>
      </trkpt>
      <trkpt lat="43.48121" lon="6.308">
        <ele>170.3</ele>
        <time>2012-10-24T13:29:40Z</time>
      </trkpt>
      <trkpt lat="43.48121" lon="6.30798">
        <ele>170.2</ele>
        <time>2012-10-24T13:29:41Z</time>
      </trkpt>
      <trkpt lat="43.4812" lon="6.30777">
        <ele>170.7</ele>
        <time>2012-10-24T13:29:54Z</time>
      </trkpt>
      <trkpt lat="43.4812" lon="6.30765">
        <ele>171.3</ele>
        <time>2012-10-24T13:30:03Z</time>
      </trkpt>
      <trkpt lat="43.48119" lon="6.30753">
        <ele>171.3</ele>
        <time>2012-10-24T13:30:34Z</time>
      </trkpt>
      <trkpt lat="43.48121" lon="6.30742">
        <ele>171.6</ele>
        <time>2012-10-24T13:30:42Z</time>
      </trkpt>
      <trkpt lat="43.48121" lon="6.3074">
        <ele>171.6</ele>
        <time>2012-10-24T13:30:43Z</time>
      </trkpt>
      <trkpt lat="43.4813" lon="6.30723">
        <ele>172.2</ele>
        <time>2012-10-24T13:31:08Z</time>
      </trkpt>
      <trkpt lat="43.48132" lon="6.30712">
        <ele>171.7</ele>
        <time>2012-10-24T13:31:15Z</time>
      </trkpt>
      <trkpt lat="43.48134" lon="6.307">
        <ele>171.7</ele>
        <time>2012-10-24T13:31:22Z</time>
      </trkpt>
      <trkpt lat="43.48133" lon="6.30687">
        <ele>171.8</ele>
        <time>2012-10-24T13:31:29Z</time>
      </trkpt>
      <trkpt lat="43.48133" lon="6.30675">
        <ele>171.8</ele>
        <time>2012-10-24T13:31:36Z</time>
      </trkpt>
      <trkpt lat="43.48132" lon="6.30665">
        <ele>172.3</ele>
        <time>2012-10-24T13:31:42Z</time>
      </trkpt>
      <trkpt lat="43.48131" lon="6.30653">
        <ele>172</ele>
        <time>2012-10-24T13:31:49Z</time>
      </trkpt>
      <trkpt lat="43.48131" lon="6.30652">
        <ele>171.9</ele>
        <time>2012-10-24T13:31:50Z</time>
      </trkpt>
      <trkpt lat="43.48131" lon="6.3063">
        <ele>171.7</ele>
        <time>2012-10-24T13:32:04Z</time>
      </trkpt>
      <trkpt lat="43.4813" lon="6.30619">
        <ele>171.7</ele>
        <time>2012-10-24T13:32:10Z</time>
      </trkpt>
      <trkpt lat="43.48127" lon="6.30608">
        <ele>171.8</ele>
        <time>2012-10-24T13:32:17Z</time>
      </trkpt>
      <trkpt lat="43.4812" lon="6.30603">
        <ele>171.2</ele>
        <time>2012-10-24T13:32:24Z</time>
      </trkpt>
      <trkpt lat="43.48112" lon="6.30596">
        <ele>170.7</ele>
        <time>2012-10-24T13:32:31Z</time>
      </trkpt>
      <trkpt lat="43.48104" lon="6.30592">
        <ele>170.1</ele>
        <time>2012-10-24T13:32:39Z</time>
      </trkpt>
      <trkpt lat="43.48095" lon="6.30593">
        <ele>169.6</ele>
        <time>2012-10-24T13:32:47Z</time>
      </trkpt>
      <trkpt lat="43.48087" lon="6.30595">
        <ele>168.9</ele>
        <time>2012-10-24T13:32:56Z</time>
      </trkpt>
      <trkpt lat="43.48086" lon="6.30594">
        <ele>168.9</ele>
        <time>2012-10-24T13:32:57Z</time>
      </trkpt>
      <trkpt lat="43.4807" lon="6.30593">
        <ele>165.2</ele>
        <time>2012-10-24T13:33:46Z</time>
      </trkpt>
      <trkpt lat="43.48061" lon="6.3059">
        <ele>163.9</ele>
        <time>2012-10-24T13:34:00Z</time>
      </trkpt>
      <trkpt lat="43.4806" lon="6.30591">
        <ele>163.9</ele>
        <time>2012-10-24T13:34:01Z</time>
      </trkpt>
      <trkpt lat="43.48047" lon="6.30576">
        <ele>161.9</ele>
        <time>2012-10-24T13:35:03Z</time>
      </trkpt>
      <trkpt lat="43.48046" lon="6.30574">
        <ele>161.7</ele>
        <time>2012-10-24T13:35:04Z</time>
      </trkpt>
      <trkpt lat="43.48044" lon="6.30554">
        <ele>161.1</ele>
        <time>2012-10-24T13:35:16Z</time>
      </trkpt>
      <trkpt lat="43.48045" lon="6.30543">
        <ele>160.8</ele>
        <time>2012-10-24T13:35:21Z</time>
      </trkpt>
      <trkpt lat="43.48044" lon="6.30531">
        <ele>160.4</ele>
        <time>2012-10-24T13:35:27Z</time>
      </trkpt>
      <trkpt lat="43.48044" lon="6.30519">
        <ele>160.3</ele>
        <time>2012-10-24T13:35:34Z</time>
      </trkpt>
      <trkpt lat="43.48043" lon="6.30508">
        <ele>160.3</ele>
        <time>2012-10-24T13:35:40Z</time>
      </trkpt>
      <trkpt lat="43.48041" lon="6.30497">
        <ele>159.4</ele>
        <time>2012-10-24T13:35:51Z</time>
      </trkpt>
      <trkpt lat="43.4804" lon="6.30485">
        <ele>159.4</ele>
        <time>2012-10-24T13:35:59Z</time>
      </trkpt>
      <trkpt lat="43.48038" lon="6.30473">
        <ele>158.8</ele>
        <time>2012-10-24T13:36:08Z</time>
      </trkpt>
      <trkpt lat="43.48037" lon="6.30472">
        <ele>158.6</ele>
        <time>2012-10-24T13:36:09Z</time>
      </trkpt>
      <trkpt lat="43.48037" lon="6.3045">
        <ele>158.3</ele>
        <time>2012-10-24T13:36:24Z</time>
      </trkpt>
      <trkpt lat="43.48037" lon="6.30438">
        <ele>157.8</ele>
        <time>2012-10-24T13:36:30Z</time>
      </trkpt>
      <trkpt lat="43.48037" lon="6.30427">
        <ele>157.9</ele>
        <time>2012-10-24T13:36:37Z</time>
      </trkpt>
      <trkpt lat="43.48035" lon="6.30415">
        <ele>157.8</ele>
        <time>2012-10-24T13:36:44Z</time>
      </trkpt>
      <trkpt lat="43.48033" lon="6.30404">
        <ele>157.2</ele>
        <time>2012-10-24T13:36:55Z</time>
      </trkpt>
      <trkpt lat="43.48033" lon="6.30394">
        <ele>156.9</ele>
        <time>2012-10-24T13:37:02Z</time>
      </trkpt>
      <trkpt lat="43.48038" lon="6.30383">
        <ele>157</ele>
        <time>2012-10-24T13:37:37Z</time>
      </trkpt>
      <trkpt lat="43.48039" lon="6.30383">
        <ele>157.1</ele>
        <time>2012-10-24T13:37:38Z</time>
      </trkpt>
      <trkpt lat="43.48055" lon="6.30383">
        <ele>158.9</ele>
        <time>2012-10-24T13:38:05Z</time>
      </trkpt>
      <trkpt lat="43.48063" lon="6.3038">
        <ele>160.4</ele>
        <time>2012-10-24T13:38:13Z</time>
      </trkpt>
      <trkpt lat="43.4807" lon="6.30374">
        <ele>161.3</ele>
        <time>2012-10-24T13:38:22Z</time>
      </trkpt>
      <trkpt lat="43.48077" lon="6.30367">
        <ele>162.3</ele>
        <time>2012-10-24T13:38:31Z</time>
      </trkpt>
      <trkpt lat="43.48084" lon="6.30361">
        <ele>162.5</ele>
        <time>2012-10-24T13:38:41Z</time>
      </trkpt>
      <trkpt lat="43.48085" lon="6.3036">
        <ele>162.7</ele>
        <time>2012-10-24T13:38:42Z</time>
      </trkpt>
      <trkpt lat="43.48097" lon="6.30345">
        <ele>164</ele>
        <time>2012-10-24T13:38:57Z</time>
      </trkpt>
      <trkpt lat="43.48103" lon="6.30337">
        <ele>165.1</ele>
        <time>2012-10-24T13:39:05Z</time>
      </trkpt>
      <trkpt lat="43.48112" lon="6.30335">
        <ele>166.4</ele>
        <time>2012-10-24T13:39:13Z</time>
      </trkpt>
      <trkpt lat="43.4812" lon="6.30333">
        <ele>167.6</ele>
        <time>2012-10-24T13:39:22Z</time>
      </trkpt>
      <trkpt lat="43.48128" lon="6.3033">
        <ele>169.1</ele>
        <time>2012-10-24T13:39:32Z</time>
      </trkpt>
      <trkpt lat="43.48136" lon="6.30327">
        <ele>170.6</ele>
        <time>2012-10-24T13:39:41Z</time>
      </trkpt>
      <trkpt lat="43.48143" lon="6.30321">
        <ele>171.5</ele>
        <time>2012-10-24T13:39:49Z</time>
      </trkpt>
      <trkpt lat="43.48144" lon="6.3032">
        <ele>171.5</ele>
        <time>2012-10-24T13:39:50Z</time>
      </trkpt>
      <trkpt lat="43.48159" lon="6.30313">
        <ele>173</ele>
        <time>2012-10-24T13:40:08Z</time>
      </trkpt>
      <trkpt lat="43.48167" lon="6.30317">
        <ele>174</ele>
        <time>2012-10-24T13:40:15Z</time>
      </trkpt>
      <trkpt lat="43.48175" lon="6.30324">
        <ele>174.7</ele>
        <time>2012-10-24T13:40:20Z</time>
      </trkpt>
      <trkpt lat="43.48181" lon="6.30333">
        <ele>175.4</ele>
        <time>2012-10-24T13:40:27Z</time>
      </trkpt>
      <trkpt lat="43.48182" lon="6.30344">
        <ele>177.4</ele>
        <time>2012-10-24T13:40:36Z</time>
      </trkpt>
      <trkpt lat="43.48179" lon="6.30355">
        <ele>179</ele>
        <time>2012-10-24T13:40:46Z</time>
      </trkpt>
      <trkpt lat="43.48176" lon="6.30366">
        <ele>180</ele>
        <time>2012-10-24T13:40:55Z</time>
      </trkpt>
      <trkpt lat="43.48175" lon="6.30368">
        <ele>180.2</ele>
        <time>2012-10-24T13:40:56Z</time>
      </trkpt>
      <trkpt lat="43.48167" lon="6.30387">
        <ele>181.9</ele>
        <time>2012-10-24T13:41:12Z</time>
      </trkpt>
      <trkpt lat="43.48167" lon="6.30398">
        <ele>183</ele>
        <time>2012-10-24T13:41:23Z</time>
      </trkpt>
      <trkpt lat="43.48167" lon="6.3041">
        <ele>184.3</ele>
        <time>2012-10-24T13:41:32Z</time>
      </trkpt>
      <trkpt lat="43.48165" lon="6.30422">
        <ele>185.9</ele>
        <time>2012-10-24T13:41:42Z</time>
      </trkpt>
      <trkpt lat="43.48167" lon="6.30434">
        <ele>187.1</ele>
        <time>2012-10-24T13:41:52Z</time>
      </trkpt>
      <trkpt lat="43.48167" lon="6.30446">
        <ele>189.4</ele>
        <time>2012-10-24T13:42:03Z</time>
      </trkpt>
      <trkpt lat="43.48168" lon="6.30447">
        <ele>189.6</ele>
        <time>2012-10-24T13:42:04Z</time>
      </trkpt>
      <trkpt lat="43.48176" lon="6.30466">
        <ele>192.9</ele>
        <time>2012-10-24T13:42:25Z</time>
      </trkpt>
      <trkpt lat="43.48183" lon="6.30474">
        <ele>194.6</ele>
        <time>2012-10-24T13:42:34Z</time>
      </trkpt>
      <trkpt lat="43.48187" lon="6.30483">
        <ele>195.9</ele>
        <time>2012-10-24T13:42:45Z</time>
      </trkpt>
      <trkpt lat="43.48192" lon="6.30494">
        <ele>197.2</ele>
        <time>2012-10-24T13:42:57Z</time>
      </trkpt>
      <trkpt lat="43.48196" lon="6.30503">
        <ele>198.2</ele>
        <time>2012-10-24T13:43:05Z</time>
      </trkpt>
      <trkpt lat="43.48196" lon="6.30504">
        <ele>198.3</ele>
        <time>2012-10-24T13:43:06Z</time>
      </trkpt>
      <trkpt lat="43.48198" lon="6.30526">
        <ele>199.7</ele>
        <time>2012-10-24T13:43:22Z</time>
      </trkpt>
      <trkpt lat="43.48202" lon="6.30537">
        <ele>200</ele>
        <time>2012-10-24T13:43:30Z</time>
      </trkpt>
      <trkpt lat="43.48208" lon="6.30546">
        <ele>200.5</ele>
        <time>2012-10-24T13:43:38Z</time>
      </trkpt>
      <trkpt lat="43.48214" lon="6.30553">
        <ele>200.9</ele>
        <time>2012-10-24T13:43:46Z</time>
      </trkpt>
      <trkpt lat="43.48221" lon="6.30561">
        <ele>201.8</ele>
        <time>2012-10-24T13:43:56Z</time>
      </trkpt>
      <trkpt lat="43.48226" lon="6.30569">
        <ele>202.9</ele>
        <time>2012-10-24T13:44:06Z</time>
      </trkpt>
      <trkpt lat="43.48227" lon="6.3057">
        <ele>202.9</ele>
        <time>2012-10-24T13:44:07Z</time>
      </trkpt>
      <trkpt lat="43.48239" lon="6.30584">
        <ele>203.7</ele>
        <time>2012-10-24T13:44:22Z</time>
      </trkpt>
      <trkpt lat="43.48246" lon="6.30591">
        <ele>204.1</ele>
        <time>2012-10-24T13:44:29Z</time>
      </trkpt>
      <trkpt lat="43.48253" lon="6.30598">
        <ele>204.5</ele>
        <time>2012-10-24T13:44:36Z</time>
      </trkpt>
      <trkpt lat="43.48261" lon="6.30603">
        <ele>204.8</ele>
        <time>2012-10-24T13:44:43Z</time>
      </trkpt>
      <trkpt lat="43.48268" lon="6.30609">
        <ele>204.9</ele>
        <time>2012-10-24T13:44:52Z</time>
      </trkpt>
      <trkpt lat="43.48277" lon="6.30612">
        <ele>206.1</ele>
        <time>2012-10-24T13:45:02Z</time>
      </trkpt>
      <trkpt lat="43.48285" lon="6.3061">
        <ele>207</ele>
        <time>2012-10-24T13:45:11Z</time>
      </trkpt>
      <trkpt lat="43.48286" lon="6.3061">
        <ele>207</ele>
        <time>2012-10-24T13:45:12Z</time>
      </trkpt>
      <trkpt lat="43.48299" lon="6.3062">
        <ele>208.1</ele>
        <time>2012-10-24T13:45:23Z</time>
      </trkpt>
      <trkpt lat="43.48305" lon="6.30627">
        <ele>208.5</ele>
        <time>2012-10-24T13:45:28Z</time>
      </trkpt>
      <trkpt lat="43.48309" lon="6.30637">
        <ele>208.6</ele>
        <time>2012-10-24T13:45:34Z</time>
      </trkpt>
      <trkpt lat="43.48315" lon="6.30645">
        <ele>208.8</ele>
        <time>2012-10-24T13:45:40Z</time>
      </trkpt>
      <trkpt lat="43.48322" lon="6.30651">
        <ele>208.6</ele>
        <time>2012-10-24T13:45:47Z</time>
      </trkpt>
      <trkpt lat="43.4833" lon="6.30651">
        <ele>207.8</ele>
        <time>2012-10-24T13:45:54Z</time>
      </trkpt>
      <trkpt lat="43.48337" lon="6.30658">
        <ele>207.9</ele>
        <time>2012-10-24T13:46:00Z</time>
      </trkpt>
      <trkpt lat="43.48344" lon="6.30664">
        <ele>208</ele>
        <time>2012-10-24T13:46:07Z</time>
      </trkpt>
      <trkpt lat="43.48347" lon="6.30674">
        <ele>208.4</ele>
        <time>2012-10-24T13:46:18Z</time>
      </trkpt>
      <trkpt lat="43.48348" lon="6.30675">
        <ele>208.3</ele>
        <time>2012-10-24T13:46:19Z</time>
      </trkpt>
      <trkpt lat="43.48358" lon="6.30692">
        <ele>207.3</ele>
        <time>2012-10-24T13:46:31Z</time>
      </trkpt>
      <trkpt lat="43.48364" lon="6.30697">
        <ele>207.1</ele>
        <time>2012-10-24T13:46:36Z</time>
      </trkpt>
      <trkpt lat="43.48373" lon="6.307">
        <ele>207.3</ele>
        <time>2012-10-24T13:46:43Z</time>
      </trkpt>
      <trkpt lat="43.48381" lon="6.30696">
        <ele>207.3</ele>
        <time>2012-10-24T13:46:50Z</time>
      </trkpt>
      <trkpt lat="43.4839" lon="6.30696">
        <ele>206.8</ele>
        <time>2012-10-24T13:46:58Z</time>
      </trkpt>
      <trkpt lat="43.48398" lon="6.30701">
        <ele>206.9</ele>
        <time>2012-10-24T13:47:10Z</time>
      </trkpt>
      <trkpt lat="43.484" lon="6.30713">
        <ele>206.9</ele>
        <time>2012-10-24T13:50:03Z</time>
      </trkpt>
      <trkpt lat="43.48399" lon="6.30714">
        <ele>206.9</ele>
        <time>2012-10-24T13:50:04Z</time>
      </trkpt>
      <trkpt lat="43.48391" lon="6.30708">
        <ele>207</ele>
        <time>2012-10-24T13:53:20Z</time>
      </trkpt>
      <trkpt lat="43.48404" lon="6.30722">
        <ele>206.1</ele>
        <time>2012-10-24T13:53:53Z</time>
      </trkpt>
      <trkpt lat="43.48411" lon="6.30726">
        <ele>206.5</ele>
        <time>2012-10-24T13:54:07Z</time>
      </trkpt>
      <trkpt lat="43.48419" lon="6.30732">
        <ele>206.5</ele>
        <time>2012-10-24T13:54:15Z</time>
      </trkpt>
      <trkpt lat="43.48425" lon="6.30739">
        <ele>206.9</ele>
        <time>2012-10-24T13:54:22Z</time>
      </trkpt>
      <trkpt lat="43.48427" lon="6.3074">
        <ele>206.9</ele>
        <time>2012-10-24T13:54:23Z</time>
      </trkpt>
      <trkpt lat="43.48438" lon="6.30753">
        <ele>207.5</ele>
        <time>2012-10-24T13:54:33Z</time>
      </trkpt>
      <trkpt lat="43.48444" lon="6.30758">
        <ele>207.4</ele>
        <time>2012-10-24T13:54:42Z</time>
      </trkpt>
      <trkpt lat="43.48453" lon="6.30757">
        <ele>208.4</ele>
        <time>2012-10-24T13:54:52Z</time>
      </trkpt>
      <trkpt lat="43.48462" lon="6.30755">
        <ele>209.1</ele>
        <time>2012-10-24T13:55:02Z</time>
      </trkpt>
      <trkpt lat="43.4847" lon="6.30756">
        <ele>210.1</ele>
        <time>2012-10-24T13:55:11Z</time>
      </trkpt>
      <trkpt lat="43.48478" lon="6.30755">
        <ele>210</ele>
        <time>2012-10-24T13:55:18Z</time>
      </trkpt>
      <trkpt lat="43.48486" lon="6.30759">
        <ele>210.2</ele>
        <time>2012-10-24T13:55:25Z</time>
      </trkpt>
      <trkpt lat="43.48487" lon="6.30759">
        <ele>210.1</ele>
        <time>2012-10-24T13:55:26Z</time>
      </trkpt>
      <trkpt lat="43.48503" lon="6.30757">
        <ele>211.3</ele>
        <time>2012-10-24T13:55:42Z</time>
      </trkpt>
      <trkpt lat="43.48511" lon="6.30755">
        <ele>212.1</ele>
        <time>2012-10-24T13:55:51Z</time>
      </trkpt>
      <trkpt lat="43.48518" lon="6.30749">
        <ele>212.7</ele>
        <time>2012-10-24T13:55:58Z</time>
      </trkpt>
      <trkpt lat="43.48527" lon="6.3075">
        <ele>213.1</ele>
        <time>2012-10-24T13:56:04Z</time>
      </trkpt>
      <trkpt lat="43.48535" lon="6.30751">
        <ele>214</ele>
        <time>2012-10-24T13:56:10Z</time>
      </trkpt>
      <trkpt lat="43.48543" lon="6.30752">
        <ele>214.8</ele>
        <time>2012-10-24T13:56:17Z</time>
      </trkpt>
      <trkpt lat="43.48551" lon="6.30756">
        <ele>215.4</ele>
        <time>2012-10-24T13:56:23Z</time>
      </trkpt>
      <trkpt lat="43.48559" lon="6.30759">
        <ele>215.8</ele>
        <time>2012-10-24T13:56:31Z</time>
      </trkpt>
      <trkpt lat="43.4856" lon="6.30759">
        <ele>215.8</ele>
        <time>2012-10-24T13:56:32Z</time>
      </trkpt>
      <trkpt lat="43.48575" lon="6.30768">
        <ele>216</ele>
        <time>2012-10-24T13:56:45Z</time>
      </trkpt>
      <trkpt lat="43.48583" lon="6.3077">
        <ele>216.3</ele>
        <time>2012-10-24T13:56:53Z</time>
      </trkpt>
      <trkpt lat="43.48591" lon="6.30775">
        <ele>216.3</ele>
        <time>2012-10-24T13:57:00Z</time>
      </trkpt>
      <trkpt lat="43.486" lon="6.30778">
        <ele>216</ele>
        <time>2012-10-24T13:57:07Z</time>
      </trkpt>
      <trkpt lat="43.48607" lon="6.30782">
        <ele>216.7</ele>
        <time>2012-10-24T13:57:16Z</time>
      </trkpt>
      <trkpt lat="43.48616" lon="6.30784">
        <ele>217.3</ele>
        <time>2012-10-24T13:57:23Z</time>
      </trkpt>
      <trkpt lat="43.48623" lon="6.3079">
        <ele>218.3</ele>
        <time>2012-10-24T13:57:30Z</time>
      </trkpt>
      <trkpt lat="43.48631" lon="6.30795">
        <ele>218.3</ele>
        <time>2012-10-24T13:57:36Z</time>
      </trkpt>
      <trkpt lat="43.48632" lon="6.30796">
        <ele>218.2</ele>
        <time>2012-10-24T13:57:37Z</time>
      </trkpt>
      <trkpt lat="43.48643" lon="6.3081">
        <ele>218</ele>
        <time>2012-10-24T13:57:51Z</time>
      </trkpt>
      <trkpt lat="43.48651" lon="6.30814">
        <ele>218</ele>
        <time>2012-10-24T13:58:00Z</time>
      </trkpt>
      <trkpt lat="43.48657" lon="6.30821">
        <ele>218.3</ele>
        <time>2012-10-24T13:58:07Z</time>
      </trkpt>
      <trkpt lat="43.48664" lon="6.30828">
        <ele>218.4</ele>
        <time>2012-10-24T13:58:13Z</time>
      </trkpt>
      <trkpt lat="43.48671" lon="6.30834">
        <ele>218</ele>
        <time>2012-10-24T13:58:18Z</time>
      </trkpt>
      <trkpt lat="43.48677" lon="6.30842">
        <ele>217.1</ele>
        <time>2012-10-24T13:58:25Z</time>
      </trkpt>
      <trkpt lat="43.48685" lon="6.30846">
        <ele>215.9</ele>
        <time>2012-10-24T13:58:36Z</time>
      </trkpt>
      <trkpt lat="43.48693" lon="6.30848">
        <ele>215.2</ele>
        <time>2012-10-24T13:58:44Z</time>
      </trkpt>
      <trkpt lat="43.48694" lon="6.30848">
        <ele>215.1</ele>
        <time>2012-10-24T13:58:45Z</time>
      </trkpt>
      <trkpt lat="43.48709" lon="6.30857">
        <ele>213</ele>
        <time>2012-10-24T13:58:59Z</time>
      </trkpt>
      <trkpt lat="43.48716" lon="6.30864">
        <ele>212.5</ele>
        <time>2012-10-24T13:59:06Z</time>
      </trkpt>
      <trkpt lat="43.48723" lon="6.3087">
        <ele>212.7</ele>
        <time>2012-10-24T13:59:14Z</time>
      </trkpt>
      <trkpt lat="43.48729" lon="6.30877">
        <ele>212.1</ele>
        <time>2012-10-24T13:59:23Z</time>
      </trkpt>
      <trkpt lat="43.48734" lon="6.30887">
        <ele>211.2</ele>
        <time>2012-10-24T13:59:34Z</time>
      </trkpt>
      <trkpt lat="43.48741" lon="6.30893">
        <ele>211.2</ele>
        <time>2012-10-24T13:59:45Z</time>
      </trkpt>
      <trkpt lat="43.48749" lon="6.30898">
        <ele>210.8</ele>
        <time>2012-10-24T13:59:55Z</time>
      </trkpt>
      <trkpt lat="43.48751" lon="6.30899">
        <ele>210.7</ele>
        <time>2012-10-24T13:59:56Z</time>
      </trkpt>
      <trkpt lat="43.48762" lon="6.30912">
        <ele>210.1</ele>
        <time>2012-10-24T14:00:10Z</time>
      </trkpt>
      <trkpt lat="43.48769" lon="6.30919">
        <ele>207.9</ele>
        <time>2012-10-24T14:00:19Z</time>
      </trkpt>
      <trkpt lat="43.48775" lon="6.30927">
        <ele>207.6</ele>
        <time>2012-10-24T14:00:26Z</time>
      </trkpt>
      <trkpt lat="43.48782" lon="6.30933">
        <ele>207.2</ele>
        <time>2012-10-24T14:00:33Z</time>
      </trkpt>
      <trkpt lat="43.48788" lon="6.30942">
        <ele>207.1</ele>
        <time>2012-10-24T14:00:39Z</time>
      </trkpt>
      <trkpt lat="43.48795" lon="6.3095">
        <ele>206</ele>
        <time>2012-10-24T14:00:46Z</time>
      </trkpt>
      <trkpt lat="43.48796" lon="6.30962">
        <ele>204.8</ele>
        <time>2012-10-24T14:00:52Z</time>
      </trkpt>
      <trkpt lat="43.48797" lon="6.30973">
        <ele>204</ele>
        <time>2012-10-24T14:00:59Z</time>
      </trkpt>
      <trkpt lat="43.48797" lon="6.30974">
        <ele>203.9</ele>
        <time>2012-10-24T14:01:00Z</time>
      </trkpt>
      <trkpt lat="43.48795" lon="6.30976">
        <ele>203.3</ele>
        <time>2012-10-24T14:02:48Z</time>
      </trkpt>
      <trkpt lat="43.48794" lon="6.30976">
        <ele>203.4</ele>
        <time>2012-10-24T14:02:49Z</time>
      </trkpt>
      <trkpt lat="43.48811" lon="6.30971">
        <ele>206.6</ele>
        <time>2012-10-24T14:03:54Z</time>
      </trkpt>
      <trkpt lat="43.48813" lon="6.30971">
        <ele>206.5</ele>
        <time>2012-10-24T14:03:55Z</time>
      </trkpt>
      <trkpt lat="43.48827" lon="6.30965">
        <ele>208.6</ele>
        <time>2012-10-24T14:04:10Z</time>
      </trkpt>
      <trkpt lat="43.48835" lon="6.30961">
        <ele>210.7</ele>
        <time>2012-10-24T14:04:20Z</time>
      </trkpt>
      <trkpt lat="43.48841" lon="6.30954">
        <ele>211.9</ele>
        <time>2012-10-24T14:04:29Z</time>
      </trkpt>
      <trkpt lat="43.48847" lon="6.30945">
        <ele>213.4</ele>
        <time>2012-10-24T14:04:39Z</time>
      </trkpt>
      <trkpt lat="43.48852" lon="6.30937">
        <ele>214.7</ele>
        <time>2012-10-24T14:04:47Z</time>
      </trkpt>
      <trkpt lat="43.4886" lon="6.30934">
        <ele>216.4</ele>
        <time>2012-10-24T14:04:56Z</time>
      </trkpt>
      <trkpt lat="43.48861" lon="6.30934">
        <ele>216.5</ele>
        <time>2012-10-24T14:04:57Z</time>
      </trkpt>
      <trkpt lat="43.48874" lon="6.30921">
        <ele>219.9</ele>
        <time>2012-10-24T14:05:18Z</time>
      </trkpt>
      <trkpt lat="43.48882" lon="6.30915">
        <ele>222.5</ele>
        <time>2012-10-24T14:05:29Z</time>
      </trkpt>
      <trkpt lat="43.4889" lon="6.30911">
        <ele>224.1</ele>
        <time>2012-10-24T14:05:37Z</time>
      </trkpt>
      <trkpt lat="43.48898" lon="6.30906">
        <ele>225.7</ele>
        <time>2012-10-24T14:05:47Z</time>
      </trkpt>
      <trkpt lat="43.48904" lon="6.30898">
        <ele>226.7</ele>
        <time>2012-10-24T14:05:53Z</time>
      </trkpt>
      <trkpt lat="43.48912" lon="6.30894">
        <ele>227.3</ele>
        <time>2012-10-24T14:06:00Z</time>
      </trkpt>
      <trkpt lat="43.48913" lon="6.30893">
        <ele>227.6</ele>
        <time>2012-10-24T14:06:01Z</time>
      </trkpt>
      <trkpt lat="43.48928" lon="6.30887">
        <ele>229.8</ele>
        <time>2012-10-24T14:06:18Z</time>
      </trkpt>
      <trkpt lat="43.48936" lon="6.30883">
        <ele>231.6</ele>
        <time>2012-10-24T14:06:27Z</time>
      </trkpt>
      <trkpt lat="43.48942" lon="6.3087">
        <ele>231.9</ele>
        <time>2012-10-24T14:06:43Z</time>
      </trkpt>
      <trkpt lat="43.48936" lon="6.3086">
        <ele>231.7</ele>
        <time>2012-10-24T14:06:56Z</time>
      </trkpt>
      <trkpt lat="43.48931" lon="6.30869">
        <ele>231.7</ele>
        <time>2012-10-24T14:07:04Z</time>
      </trkpt>
      <trkpt lat="43.48931" lon="6.3087">
        <ele>231.5</ele>
        <time>2012-10-24T14:07:05Z</time>
      </trkpt>
      <trkpt lat="43.48939" lon="6.30888">
        <ele>232.2</ele>
        <time>2012-10-24T14:09:12Z</time>
      </trkpt>
      <trkpt lat="43.4894" lon="6.30887">
        <ele>232.3</ele>
        <time>2012-10-24T14:09:13Z</time>
      </trkpt>
      <trkpt lat="43.48955" lon="6.30883">
        <ele>234</ele>
        <time>2012-10-24T14:09:32Z</time>
      </trkpt>
      <trkpt lat="43.48964" lon="6.30888">
        <ele>233</ele>
        <time>2012-10-24T14:09:55Z</time>
      </trkpt>
      <trkpt lat="43.48955" lon="6.3089">
        <ele>233.6</ele>
        <time>2012-10-24T14:10:25Z</time>
      </trkpt>
      <trkpt lat="43.48954" lon="6.3089">
        <ele>233.4</ele>
        <time>2012-10-24T14:10:26Z</time>
      </trkpt>
      <trkpt lat="43.48938" lon="6.30891">
        <ele>232.2</ele>
        <time>2012-10-24T14:10:43Z</time>
      </trkpt>
      <trkpt lat="43.4893" lon="6.30891">
        <ele>232</ele>
        <time>2012-10-24T14:11:30Z</time>
      </trkpt>
      <trkpt lat="43.48929" lon="6.3089">
        <ele>232.1</ele>
        <time>2012-10-24T14:11:31Z</time>
      </trkpt>
      <trkpt lat="43.48946" lon="6.30886">
        <ele>232.4</ele>
        <time>2012-10-24T14:12:19Z</time>
      </trkpt>
      <trkpt lat="43.48955" lon="6.30884">
        <ele>232.8</ele>
        <time>2012-10-24T14:12:28Z</time>
      </trkpt>
      <trkpt lat="43.48963" lon="6.30882">
        <ele>233.7</ele>
        <time>2012-10-24T14:12:43Z</time>
      </trkpt>
      <trkpt lat="43.48964" lon="6.30881">
        <ele>234</ele>
        <time>2012-10-24T14:12:44Z</time>
      </trkpt>
      <trkpt lat="43.48962" lon="6.3086">
        <ele>235.4</ele>
        <time>2012-10-24T14:13:01Z</time>
      </trkpt>
      <trkpt lat="43.48962" lon="6.30849">
        <ele>234.7</ele>
        <time>2012-10-24T14:13:07Z</time>
      </trkpt>
      <trkpt lat="43.48967" lon="6.3084">
        <ele>234.9</ele>
        <time>2012-10-24T14:13:13Z</time>
      </trkpt>
      <trkpt lat="43.48975" lon="6.30838">
        <ele>234.8</ele>
        <time>2012-10-24T14:13:19Z</time>
      </trkpt>
      <trkpt lat="43.48984" lon="6.30837">
        <ele>235.4</ele>
        <time>2012-10-24T14:13:27Z</time>
      </trkpt>
      <trkpt lat="43.48992" lon="6.30839">
        <ele>235.9</ele>
        <time>2012-10-24T14:13:33Z</time>
      </trkpt>
      <trkpt lat="43.49" lon="6.30839">
        <ele>236.8</ele>
        <time>2012-10-24T14:13:38Z</time>
      </trkpt>
      <trkpt lat="43.49007" lon="6.30835">
        <ele>238</ele>
        <time>2012-10-24T14:13:50Z</time>
      </trkpt>
      <trkpt lat="43.49008" lon="6.30834">
        <ele>238.2</ele>
        <time>2012-10-24T14:13:51Z</time>
      </trkpt>
      <trkpt lat="43.49024" lon="6.30826">
        <ele>240.1</ele>
        <time>2012-10-24T14:14:08Z</time>
      </trkpt>
      <trkpt lat="43.49031" lon="6.30823">
        <ele>241</ele>
        <time>2012-10-24T14:14:14Z</time>
      </trkpt>
      <trkpt lat="43.4904" lon="6.30823">
        <ele>241.5</ele>
        <time>2012-10-24T14:14:21Z</time>
      </trkpt>
      <trkpt lat="43.49048" lon="6.30823">
        <ele>241.8</ele>
        <time>2012-10-24T14:14:30Z</time>
      </trkpt>
      <trkpt lat="43.49056" lon="6.30823">
        <ele>241.7</ele>
        <time>2012-10-24T14:14:37Z</time>
      </trkpt>
      <trkpt lat="43.49063" lon="6.3082">
        <ele>243</ele>
        <time>2012-10-24T14:14:47Z</time>
      </trkpt>
      <trkpt lat="43.49072" lon="6.30816">
        <ele>244.1</ele>
        <time>2012-10-24T14:14:56Z</time>
      </trkpt>
      <trkpt lat="43.49073" lon="6.30816">
        <ele>244.2</ele>
        <time>2012-10-24T14:14:57Z</time>
      </trkpt>
      <trkpt lat="43.49087" lon="6.30809">
        <ele>246.3</ele>
        <time>2012-10-24T14:15:15Z</time>
      </trkpt>
      <trkpt lat="43.49095" lon="6.30805">
        <ele>248.2</ele>
        <time>2012-10-24T14:15:25Z</time>
      </trkpt>
      <trkpt lat="43.49103" lon="6.30807">
        <ele>249.3</ele>
        <time>2012-10-24T14:15:32Z</time>
      </trkpt>
      <trkpt lat="43.49111" lon="6.30803">
        <ele>249.9</ele>
        <time>2012-10-24T14:15:40Z</time>
      </trkpt>
      <trkpt lat="43.49119" lon="6.30805">
        <ele>251</ele>
        <time>2012-10-24T14:15:48Z</time>
      </trkpt>
      <trkpt lat="43.49126" lon="6.30799">
        <ele>252</ele>
        <time>2012-10-24T14:15:59Z</time>
      </trkpt>
      <trkpt lat="43.49127" lon="6.30798">
        <ele>252.2</ele>
        <time>2012-10-24T14:16:00Z</time>
      </trkpt>
      <trkpt lat="43.49143" lon="6.30798">
        <ele>254.7</ele>
        <time>2012-10-24T14:16:16Z</time>
      </trkpt>
      <trkpt lat="43.49151" lon="6.30796">
        <ele>255</ele>
        <time>2012-10-24T14:16:23Z</time>
      </trkpt>
      <trkpt lat="43.49159" lon="6.30793">
        <ele>257.2</ele>
        <time>2012-10-24T14:16:35Z</time>
      </trkpt>
      <trkpt lat="43.49168" lon="6.30792">
        <ele>257.8</ele>
        <time>2012-10-24T14:16:41Z</time>
      </trkpt>
      <trkpt lat="43.49177" lon="6.30795">
        <ele>259</ele>
        <time>2012-10-24T14:16:47Z</time>
      </trkpt>
      <trkpt lat="43.49185" lon="6.30791">
        <ele>259.8</ele>
        <time>2012-10-24T14:16:56Z</time>
      </trkpt>
      <trkpt lat="43.49192" lon="6.30799">
        <ele>260.6</ele>
        <time>2012-10-24T14:17:03Z</time>
      </trkpt>
      <trkpt lat="43.49193" lon="6.30801">
        <ele>260.7</ele>
        <time>2012-10-24T14:17:04Z</time>
      </trkpt>
      <trkpt lat="43.49197" lon="6.30819">
        <ele>261.2</ele>
        <time>2012-10-24T14:17:14Z</time>
      </trkpt>
      <trkpt lat="43.4919" lon="6.30825">
        <ele>262</ele>
        <time>2012-10-24T14:17:30Z</time>
      </trkpt>
      <trkpt lat="43.49183" lon="6.30818">
        <ele>261.9</ele>
        <time>2012-10-24T14:18:48Z</time>
      </trkpt>
      <trkpt lat="43.49182" lon="6.30817">
        <ele>261.9</ele>
        <time>2012-10-24T14:18:49Z</time>
      </trkpt>
      <trkpt lat="43.49185" lon="6.30831">
        <ele>261.9</ele>
        <time>2012-10-24T14:20:15Z</time>
      </trkpt>
      <trkpt lat="43.49194" lon="6.30844">
        <ele>261.9</ele>
        <time>2012-10-24T14:20:22Z</time>
      </trkpt>
      <trkpt lat="43.49196" lon="6.30856">
        <ele>262.5</ele>
        <time>2012-10-24T14:20:29Z</time>
      </trkpt>
      <trkpt lat="43.49191" lon="6.30866">
        <ele>262.7</ele>
        <time>2012-10-24T14:20:40Z</time>
      </trkpt>
      <trkpt lat="43.49188" lon="6.30877">
        <ele>263.3</ele>
        <time>2012-10-24T14:20:48Z</time>
      </trkpt>
      <trkpt lat="43.49187" lon="6.30889">
        <ele>263.9</ele>
        <time>2012-10-24T14:20:57Z</time>
      </trkpt>
      <trkpt lat="43.49185" lon="6.309">
        <ele>264.1</ele>
        <time>2012-10-24T14:21:04Z</time>
      </trkpt>
      <trkpt lat="43.49185" lon="6.3091">
        <ele>264.9</ele>
        <time>2012-10-24T14:21:10Z</time>
      </trkpt>
      <trkpt lat="43.49184" lon="6.30921">
        <ele>265.4</ele>
        <time>2012-10-24T14:21:17Z</time>
      </trkpt>
      <trkpt lat="43.49184" lon="6.30923">
        <ele>265.4</ele>
        <time>2012-10-24T14:21:18Z</time>
      </trkpt>
      <trkpt lat="43.49183" lon="6.30945">
        <ele>267.2</ele>
        <time>2012-10-24T14:21:33Z</time>
      </trkpt>
      <trkpt lat="43.49179" lon="6.30956">
        <ele>267.5</ele>
        <time>2012-10-24T14:21:39Z</time>
      </trkpt>
      <trkpt lat="43.49183" lon="6.30966">
        <ele>268.7</ele>
        <time>2012-10-24T14:21:46Z</time>
      </trkpt>
      <trkpt lat="43.4918" lon="6.30977">
        <ele>268.9</ele>
        <time>2012-10-24T14:21:52Z</time>
      </trkpt>
      <trkpt lat="43.49179" lon="6.30989">
        <ele>269.2</ele>
        <time>2012-10-24T14:22:02Z</time>
      </trkpt>
      <trkpt lat="43.49178" lon="6.31">
        <ele>269.5</ele>
        <time>2012-10-24T14:22:10Z</time>
      </trkpt>
      <trkpt lat="43.49177" lon="6.31012">
        <ele>269.1</ele>
        <time>2012-10-24T14:22:18Z</time>
      </trkpt>
      <trkpt lat="43.49177" lon="6.31013">
        <ele>269</ele>
        <time>2012-10-24T14:22:19Z</time>
      </trkpt>
      <trkpt lat="43.4918" lon="6.31036">
        <ele>268.3</ele>
        <time>2012-10-24T14:22:32Z</time>
      </trkpt>
      <trkpt lat="43.49185" lon="6.31046">
        <ele>268.3</ele>
        <time>2012-10-24T14:22:39Z</time>
      </trkpt>
      <trkpt lat="43.49184" lon="6.31057">
        <ele>268</ele>
        <time>2012-10-24T14:22:44Z</time>
      </trkpt>
      <trkpt lat="43.49182" lon="6.31069">
        <ele>267.6</ele>
        <time>2012-10-24T14:22:50Z</time>
      </trkpt>
      <trkpt lat="43.49185" lon="6.3108">
        <ele>268.2</ele>
        <time>2012-10-24T14:22:56Z</time>
      </trkpt>
      <trkpt lat="43.49184" lon="6.31091">
        <ele>268.3</ele>
        <time>2012-10-24T14:23:04Z</time>
      </trkpt>
      <trkpt lat="43.49184" lon="6.31103">
        <ele>268.7</ele>
        <time>2012-10-24T14:23:11Z</time>
      </trkpt>
      <trkpt lat="43.49185" lon="6.31114">
        <ele>269.1</ele>
        <time>2012-10-24T14:23:18Z</time>
      </trkpt>
      <trkpt lat="43.49184" lon="6.31126">
        <ele>269.5</ele>
        <time>2012-10-24T14:23:25Z</time>
      </trkpt>
      <trkpt lat="43.49183" lon="6.31127">
        <ele>269.6</ele>
        <time>2012-10-24T14:23:26Z</time>
      </trkpt>
      <trkpt lat="43.49183" lon="6.31148">
        <ele>272</ele>
        <time>2012-10-24T14:23:41Z</time>
      </trkpt>
      <trkpt lat="43.4918" lon="6.31159">
        <ele>273</ele>
        <time>2012-10-24T14:23:50Z</time>
      </trkpt>
      <trkpt lat="43.4918" lon="6.31171">
        <ele>273.9</ele>
        <time>2012-10-24T14:23:56Z</time>
      </trkpt>
      <trkpt lat="43.49176" lon="6.31182">
        <ele>274.2</ele>
        <time>2012-10-24T14:24:02Z</time>
      </trkpt>
      <trkpt lat="43.49175" lon="6.31193">
        <ele>274.8</ele>
        <time>2012-10-24T14:24:10Z</time>
      </trkpt>
      <trkpt lat="43.49176" lon="6.31204">
        <ele>275.7</ele>
        <time>2012-10-24T14:24:17Z</time>
      </trkpt>
      <trkpt lat="43.49173" lon="6.31214">
        <ele>276.5</ele>
        <time>2012-10-24T14:24:22Z</time>
      </trkpt>
      <trkpt lat="43.49171" lon="6.31226">
        <ele>277.2</ele>
        <time>2012-10-24T14:24:32Z</time>
      </trkpt>
      <trkpt lat="43.49171" lon="6.31228">
        <ele>277.2</ele>
        <time>2012-10-24T14:24:33Z</time>
      </trkpt>
      <trkpt lat="43.49168" lon="6.31249">
        <ele>278.9</ele>
        <time>2012-10-24T14:24:49Z</time>
      </trkpt>
      <trkpt lat="43.49171" lon="6.3126">
        <ele>279.6</ele>
        <time>2012-10-24T14:24:57Z</time>
      </trkpt>
      <trkpt lat="43.4917" lon="6.31272">
        <ele>279.8</ele>
        <time>2012-10-24T14:25:12Z</time>
      </trkpt>
      <trkpt lat="43.49175" lon="6.31264">
        <ele>279.4</ele>
        <time>2012-10-24T14:25:29Z</time>
      </trkpt>
      <trkpt lat="43.49176" lon="6.31253">
        <ele>279.7</ele>
        <time>2012-10-24T14:25:36Z</time>
      </trkpt>
      <trkpt lat="43.49176" lon="6.31252">
        <ele>279.8</ele>
        <time>2012-10-24T14:25:37Z</time>
      </trkpt>
      <trkpt lat="43.49183" lon="6.31233">
        <ele>280.6</ele>
        <time>2012-10-24T14:25:49Z</time>
      </trkpt>
      <trkpt lat="43.4919" lon="6.31229">
        <ele>281.4</ele>
        <time>2012-10-24T14:25:59Z</time>
      </trkpt>
      <trkpt lat="43.49199" lon="6.31226">
        <ele>282</ele>
        <time>2012-10-24T14:26:12Z</time>
      </trkpt>
      <trkpt lat="43.49207" lon="6.31222">
        <ele>282.7</ele>
        <time>2012-10-24T14:26:23Z</time>
      </trkpt>
      <trkpt lat="43.49213" lon="6.31215">
        <ele>283.2</ele>
        <time>2012-10-24T14:26:33Z</time>
      </trkpt>
      <trkpt lat="43.49219" lon="6.31206">
        <ele>283.7</ele>
        <time>2012-10-24T14:26:41Z</time>
      </trkpt>
      <trkpt lat="43.4922" lon="6.31205">
        <ele>284</ele>
        <time>2012-10-24T14:26:42Z</time>
      </trkpt>
      <trkpt lat="43.49229" lon="6.31187">
        <ele>285.3</ele>
        <time>2012-10-24T14:27:02Z</time>
      </trkpt>
      <trkpt lat="43.49235" lon="6.3118">
        <ele>285.5</ele>
        <time>2012-10-24T14:27:07Z</time>
      </trkpt>
      <trkpt lat="43.49239" lon="6.31169">
        <ele>286.4</ele>
        <time>2012-10-24T14:27:16Z</time>
      </trkpt>
      <trkpt lat="43.49245" lon="6.31161">
        <ele>286.8</ele>
        <time>2012-10-24T14:27:22Z</time>
      </trkpt>
      <trkpt lat="43.49249" lon="6.31151">
        <ele>287.2</ele>
        <time>2012-10-24T14:27:29Z</time>
      </trkpt>
      <trkpt lat="43.49253" lon="6.31141">
        <ele>287.4</ele>
        <time>2012-10-24T14:27:38Z</time>
      </trkpt>
      <trkpt lat="43.49256" lon="6.3113">
        <ele>287.9</ele>
        <time>2012-10-24T14:27:45Z</time>
      </trkpt>
      <trkpt lat="43.49256" lon="6.31128">
        <ele>287.9</ele>
        <time>2012-10-24T14:27:46Z</time>
      </trkpt>
      <trkpt lat="43.49264" lon="6.31111">
        <ele>288.2</ele>
        <time>2012-10-24T14:28:00Z</time>
      </trkpt>
      <trkpt lat="43.49269" lon="6.31103">
        <ele>287.8</ele>
        <time>2012-10-24T14:28:06Z</time>
      </trkpt>
      <trkpt lat="43.49273" lon="6.31092">
        <ele>288.8</ele>
        <time>2012-10-24T14:28:15Z</time>
      </trkpt>
      <trkpt lat="43.49271" lon="6.31082">
        <ele>289.2</ele>
        <time>2012-10-24T14:28:26Z</time>
      </trkpt>
      <trkpt lat="43.49277" lon="6.31073">
        <ele>288.7</ele>
        <time>2012-10-24T14:28:39Z</time>
      </trkpt>
      <trkpt lat="43.49284" lon="6.31069">
        <ele>288.4</ele>
        <time>2012-10-24T14:28:45Z</time>
      </trkpt>
      <trkpt lat="43.49292" lon="6.31066">
        <ele>288.1</ele>
        <time>2012-10-24T14:28:51Z</time>
      </trkpt>
      <trkpt lat="43.49294" lon="6.31066">
        <ele>288</ele>
        <time>2012-10-24T14:28:52Z</time>
      </trkpt>
      <trkpt lat="43.49308" lon="6.31074">
        <ele>286.8</ele>
        <time>2012-10-24T14:29:05Z</time>
      </trkpt>
      <trkpt lat="43.49315" lon="6.31081">
        <ele>286</ele>
        <time>2012-10-24T14:29:15Z</time>
      </trkpt>
      <trkpt lat="43.49323" lon="6.31083">
        <ele>284.6</ele>
        <time>2012-10-24T14:29:24Z</time>
      </trkpt>
      <trkpt lat="43.4933" lon="6.31089">
        <ele>282.9</ele>
        <time>2012-10-24T14:29:37Z</time>
      </trkpt>
      <trkpt lat="43.49337" lon="6.31094">
        <ele>281.5</ele>
        <time>2012-10-24T14:29:45Z</time>
      </trkpt>
      <trkpt lat="43.49346" lon="6.31094">
        <ele>279.4</ele>
        <time>2012-10-24T14:29:56Z</time>
      </trkpt>
      <trkpt lat="43.49346" lon="6.31093">
        <ele>279.4</ele>
        <time>2012-10-24T14:29:57Z</time>
      </trkpt>
      <trkpt lat="43.49356" lon="6.31074">
        <ele>278.8</ele>
        <time>2012-10-24T14:30:16Z</time>
      </trkpt>
      <trkpt lat="43.49356" lon="6.31063">
        <ele>279.3</ele>
        <time>2012-10-24T14:30:24Z</time>
      </trkpt>
      <trkpt lat="43.49358" lon="6.31051">
        <ele>279.3</ele>
        <time>2012-10-24T14:30:35Z</time>
      </trkpt>
      <trkpt lat="43.49361" lon="6.31041">
        <ele>279.2</ele>
        <time>2012-10-24T14:30:41Z</time>
      </trkpt>
      <trkpt lat="43.49364" lon="6.31029">
        <ele>279.2</ele>
        <time>2012-10-24T14:30:52Z</time>
      </trkpt>
      <trkpt lat="43.49368" lon="6.31019">
        <ele>279</ele>
        <time>2012-10-24T14:30:58Z</time>
      </trkpt>
      <trkpt lat="43.49368" lon="6.31018">
        <ele>278.9</ele>
        <time>2012-10-24T14:30:59Z</time>
      </trkpt>
      <trkpt lat="43.49379" lon="6.31002">
        <ele>277.8</ele>
        <time>2012-10-24T14:31:15Z</time>
      </trkpt>
      <trkpt lat="43.49385" lon="6.30993">
        <ele>276.2</ele>
        <time>2012-10-24T14:31:26Z</time>
      </trkpt>
      <trkpt lat="43.49391" lon="6.30985">
        <ele>275</ele>
        <time>2012-10-24T14:31:33Z</time>
      </trkpt>
      <trkpt lat="43.49396" lon="6.30976">
        <ele>274</ele>
        <time>2012-10-24T14:31:42Z</time>
      </trkpt>
      <trkpt lat="43.49401" lon="6.30966">
        <ele>273.3</ele>
        <time>2012-10-24T14:31:50Z</time>
      </trkpt>
      <trkpt lat="43.49408" lon="6.30961">
        <ele>272.9</ele>
        <time>2012-10-24T14:31:57Z</time>
      </trkpt>
      <trkpt lat="43.49416" lon="6.30956">
        <ele>271.1</ele>
        <time>2012-10-24T14:32:07Z</time>
      </trkpt>
      <trkpt lat="43.49416" lon="6.30957">
        <ele>270.7</ele>
        <time>2012-10-24T14:32:08Z</time>
      </trkpt>
      <trkpt lat="43.4943" lon="6.30967">
        <ele>269</ele>
        <time>2012-10-24T14:32:19Z</time>
      </trkpt>
      <trkpt lat="43.49436" lon="6.30975">
        <ele>269.1</ele>
        <time>2012-10-24T14:32:24Z</time>
      </trkpt>
      <trkpt lat="43.49444" lon="6.30977">
        <ele>268.4</ele>
        <time>2012-10-24T14:32:35Z</time>
      </trkpt>
      <trkpt lat="43.49453" lon="6.30981">
        <ele>268.3</ele>
        <time>2012-10-24T14:32:42Z</time>
      </trkpt>
      <trkpt lat="43.49456" lon="6.3099">
        <ele>268.2</ele>
        <time>2012-10-24T14:32:46Z</time>
      </trkpt>
      <trkpt lat="43.49459" lon="6.31001">
        <ele>267.7</ele>
        <time>2012-10-24T14:32:53Z</time>
      </trkpt>
      <trkpt lat="43.49459" lon="6.31013">
        <ele>266.5</ele>
        <time>2012-10-24T14:32:59Z</time>
      </trkpt>
      <trkpt lat="43.49458" lon="6.31024">
        <ele>266.5</ele>
        <time>2012-10-24T14:33:05Z</time>
      </trkpt>
      <trkpt lat="43.49455" lon="6.31034">
        <ele>266.3</ele>
        <time>2012-10-24T14:33:10Z</time>
      </trkpt>
      <trkpt lat="43.49454" lon="6.31036">
        <ele>266.3</ele>
        <time>2012-10-24T14:33:11Z</time>
      </trkpt>
      <trkpt lat="43.49444" lon="6.31049">
        <ele>265.9</ele>
        <time>2012-10-24T14:33:20Z</time>
      </trkpt>
      <trkpt lat="43.49438" lon="6.31056">
        <ele>265.8</ele>
        <time>2012-10-24T14:33:25Z</time>
      </trkpt>
      <trkpt lat="43.49434" lon="6.31066">
        <ele>265.9</ele>
        <time>2012-10-24T14:33:29Z</time>
      </trkpt>
      <trkpt lat="43.49429" lon="6.31076">
        <ele>266.4</ele>
        <time>2012-10-24T14:33:36Z</time>
      </trkpt>
      <trkpt lat="43.49426" lon="6.31086">
        <ele>265.6</ele>
        <time>2012-10-24T14:33:46Z</time>
      </trkpt>
      <trkpt lat="43.49429" lon="6.31097">
        <ele>264.2</ele>
        <time>2012-10-24T14:33:55Z</time>
      </trkpt>
      <trkpt lat="43.49433" lon="6.31108">
        <ele>262.8</ele>
        <time>2012-10-24T14:34:03Z</time>
      </trkpt>
      <trkpt lat="43.49435" lon="6.31119">
        <ele>261.3</ele>
        <time>2012-10-24T14:34:13Z</time>
      </trkpt>
      <trkpt lat="43.49435" lon="6.31121">
        <ele>261</ele>
        <time>2012-10-24T14:34:14Z</time>
      </trkpt>
      <trkpt lat="43.4943" lon="6.3114">
        <ele>259.2</ele>
        <time>2012-10-24T14:34:27Z</time>
      </trkpt>
      <trkpt lat="43.49426" lon="6.3115">
        <ele>258.3</ele>
        <time>2012-10-24T14:34:36Z</time>
      </trkpt>
      <trkpt lat="43.49429" lon="6.31161">
        <ele>256.8</ele>
        <time>2012-10-24T14:34:45Z</time>
      </trkpt>
      <trkpt lat="43.49436" lon="6.31167">
        <ele>257.1</ele>
        <time>2012-10-24T14:34:53Z</time>
      </trkpt>
      <trkpt lat="43.49443" lon="6.31174">
        <ele>256.5</ele>
        <time>2012-10-24T14:35:01Z</time>
      </trkpt>
      <trkpt lat="43.4945" lon="6.31182">
        <ele>256.5</ele>
        <time>2012-10-24T14:35:12Z</time>
      </trkpt>
      <trkpt lat="43.49457" lon="6.3119">
        <ele>256</ele>
        <time>2012-10-24T14:35:21Z</time>
      </trkpt>
      <trkpt lat="43.49458" lon="6.3119">
        <ele>256.1</ele>
        <time>2012-10-24T14:35:22Z</time>
      </trkpt>
      <trkpt lat="43.49465" lon="6.31206">
        <ele>255.2</ele>
        <time>2012-10-24T14:35:37Z</time>
      </trkpt>
      <trkpt lat="43.49461" lon="6.31217">
        <ele>252.7</ele>
        <time>2012-10-24T14:35:45Z</time>
      </trkpt>
      <trkpt lat="43.49456" lon="6.31227">
        <ele>252.3</ele>
        <time>2012-10-24T14:35:51Z</time>
      </trkpt>
      <trkpt lat="43.49452" lon="6.31236">
        <ele>251.1</ele>
        <time>2012-10-24T14:35:56Z</time>
      </trkpt>
      <trkpt lat="43.49447" lon="6.31244">
        <ele>251</ele>
        <time>2012-10-24T14:36:01Z</time>
      </trkpt>
      <trkpt lat="43.49442" lon="6.31253">
        <ele>251</ele>
        <time>2012-10-24T14:36:07Z</time>
      </trkpt>
      <trkpt lat="43.49437" lon="6.31263">
        <ele>250.9</ele>
        <time>2012-10-24T14:36:17Z</time>
      </trkpt>
      <trkpt lat="43.49433" lon="6.31273">
        <ele>251</ele>
        <time>2012-10-24T14:36:26Z</time>
      </trkpt>
      <trkpt lat="43.49433" lon="6.31275">
        <ele>251</ele>
        <time>2012-10-24T14:36:27Z</time>
      </trkpt>
      <trkpt lat="43.49439" lon="6.31293">
        <ele>250</ele>
        <time>2012-10-24T14:36:44Z</time>
      </trkpt>
      <trkpt lat="43.49445" lon="6.31301">
        <ele>250.3</ele>
        <time>2012-10-24T14:36:52Z</time>
      </trkpt>
      <trkpt lat="43.49452" lon="6.31305">
        <ele>250</ele>
        <time>2012-10-24T14:37:01Z</time>
      </trkpt>
      <trkpt lat="43.49459" lon="6.31313">
        <ele>250.1</ele>
        <time>2012-10-24T14:37:07Z</time>
      </trkpt>
      <trkpt lat="43.49463" lon="6.31323">
        <ele>250.7</ele>
        <time>2012-10-24T14:37:16Z</time>
      </trkpt>
      <trkpt lat="43.49465" lon="6.31335">
        <ele>251.8</ele>
        <time>2012-10-24T14:37:25Z</time>
      </trkpt>
      <trkpt lat="43.4947" lon="6.31345">
        <ele>253.1</ele>
        <time>2012-10-24T14:37:34Z</time>
      </trkpt>
      <trkpt lat="43.4947" lon="6.31346">
        <ele>253</ele>
        <time>2012-10-24T14:37:35Z</time>
      </trkpt>
      <trkpt lat="43.49468" lon="6.31369">
        <ele>253.6</ele>
        <time>2012-10-24T14:37:48Z</time>
      </trkpt>
      <trkpt lat="43.49472" lon="6.3138">
        <ele>254.4</ele>
        <time>2012-10-24T14:37:55Z</time>
      </trkpt>
      <trkpt lat="43.4947" lon="6.31392">
        <ele>254.2</ele>
        <time>2012-10-24T14:38:02Z</time>
      </trkpt>
      <trkpt lat="43.49474" lon="6.31402">
        <ele>255.1</ele>
        <time>2012-10-24T14:38:12Z</time>
      </trkpt>
      <trkpt lat="43.49483" lon="6.314">
        <ele>255.8</ele>
        <time>2012-10-24T14:38:21Z</time>
      </trkpt>
      <trkpt lat="43.4949" lon="6.31407">
        <ele>256.4</ele>
        <time>2012-10-24T14:39:29Z</time>
      </trkpt>
      <trkpt lat="43.4949" lon="6.31408">
        <ele>256.4</ele>
        <time>2012-10-24T14:39:30Z</time>
      </trkpt>
      <trkpt lat="43.49478" lon="6.31414">
        <ele>257.5</ele>
        <time>2012-10-24T14:40:56Z</time>
      </trkpt>
      <trkpt lat="43.49478" lon="6.31416">
        <ele>257</ele>
        <time>2012-10-24T14:40:57Z</time>
      </trkpt>
      <trkpt lat="43.49472" lon="6.31435">
        <ele>255.6</ele>
        <time>2012-10-24T14:41:11Z</time>
      </trkpt>
      <trkpt lat="43.49467" lon="6.31444">
        <ele>255.9</ele>
        <time>2012-10-24T14:41:18Z</time>
      </trkpt>
      <trkpt lat="43.49462" lon="6.31453">
        <ele>256.4</ele>
        <time>2012-10-24T14:41:26Z</time>
      </trkpt>
      <trkpt lat="43.49456" lon="6.31461">
        <ele>255.7</ele>
        <time>2012-10-24T14:41:34Z</time>
      </trkpt>
      <trkpt lat="43.49451" lon="6.31471">
        <ele>255.4</ele>
        <time>2012-10-24T14:41:44Z</time>
      </trkpt>
      <trkpt lat="43.49448" lon="6.31481">
        <ele>255</ele>
        <time>2012-10-24T14:41:51Z</time>
      </trkpt>
      <trkpt lat="43.49443" lon="6.31492">
        <ele>255.2</ele>
        <time>2012-10-24T14:41:58Z</time>
      </trkpt>
      <trkpt lat="43.49442" lon="6.31493">
        <ele>255.2</ele>
        <time>2012-10-24T14:41:59Z</time>
      </trkpt>
      <trkpt lat="43.49435" lon="6.31513">
        <ele>254</ele>
        <time>2012-10-24T14:42:11Z</time>
      </trkpt>
      <trkpt lat="43.49435" lon="6.31525">
        <ele>253.3</ele>
        <time>2012-10-24T14:42:19Z</time>
      </trkpt>
      <trkpt lat="43.49437" lon="6.31536">
        <ele>252.9</ele>
        <time>2012-10-24T14:42:25Z</time>
      </trkpt>
      <trkpt lat="43.49439" lon="6.31547">
        <ele>252.3</ele>
        <time>2012-10-24T14:42:32Z</time>
      </trkpt>
      <trkpt lat="43.49442" lon="6.31558">
        <ele>252.3</ele>
        <time>2012-10-24T14:42:39Z</time>
      </trkpt>
      <trkpt lat="43.49445" lon="6.31569">
        <ele>252.9</ele>
        <time>2012-10-24T14:42:57Z</time>
      </trkpt>
      <trkpt lat="43.49438" lon="6.31574">
        <ele>251.8</ele>
        <time>2012-10-24T14:43:04Z</time>
      </trkpt>
      <trkpt lat="43.49437" lon="6.31574">
        <ele>251.6</ele>
        <time>2012-10-24T14:43:05Z</time>
      </trkpt>
      <trkpt lat="43.49423" lon="6.31582">
        <ele>249.3</ele>
        <time>2012-10-24T14:43:17Z</time>
      </trkpt>
      <trkpt lat="43.49414" lon="6.3158">
        <ele>248.6</ele>
        <time>2012-10-24T14:43:29Z</time>
      </trkpt>
      <trkpt lat="43.49406" lon="6.31575">
        <ele>249.3</ele>
        <time>2012-10-24T14:43:41Z</time>
      </trkpt>
      <trkpt lat="43.49398" lon="6.31569">
        <ele>251.6</ele>
        <time>2012-10-24T14:43:51Z</time>
      </trkpt>
      <trkpt lat="43.49391" lon="6.31562">
        <ele>253.4</ele>
        <time>2012-10-24T14:44:04Z</time>
      </trkpt>
      <trkpt lat="43.49384" lon="6.31555">
        <ele>255.6</ele>
        <time>2012-10-24T14:44:14Z</time>
      </trkpt>
      <trkpt lat="43.49383" lon="6.31554">
        <ele>255.7</ele>
        <time>2012-10-24T14:44:15Z</time>
      </trkpt>
      <trkpt lat="43.4937" lon="6.31543">
        <ele>258.5</ele>
        <time>2012-10-24T14:44:34Z</time>
      </trkpt>
      <trkpt lat="43.49361" lon="6.3154">
        <ele>261</ele>
        <time>2012-10-24T14:44:45Z</time>
      </trkpt>
      <trkpt lat="43.49353" lon="6.3154">
        <ele>262.9</ele>
        <time>2012-10-24T14:44:54Z</time>
      </trkpt>
      <trkpt lat="43.49345" lon="6.31542">
        <ele>264.9</ele>
        <time>2012-10-24T14:45:04Z</time>
      </trkpt>
      <trkpt lat="43.49337" lon="6.31545">
        <ele>266.3</ele>
        <time>2012-10-24T14:45:13Z</time>
      </trkpt>
      <trkpt lat="43.49329" lon="6.31549">
        <ele>268</ele>
        <time>2012-10-24T14:45:22Z</time>
      </trkpt>
      <trkpt lat="43.49328" lon="6.31549">
        <ele>268</ele>
        <time>2012-10-24T14:45:23Z</time>
      </trkpt>
      <trkpt lat="43.49315" lon="6.31562">
        <ele>269.7</ele>
        <time>2012-10-24T14:45:38Z</time>
      </trkpt>
      <trkpt lat="43.49306" lon="6.31563">
        <ele>268.7</ele>
        <time>2012-10-24T14:45:46Z</time>
      </trkpt>
      <trkpt lat="43.49298" lon="6.31564">
        <ele>267</ele>
        <time>2012-10-24T14:45:59Z</time>
      </trkpt>
      <trkpt lat="43.4929" lon="6.31567">
        <ele>264.4</ele>
        <time>2012-10-24T14:46:14Z</time>
      </trkpt>
      <trkpt lat="43.49281" lon="6.31568">
        <ele>260.4</ele>
        <time>2012-10-24T14:46:35Z</time>
      </trkpt>
      <trkpt lat="43.49281" lon="6.31568">
        <ele>260.2</ele>
        <time>2012-10-24T14:46:36Z</time>
      </trkpt>
      <trkpt lat="43.49265" lon="6.31577">
        <ele>254.1</ele>
        <time>2012-10-24T14:47:11Z</time>
      </trkpt>
      <trkpt lat="43.49257" lon="6.31579">
        <ele>251.4</ele>
        <time>2012-10-24T14:47:19Z</time>
      </trkpt>
      <trkpt lat="43.49249" lon="6.31582">
        <ele>250.3</ele>
        <time>2012-10-24T14:47:25Z</time>
      </trkpt>
      <trkpt lat="43.49241" lon="6.31586">
        <ele>250.7</ele>
        <time>2012-10-24T14:47:30Z</time>
      </trkpt>
      <trkpt lat="43.49235" lon="6.31594">
        <ele>250.6</ele>
        <time>2012-10-24T14:47:40Z</time>
      </trkpt>
      <trkpt lat="43.49235" lon="6.31594">
        <ele>250.5</ele>
        <time>2012-10-24T14:47:41Z</time>
      </trkpt>
      <trkpt lat="43.49244" lon="6.31597">
        <ele>249.4</ele>
        <time>2012-10-24T14:50:48Z</time>
      </trkpt>
      <trkpt lat="43.49252" lon="6.31617">
        <ele>246.8</ele>
        <time>2012-10-24T14:51:04Z</time>
      </trkpt>
      <trkpt lat="43.49255" lon="6.31627">
        <ele>245.8</ele>
        <time>2012-10-24T14:51:12Z</time>
      </trkpt>
      <trkpt lat="43.49257" lon="6.31639">
        <ele>245</ele>
        <time>2012-10-24T14:51:18Z</time>
      </trkpt>
      <trkpt lat="43.4926" lon="6.3165">
        <ele>243.4</ele>
        <time>2012-10-24T14:51:25Z</time>
      </trkpt>
      <trkpt lat="43.49262" lon="6.31662">
        <ele>242.6</ele>
        <time>2012-10-24T14:51:34Z</time>
      </trkpt>
      <trkpt lat="43.49265" lon="6.31672">
        <ele>242</ele>
        <time>2012-10-24T14:51:42Z</time>
      </trkpt>
      <trkpt lat="43.49269" lon="6.31682">
        <ele>240.8</ele>
        <time>2012-10-24T14:51:49Z</time>
      </trkpt>
      <trkpt lat="43.4927" lon="6.31683">
        <ele>240.6</ele>
        <time>2012-10-24T14:51:50Z</time>
      </trkpt>
      <trkpt lat="43.49278" lon="6.31702">
        <ele>238</ele>
        <time>2012-10-24T14:52:05Z</time>
      </trkpt>
      <trkpt lat="43.49279" lon="6.31714">
        <ele>237.3</ele>
        <time>2012-10-24T14:52:13Z</time>
      </trkpt>
      <trkpt lat="43.49283" lon="6.31724">
        <ele>237</ele>
        <time>2012-10-24T14:52:20Z</time>
      </trkpt>
      <trkpt lat="43.49286" lon="6.31735">
        <ele>236.9</ele>
        <time>2012-10-24T14:52:27Z</time>
      </trkpt>
      <trkpt lat="43.4929" lon="6.31745">
        <ele>237.1</ele>
        <time>2012-10-24T14:52:34Z</time>
      </trkpt>
      <trkpt lat="43.49296" lon="6.31754">
        <ele>236.6</ele>
        <time>2012-10-24T14:52:41Z</time>
      </trkpt>
      <trkpt lat="43.49302" lon="6.31762">
        <ele>236.7</ele>
        <time>2012-10-24T14:52:48Z</time>
      </trkpt>
      <trkpt lat="43.49307" lon="6.3177">
        <ele>236</ele>
        <time>2012-10-24T14:52:55Z</time>
      </trkpt>
      <trkpt lat="43.49308" lon="6.31771">
        <ele>236.3</ele>
        <time>2012-10-24T14:52:56Z</time>
      </trkpt>
      <trkpt lat="43.49317" lon="6.31789">
        <ele>235.4</ele>
        <time>2012-10-24T14:53:11Z</time>
      </trkpt>
      <trkpt lat="43.4932" lon="6.318">
        <ele>234.9</ele>
        <time>2012-10-24T14:53:18Z</time>
      </trkpt>
      <trkpt lat="43.49326" lon="6.31808">
        <ele>234.2</ele>
        <time>2012-10-24T14:53:24Z</time>
      </trkpt>
      <trkpt lat="43.49332" lon="6.31816">
        <ele>233.8</ele>
        <time>2012-10-24T14:53:31Z</time>
      </trkpt>
      <trkpt lat="43.49337" lon="6.31826">
        <ele>233.1</ele>
        <time>2012-10-24T14:53:39Z</time>
      </trkpt>
      <trkpt lat="43.49342" lon="6.31836">
        <ele>231.7</ele>
        <time>2012-10-24T14:53:47Z</time>
      </trkpt>
      <trkpt lat="43.49347" lon="6.31845">
        <ele>231.2</ele>
        <time>2012-10-24T14:53:55Z</time>
      </trkpt>
      <trkpt lat="43.49349" lon="6.31856">
        <ele>229.6</ele>
        <time>2012-10-24T14:54:03Z</time>
      </trkpt>
      <trkpt lat="43.49349" lon="6.31857">
        <ele>229.4</ele>
        <time>2012-10-24T14:54:04Z</time>
      </trkpt>
      <trkpt lat="43.49354" lon="6.31879">
        <ele>228.6</ele>
        <time>2012-10-24T14:54:17Z</time>
      </trkpt>
      <trkpt lat="43.4936" lon="6.31887">
        <ele>227.1</ele>
        <time>2012-10-24T14:54:26Z</time>
      </trkpt>
      <trkpt lat="43.49363" lon="6.31897">
        <ele>225.8</ele>
        <time>2012-10-24T14:54:33Z</time>
      </trkpt>
      <trkpt lat="43.4936" lon="6.31908">
        <ele>225.6</ele>
        <time>2012-10-24T14:54:39Z</time>
      </trkpt>
      <trkpt lat="43.49356" lon="6.31919">
        <ele>225.4</ele>
        <time>2012-10-24T14:54:45Z</time>
      </trkpt>
      <trkpt lat="43.49352" lon="6.31929">
        <ele>224.8</ele>
        <time>2012-10-24T14:54:52Z</time>
      </trkpt>
      <trkpt lat="43.4935" lon="6.3194">
        <ele>224.8</ele>
        <time>2012-10-24T14:55:00Z</time>
      </trkpt>
      <trkpt lat="43.49348" lon="6.31951">
        <ele>225</ele>
        <time>2012-10-24T14:55:06Z</time>
      </trkpt>
      <trkpt lat="43.49347" lon="6.31953">
        <ele>224.7</ele>
        <time>2012-10-24T14:55:07Z</time>
      </trkpt>
      <trkpt lat="43.49349" lon="6.31973">
        <ele>224.2</ele>
        <time>2012-10-24T14:55:20Z</time>
      </trkpt>
      <trkpt lat="43.49349" lon="6.31984">
        <ele>224</ele>
        <time>2012-10-24T14:55:26Z</time>
      </trkpt>
      <trkpt lat="43.49349" lon="6.31996">
        <ele>223.6</ele>
        <time>2012-10-24T14:55:34Z</time>
      </trkpt>
      <trkpt lat="43.49347" lon="6.32006">
        <ele>224.4</ele>
        <time>2012-10-24T14:55:40Z</time>
      </trkpt>
      <trkpt lat="43.49345" lon="6.32018">
        <ele>223.1</ele>
        <time>2012-10-24T14:55:48Z</time>
      </trkpt>
      <trkpt lat="43.49345" lon="6.3203">
        <ele>221.9</ele>
        <time>2012-10-24T14:55:56Z</time>
      </trkpt>
      <trkpt lat="43.49343" lon="6.32042">
        <ele>222.4</ele>
        <time>2012-10-24T14:56:03Z</time>
      </trkpt>
      <trkpt lat="43.4934" lon="6.32053">
        <ele>222.1</ele>
        <time>2012-10-24T14:56:10Z</time>
      </trkpt>
      <trkpt lat="43.4934" lon="6.32055">
        <ele>222.3</ele>
        <time>2012-10-24T14:56:11Z</time>
      </trkpt>
      <trkpt lat="43.49338" lon="6.32076">
        <ele>220.1</ele>
        <time>2012-10-24T14:56:25Z</time>
      </trkpt>
      <trkpt lat="43.49339" lon="6.32087">
        <ele>220</ele>
        <time>2012-10-24T14:56:32Z</time>
      </trkpt>
      <trkpt lat="43.4934" lon="6.32099">
        <ele>218.7</ele>
        <time>2012-10-24T14:56:40Z</time>
      </trkpt>
      <trkpt lat="43.49341" lon="6.32111">
        <ele>218.6</ele>
        <time>2012-10-24T14:56:48Z</time>
      </trkpt>
      <trkpt lat="43.49343" lon="6.32122">
        <ele>217.2</ele>
        <time>2012-10-24T14:56:55Z</time>
      </trkpt>
      <trkpt lat="43.49345" lon="6.32134">
        <ele>216.8</ele>
        <time>2012-10-24T14:57:02Z</time>
      </trkpt>
      <trkpt lat="43.49348" lon="6.32144">
        <ele>216.6</ele>
        <time>2012-10-24T14:57:10Z</time>
      </trkpt>
      <trkpt lat="43.49352" lon="6.32155">
        <ele>215.9</ele>
        <time>2012-10-24T14:57:18Z</time>
      </trkpt>
      <trkpt lat="43.49353" lon="6.32156">
        <ele>215.9</ele>
        <time>2012-10-24T14:57:19Z</time>
      </trkpt>
      <trkpt lat="43.49364" lon="6.3217">
        <ele>214.5</ele>
        <time>2012-10-24T14:57:33Z</time>
      </trkpt>
      <trkpt lat="43.49369" lon="6.3218">
        <ele>213.9</ele>
        <time>2012-10-24T14:57:40Z</time>
      </trkpt>
      <trkpt lat="43.49373" lon="6.32189">
        <ele>213.4</ele>
        <time>2012-10-24T14:57:47Z</time>
      </trkpt>
      <trkpt lat="43.49376" lon="6.32201">
        <ele>212.7</ele>
        <time>2012-10-24T14:57:54Z</time>
      </trkpt>
      <trkpt lat="43.49381" lon="6.32211">
        <ele>210.9</ele>
        <time>2012-10-24T14:58:02Z</time>
      </trkpt>
      <trkpt lat="43.49385" lon="6.32221">
        <ele>210.9</ele>
        <time>2012-10-24T14:58:10Z</time>
      </trkpt>
      <trkpt lat="43.4939" lon="6.32231">
        <ele>210.2</ele>
        <time>2012-10-24T14:58:18Z</time>
      </trkpt>
      <trkpt lat="43.49393" lon="6.32242">
        <ele>209</ele>
        <time>2012-10-24T14:58:25Z</time>
      </trkpt>
      <trkpt lat="43.49393" lon="6.32244">
        <ele>208.8</ele>
        <time>2012-10-24T14:58:26Z</time>
      </trkpt>
      <trkpt lat="43.49394" lon="6.32264">
        <ele>207.3</ele>
        <time>2012-10-24T14:58:37Z</time>
      </trkpt>
      <trkpt lat="43.49392" lon="6.32275">
        <ele>206.9</ele>
        <time>2012-10-24T14:58:44Z</time>
      </trkpt>
      <trkpt lat="43.49388" lon="6.32284">
        <ele>207.4</ele>
        <time>2012-10-24T14:58:51Z</time>
      </trkpt>
      <trkpt lat="43.49387" lon="6.32296">
        <ele>205.6</ele>
        <time>2012-10-24T14:58:58Z</time>
      </trkpt>
      <trkpt lat="43.49383" lon="6.32306">
        <ele>204.5</ele>
        <time>2012-10-24T14:59:05Z</time>
      </trkpt>
      <trkpt lat="43.49379" lon="6.32316">
        <ele>204</ele>
        <time>2012-10-24T14:59:11Z</time>
      </trkpt>
      <trkpt lat="43.49376" lon="6.32327">
        <ele>204.2</ele>
        <time>2012-10-24T14:59:19Z</time>
      </trkpt>
      <trkpt lat="43.49373" lon="6.32339">
        <ele>203.8</ele>
        <time>2012-10-24T14:59:26Z</time>
      </trkpt>
      <trkpt lat="43.49373" lon="6.3234">
        <ele>203.8</ele>
        <time>2012-10-24T14:59:27Z</time>
      </trkpt>
      <trkpt lat="43.49364" lon="6.3236">
        <ele>202.5</ele>
        <time>2012-10-24T14:59:41Z</time>
      </trkpt>
      <trkpt lat="43.4936" lon="6.32371">
        <ele>203.1</ele>
        <time>2012-10-24T14:59:47Z</time>
      </trkpt>
      <trkpt lat="43.49356" lon="6.3238">
        <ele>202.1</ele>
        <time>2012-10-24T14:59:53Z</time>
      </trkpt>
      <trkpt lat="43.49351" lon="6.3239">
        <ele>202.5</ele>
        <time>2012-10-24T15:00:01Z</time>
      </trkpt>
      <trkpt lat="43.49343" lon="6.32385">
        <ele>200.8</ele>
        <time>2012-10-24T15:00:37Z</time>
      </trkpt>
      <trkpt lat="43.49342" lon="6.32386">
        <ele>201</ele>
        <time>2012-10-24T15:00:38Z</time>
      </trkpt>
      <trkpt lat="43.49328" lon="6.3239">
        <ele>200.5</ele>
        <time>2012-10-24T15:01:07Z</time>
      </trkpt>
      <trkpt lat="43.4932" lon="6.32395">
        <ele>200</ele>
        <time>2012-10-24T15:02:44Z</time>
      </trkpt>
      <trkpt lat="43.49319" lon="6.32396">
        <ele>200</ele>
        <time>2012-10-24T15:02:45Z</time>
      </trkpt>
      <trkpt lat="43.49306" lon="6.32406">
        <ele>199.1</ele>
        <time>2012-10-24T15:02:59Z</time>
      </trkpt>
      <trkpt lat="43.49299" lon="6.32413">
        <ele>199.6</ele>
        <time>2012-10-24T15:03:06Z</time>
      </trkpt>
      <trkpt lat="43.49292" lon="6.3242">
        <ele>200.4</ele>
        <time>2012-10-24T15:03:13Z</time>
      </trkpt>
      <trkpt lat="43.49284" lon="6.32425">
        <ele>199.3</ele>
        <time>2012-10-24T15:03:22Z</time>
      </trkpt>
      <trkpt lat="43.49276" lon="6.32429">
        <ele>197.9</ele>
        <time>2012-10-24T15:03:32Z</time>
      </trkpt>
      <trkpt lat="43.49269" lon="6.32433">
        <ele>197.1</ele>
        <time>2012-10-24T15:03:40Z</time>
      </trkpt>
      <trkpt lat="43.49262" lon="6.32439">
        <ele>197.8</ele>
        <time>2012-10-24T15:03:47Z</time>
      </trkpt>
      <trkpt lat="43.4926" lon="6.3244">
        <ele>198</ele>
        <time>2012-10-24T15:03:48Z</time>
      </trkpt>
      <trkpt lat="43.49248" lon="6.32452">
        <ele>198</ele>
        <time>2012-10-24T15:04:00Z</time>
      </trkpt>
      <trkpt lat="43.49241" lon="6.32459">
        <ele>198</ele>
        <time>2012-10-24T15:04:08Z</time>
      </trkpt>
      <trkpt lat="43.49234" lon="6.32467">
        <ele>197.5</ele>
        <time>2012-10-24T15:04:15Z</time>
      </trkpt>
      <trkpt lat="43.49228" lon="6.32473">
        <ele>196.9</ele>
        <time>2012-10-24T15:04:22Z</time>
      </trkpt>
      <trkpt lat="43.49222" lon="6.3248">
        <ele>197.8</ele>
        <time>2012-10-24T15:04:28Z</time>
      </trkpt>
      <trkpt lat="43.49215" lon="6.32488">
        <ele>198.6</ele>
        <time>2012-10-24T15:04:35Z</time>
      </trkpt>
      <trkpt lat="43.49209" lon="6.32497">
        <ele>198.1</ele>
        <time>2012-10-24T15:04:43Z</time>
      </trkpt>
      <trkpt lat="43.49213" lon="6.32506">
        <ele>197.6</ele>
        <time>2012-10-24T15:04:52Z</time>
      </trkpt>
      <trkpt lat="43.49214" lon="6.32508">
        <ele>197.2</ele>
        <time>2012-10-24T15:04:53Z</time>
      </trkpt>
      <trkpt lat="43.49225" lon="6.32522">
        <ele>195.7</ele>
        <time>2012-10-24T15:05:06Z</time>
      </trkpt>
      <trkpt lat="43.49231" lon="6.3253">
        <ele>194.7</ele>
        <time>2012-10-24T15:05:13Z</time>
      </trkpt>
      <trkpt lat="43.49236" lon="6.32539">
        <ele>194.1</ele>
        <time>2012-10-24T15:05:20Z</time>
      </trkpt>
      <trkpt lat="43.4923" lon="6.32546">
        <ele>193.5</ele>
        <time>2012-10-24T15:05:27Z</time>
      </trkpt>
      <trkpt lat="43.49222" lon="6.3255">
        <ele>193.3</ele>
        <time>2012-10-24T15:05:33Z</time>
      </trkpt>
      <trkpt lat="43.49214" lon="6.32554">
        <ele>193.1</ele>
        <time>2012-10-24T15:05:39Z</time>
      </trkpt>
      <trkpt lat="43.49206" lon="6.32557">
        <ele>192.3</ele>
        <time>2012-10-24T15:05:46Z</time>
      </trkpt>
      <trkpt lat="43.49197" lon="6.32559">
        <ele>191.6</ele>
        <time>2012-10-24T15:05:53Z</time>
      </trkpt>
      <trkpt lat="43.49196" lon="6.3256">
        <ele>191.6</ele>
        <time>2012-10-24T15:05:54Z</time>
      </trkpt>
      <trkpt lat="43.49182" lon="6.32567">
        <ele>191.5</ele>
        <time>2012-10-24T15:06:06Z</time>
      </trkpt>
      <trkpt lat="43.49174" lon="6.32572">
        <ele>191.4</ele>
        <time>2012-10-24T15:06:12Z</time>
      </trkpt>
      <trkpt lat="43.49166" lon="6.32577">
        <ele>190.4</ele>
        <time>2012-10-24T15:06:19Z</time>
      </trkpt>
      <trkpt lat="43.49158" lon="6.3258">
        <ele>190.1</ele>
        <time>2012-10-24T15:06:26Z</time>
      </trkpt>
      <trkpt lat="43.4915" lon="6.32584">
        <ele>190.9</ele>
        <time>2012-10-24T15:06:34Z</time>
      </trkpt>
      <trkpt lat="43.49144" lon="6.32591">
        <ele>191.9</ele>
        <time>2012-10-24T15:06:41Z</time>
      </trkpt>
      <trkpt lat="43.49138" lon="6.326">
        <ele>190</ele>
        <time>2012-10-24T15:06:49Z</time>
      </trkpt>
      <trkpt lat="43.49133" lon="6.32609">
        <ele>189.7</ele>
        <time>2012-10-24T15:06:56Z</time>
      </trkpt>
      <trkpt lat="43.49132" lon="6.32611">
        <ele>189.6</ele>
        <time>2012-10-24T15:06:57Z</time>
      </trkpt>
      <trkpt lat="43.49122" lon="6.32627">
        <ele>189.5</ele>
        <time>2012-10-24T15:07:10Z</time>
      </trkpt>
      <trkpt lat="43.49116" lon="6.32636">
        <ele>188.6</ele>
        <time>2012-10-24T15:07:17Z</time>
      </trkpt>
      <trkpt lat="43.49111" lon="6.32645">
        <ele>188.2</ele>
        <time>2012-10-24T15:07:24Z</time>
      </trkpt>
      <trkpt lat="43.49105" lon="6.32653">
        <ele>189</ele>
        <time>2012-10-24T15:07:33Z</time>
      </trkpt>
      <trkpt lat="43.491" lon="6.32661">
        <ele>189.3</ele>
        <time>2012-10-24T15:07:41Z</time>
      </trkpt>
      <trkpt lat="43.49094" lon="6.32669">
        <ele>188.9</ele>
        <time>2012-10-24T15:07:48Z</time>
      </trkpt>
      <trkpt lat="43.49089" lon="6.32678">
        <ele>190.3</ele>
        <time>2012-10-24T15:07:55Z</time>
      </trkpt>
      <trkpt lat="43.49084" lon="6.32687">
        <ele>189.1</ele>
        <time>2012-10-24T15:08:02Z</time>
      </trkpt>
      <trkpt lat="43.49083" lon="6.32688">
        <ele>188.5</ele>
        <time>2012-10-24T15:08:03Z</time>
      </trkpt>
      <trkpt lat="43.49073" lon="6.32705">
        <ele>190.3</ele>
        <time>2012-10-24T15:08:18Z</time>
      </trkpt>
      <trkpt lat="43.49071" lon="6.32716">
        <ele>189.8</ele>
        <time>2012-10-24T15:08:25Z</time>
      </trkpt>
      <trkpt lat="43.49069" lon="6.32727">
        <ele>189.2</ele>
        <time>2012-10-24T15:08:33Z</time>
      </trkpt>
      <trkpt lat="43.49066" lon="6.32737">
        <ele>188.8</ele>
        <time>2012-10-24T15:08:41Z</time>
      </trkpt>
      <trkpt lat="43.49061" lon="6.32747">
        <ele>188.4</ele>
        <time>2012-10-24T15:08:49Z</time>
      </trkpt>
      <trkpt lat="43.49055" lon="6.32755">
        <ele>188</ele>
        <time>2012-10-24T15:08:56Z</time>
      </trkpt>
      <trkpt lat="43.49051" lon="6.32766">
        <ele>187.7</ele>
        <time>2012-10-24T15:09:05Z</time>
      </trkpt>
      <trkpt lat="43.4905" lon="6.32767">
        <ele>187.6</ele>
        <time>2012-10-24T15:09:06Z</time>
      </trkpt>
      <trkpt lat="43.4904" lon="6.32784">
        <ele>188.8</ele>
        <time>2012-10-24T15:09:23Z</time>
      </trkpt>
      <trkpt lat="43.49035" lon="6.32794">
        <ele>188.3</ele>
        <time>2012-10-24T15:09:31Z</time>
      </trkpt>
      <trkpt lat="43.49039" lon="6.32804">
        <ele>187.3</ele>
        <time>2012-10-24T15:09:47Z</time>
      </trkpt>
      <trkpt lat="43.4904" lon="6.32816">
        <ele>186.3</ele>
        <time>2012-10-24T15:09:56Z</time>
      </trkpt>
      <trkpt lat="43.49036" lon="6.32827">
        <ele>186.4</ele>
        <time>2012-10-24T15:10:04Z</time>
      </trkpt>
      <trkpt lat="43.49039" lon="6.32838">
        <ele>186.5</ele>
        <time>2012-10-24T15:10:13Z</time>
      </trkpt>
      <trkpt lat="43.49039" lon="6.32839">
        <ele>186.3</ele>
        <time>2012-10-24T15:10:14Z</time>
      </trkpt>
      <trkpt lat="43.4905" lon="6.32856">
        <ele>185</ele>
        <time>2012-10-24T15:10:28Z</time>
      </trkpt>
      <trkpt lat="43.49056" lon="6.32865">
        <ele>184.9</ele>
        <time>2012-10-24T15:10:36Z</time>
      </trkpt>
      <trkpt lat="43.49048" lon="6.32873">
        <ele>185.4</ele>
        <time>2012-10-24T15:10:48Z</time>
      </trkpt>
      <trkpt lat="43.49041" lon="6.32879">
        <ele>185.8</ele>
        <time>2012-10-24T15:11:08Z</time>
      </trkpt>
      <trkpt lat="43.49033" lon="6.32882">
        <ele>186.6</ele>
        <time>2012-10-24T15:11:22Z</time>
      </trkpt>
      <trkpt lat="43.49032" lon="6.32882">
        <ele>186.4</ele>
        <time>2012-10-24T15:11:23Z</time>
      </trkpt>
      <trkpt lat="43.49016" lon="6.32885">
        <ele>186.7</ele>
        <time>2012-10-24T15:11:41Z</time>
      </trkpt>
      <trkpt lat="43.49007" lon="6.32887">
        <ele>186.9</ele>
        <time>2012-10-24T15:11:52Z</time>
      </trkpt>
      <trkpt lat="43.48999" lon="6.32888">
        <ele>188.5</ele>
        <time>2012-10-24T15:12:01Z</time>
      </trkpt>
      <trkpt lat="43.48991" lon="6.3289">
        <ele>188.4</ele>
        <time>2012-10-24T15:12:10Z</time>
      </trkpt>
      <trkpt lat="43.48982" lon="6.32892">
        <ele>189.1</ele>
        <time>2012-10-24T15:12:19Z</time>
      </trkpt>
      <trkpt lat="43.48974" lon="6.32894">
        <ele>187.7</ele>
        <time>2012-10-24T15:12:26Z</time>
      </trkpt>
      <trkpt lat="43.48973" lon="6.32894">
        <ele>187.6</ele>
        <time>2012-10-24T15:12:27Z</time>
      </trkpt>
      <trkpt lat="43.48957" lon="6.329">
        <ele>187.3</ele>
        <time>2012-10-24T15:12:42Z</time>
      </trkpt>
      <trkpt lat="43.48956" lon="6.32911">
        <ele>187.4</ele>
        <time>2012-10-24T15:12:58Z</time>
      </trkpt>
      <trkpt lat="43.48958" lon="6.32923">
        <ele>187.4</ele>
        <time>2012-10-24T15:13:07Z</time>
      </trkpt>
      <trkpt lat="43.48958" lon="6.32934">
        <ele>187.9</ele>
        <time>2012-10-24T15:13:15Z</time>
      </trkpt>
      <trkpt lat="43.48959" lon="6.32946">
        <ele>187.8</ele>
        <time>2012-10-24T15:13:24Z</time>
      </trkpt>
      <trkpt lat="43.4896" lon="6.32958">
        <ele>187.7</ele>
        <time>2012-10-24T15:13:32Z</time>
      </trkpt>
      <trkpt lat="43.4896" lon="6.3296">
        <ele>188</ele>
        <time>2012-10-24T15:13:33Z</time>
      </trkpt>
      <trkpt lat="43.48961" lon="6.32981">
        <ele>187.5</ele>
        <time>2012-10-24T15:13:47Z</time>
      </trkpt>
      <trkpt lat="43.48961" lon="6.32993">
        <ele>187.8</ele>
        <time>2012-10-24T15:13:55Z</time>
      </trkpt>
      <trkpt lat="43.48961" lon="6.33004">
        <ele>188.7</ele>
        <time>2012-10-24T15:14:03Z</time>
      </trkpt>
      <trkpt lat="43.4897" lon="6.33007">
        <ele>189</ele>
        <time>2012-10-24T15:14:13Z</time>
      </trkpt>
      <trkpt lat="43.48978" lon="6.33003">
        <ele>189.7</ele>
        <time>2012-10-24T15:14:22Z</time>
      </trkpt>
      <trkpt lat="43.48986" lon="6.33003">
        <ele>191.1</ele>
        <time>2012-10-24T15:14:30Z</time>
      </trkpt>
      <trkpt lat="43.48995" lon="6.33004">
        <ele>192</ele>
        <time>2012-10-24T15:14:39Z</time>
      </trkpt>
      <trkpt lat="43.48996" lon="6.33004">
        <ele>191.6</ele>
        <time>2012-10-24T15:14:40Z</time>
      </trkpt>
      <trkpt lat="43.48992" lon="6.33024">
        <ele>192.1</ele>
        <time>2012-10-24T15:14:58Z</time>
      </trkpt>
      <trkpt lat="43.48988" lon="6.33034">
        <ele>191.8</ele>
        <time>2012-10-24T15:15:03Z</time>
      </trkpt>
      <trkpt lat="43.48986" lon="6.33045">
        <ele>190.6</ele>
        <time>2012-10-24T15:15:10Z</time>
      </trkpt>
      <trkpt lat="43.48985" lon="6.33056">
        <ele>190.1</ele>
        <time>2012-10-24T15:15:17Z</time>
      </trkpt>
      <trkpt lat="43.48982" lon="6.33067">
        <ele>190.8</ele>
        <time>2012-10-24T15:15:25Z</time>
      </trkpt>
      <trkpt lat="43.48981" lon="6.33079">
        <ele>191.6</ele>
        <time>2012-10-24T15:15:33Z</time>
      </trkpt>
      <trkpt lat="43.48981" lon="6.33091">
        <ele>190.5</ele>
        <time>2012-10-24T15:15:40Z</time>
      </trkpt>
      <trkpt lat="43.48982" lon="6.33103">
        <ele>189.8</ele>
        <time>2012-10-24T15:15:47Z</time>
      </trkpt>
      <trkpt lat="43.48983" lon="6.33104">
        <ele>189.6</ele>
        <time>2012-10-24T15:15:48Z</time>
      </trkpt>
      <trkpt lat="43.48984" lon="6.33125">
        <ele>188.6</ele>
        <time>2012-10-24T15:16:01Z</time>
      </trkpt>
      <trkpt lat="43.48986" lon="6.33137">
        <ele>188.4</ele>
        <time>2012-10-24T15:16:08Z</time>
      </trkpt>
      <trkpt lat="43.48981" lon="6.33147">
        <ele>188.4</ele>
        <time>2012-10-24T15:16:14Z</time>
      </trkpt>
      <trkpt lat="43.48974" lon="6.33151">
        <ele>187.7</ele>
        <time>2012-10-24T15:16:18Z</time>
      </trkpt>
      <trkpt lat="43.48965" lon="6.33153">
        <ele>187.1</ele>
        <time>2012-10-24T15:16:23Z</time>
      </trkpt>
      <trkpt lat="43.48958" lon="6.33155">
        <ele>187.7</ele>
        <time>2012-10-24T15:16:28Z</time>
      </trkpt>
      <trkpt lat="43.4895" lon="6.33159">
        <ele>187.5</ele>
        <time>2012-10-24T15:16:33Z</time>
      </trkpt>
      <trkpt lat="43.48943" lon="6.33162">
        <ele>187.7</ele>
        <time>2012-10-24T15:16:38Z</time>
      </trkpt>
      <trkpt lat="43.48934" lon="6.33165">
        <ele>187.7</ele>
        <time>2012-10-24T15:16:44Z</time>
      </trkpt>
      <trkpt lat="43.48926" lon="6.33167">
        <ele>187.4</ele>
        <time>2012-10-24T15:16:50Z</time>
      </trkpt>
      <trkpt lat="43.48925" lon="6.33167">
        <ele>187</ele>
        <time>2012-10-24T15:16:51Z</time>
      </trkpt>
      <trkpt lat="43.4891" lon="6.33172">
        <ele>187.1</ele>
        <time>2012-10-24T15:17:02Z</time>
      </trkpt>
      <trkpt lat="43.48902" lon="6.3317">
        <ele>187.2</ele>
        <time>2012-10-24T15:17:09Z</time>
      </trkpt>
      <trkpt lat="43.48893" lon="6.33171">
        <ele>186.6</ele>
        <time>2012-10-24T15:17:20Z</time>
      </trkpt>
      <trkpt lat="43.48891" lon="6.33183">
        <ele>187.5</ele>
        <time>2012-10-24T15:17:30Z</time>
      </trkpt>
      <trkpt lat="43.48889" lon="6.33195">
        <ele>187.4</ele>
        <time>2012-10-24T15:17:41Z</time>
      </trkpt>
      <trkpt lat="43.48886" lon="6.33205">
        <ele>186.6</ele>
        <time>2012-10-24T15:17:49Z</time>
      </trkpt>
      <trkpt lat="43.48881" lon="6.33215">
        <ele>187.9</ele>
        <time>2012-10-24T15:17:57Z</time>
      </trkpt>
      <trkpt lat="43.48881" lon="6.33216">
        <ele>188.1</ele>
        <time>2012-10-24T15:17:58Z</time>
      </trkpt>
      <trkpt lat="43.48869" lon="6.3323">
        <ele>188.2</ele>
        <time>2012-10-24T15:18:12Z</time>
      </trkpt>
      <trkpt lat="43.48864" lon="6.33238">
        <ele>188</ele>
        <time>2012-10-24T15:18:18Z</time>
      </trkpt>
      <trkpt lat="43.48858" lon="6.33247">
        <ele>186.9</ele>
        <time>2012-10-24T15:18:24Z</time>
      </trkpt>
      <trkpt lat="43.48853" lon="6.33256">
        <ele>186.7</ele>
        <time>2012-10-24T15:18:31Z</time>
      </trkpt>
      <trkpt lat="43.48848" lon="6.33265">
        <ele>186.4</ele>
        <time>2012-10-24T15:18:39Z</time>
      </trkpt>
      <trkpt lat="43.48848" lon="6.33275">
        <ele>185.9</ele>
        <time>2012-10-24T15:18:46Z</time>
      </trkpt>
      <trkpt lat="43.48845" lon="6.33286">
        <ele>183.8</ele>
        <time>2012-10-24T15:18:53Z</time>
      </trkpt>
      <trkpt lat="43.48841" lon="6.33297">
        <ele>183</ele>
        <time>2012-10-24T15:19:00Z</time>
      </trkpt>
      <trkpt lat="43.48841" lon="6.33297">
        <ele>183.1</ele>
        <time>2012-10-24T15:19:01Z</time>
      </trkpt>
      <trkpt lat="43.48829" lon="6.33314">
        <ele>182.5</ele>
        <time>2012-10-24T15:19:16Z</time>
      </trkpt>
      <trkpt lat="43.48824" lon="6.33322">
        <ele>182.5</ele>
        <time>2012-10-24T15:19:22Z</time>
      </trkpt>
      <trkpt lat="43.48819" lon="6.33332">
        <ele>182.7</ele>
        <time>2012-10-24T15:19:28Z</time>
      </trkpt>
      <trkpt lat="43.48814" lon="6.33342">
        <ele>182.4</ele>
        <time>2012-10-24T15:19:37Z</time>
      </trkpt>
      <trkpt lat="43.4881" lon="6.33353">
        <ele>182</ele>
        <time>2012-10-24T15:19:46Z</time>
      </trkpt>
      <trkpt lat="43.48806" lon="6.33364">
        <ele>180.8</ele>
        <time>2012-10-24T15:19:53Z</time>
      </trkpt>
      <trkpt lat="43.48803" lon="6.33374">
        <ele>181.2</ele>
        <time>2012-10-24T15:19:59Z</time>
      </trkpt>
      <trkpt lat="43.48799" lon="6.33384">
        <ele>180.1</ele>
        <time>2012-10-24T15:20:07Z</time>
      </trkpt>
      <trkpt lat="43.48799" lon="6.33386">
        <ele>180.2</ele>
        <time>2012-10-24T15:20:08Z</time>
      </trkpt>
      <trkpt lat="43.48796" lon="6.33408">
        <ele>179</ele>
        <time>2012-10-24T15:20:24Z</time>
      </trkpt>
      <trkpt lat="43.48797" lon="6.33419">
        <ele>178</ele>
        <time>2012-10-24T15:20:32Z</time>
      </trkpt>
      <trkpt lat="43.48797" lon="6.33431">
        <ele>177.4</ele>
        <time>2012-10-24T15:20:40Z</time>
      </trkpt>
      <trkpt lat="43.48796" lon="6.33443">
        <ele>176.9</ele>
        <time>2012-10-24T15:20:53Z</time>
      </trkpt>
      <trkpt lat="43.48798" lon="6.33455">
        <ele>175.1</ele>
        <time>2012-10-24T15:21:02Z</time>
      </trkpt>
      <trkpt lat="43.48795" lon="6.33466">
        <ele>174.2</ele>
        <time>2012-10-24T15:21:10Z</time>
      </trkpt>
      <trkpt lat="43.48794" lon="6.33467">
        <ele>173.7</ele>
        <time>2012-10-24T15:21:11Z</time>
      </trkpt>
      <trkpt lat="43.48783" lon="6.3348">
        <ele>172.5</ele>
        <time>2012-10-24T15:21:20Z</time>
      </trkpt>
      <trkpt lat="43.48776" lon="6.33487">
        <ele>171.4</ele>
        <time>2012-10-24T15:21:26Z</time>
      </trkpt>
      <trkpt lat="43.48772" lon="6.33498">
        <ele>169.5</ele>
        <time>2012-10-24T15:21:35Z</time>
      </trkpt>
      <trkpt lat="43.48773" lon="6.3351">
        <ele>168.7</ele>
        <time>2012-10-24T15:21:43Z</time>
      </trkpt>
      <trkpt lat="43.48773" lon="6.33521">
        <ele>166.8</ele>
        <time>2012-10-24T15:21:52Z</time>
      </trkpt>
      <trkpt lat="43.48768" lon="6.3353">
        <ele>165.8</ele>
        <time>2012-10-24T15:21:59Z</time>
      </trkpt>
      <trkpt lat="43.48762" lon="6.33537">
        <ele>164.3</ele>
        <time>2012-10-24T15:22:05Z</time>
      </trkpt>
      <trkpt lat="43.48755" lon="6.33544">
        <ele>163.5</ele>
        <time>2012-10-24T15:22:11Z</time>
      </trkpt>
      <trkpt lat="43.48754" lon="6.33545">
        <ele>163.8</ele>
        <time>2012-10-24T15:22:12Z</time>
      </trkpt>
      <trkpt lat="43.48743" lon="6.33559">
        <ele>161.1</ele>
        <time>2012-10-24T15:22:22Z</time>
      </trkpt>
      <trkpt lat="43.48734" lon="6.33561">
        <ele>159.6</ele>
        <time>2012-10-24T15:23:03Z</time>
      </trkpt>
      <trkpt lat="43.48742" lon="6.33565">
        <ele>160</ele>
        <time>2012-10-24T15:24:25Z</time>
      </trkpt>
      <trkpt lat="43.48743" lon="6.33565">
        <ele>159.8</ele>
        <time>2012-10-24T15:24:26Z</time>
      </trkpt>
      <trkpt lat="43.48759" lon="6.33567">
        <ele>159.1</ele>
        <time>2012-10-24T15:25:12Z</time>
      </trkpt>
      <trkpt lat="43.48768" lon="6.33567">
        <ele>158.8</ele>
        <time>2012-10-24T15:25:19Z</time>
      </trkpt>
      <trkpt lat="43.48776" lon="6.33565">
        <ele>157.3</ele>
        <time>2012-10-24T15:25:25Z</time>
      </trkpt>
      <trkpt lat="43.48783" lon="6.33558">
        <ele>157.4</ele>
        <time>2012-10-24T15:25:31Z</time>
      </trkpt>
      <trkpt lat="43.48784" lon="6.33557">
        <ele>156.9</ele>
        <time>2012-10-24T15:25:32Z</time>
      </trkpt>
      <trkpt lat="43.48797" lon="6.33544">
        <ele>157.6</ele>
        <time>2012-10-24T15:25:44Z</time>
      </trkpt>
      <trkpt lat="43.48804" lon="6.33538">
        <ele>157.4</ele>
        <time>2012-10-24T15:25:51Z</time>
      </trkpt>
      <trkpt lat="43.48811" lon="6.33532">
        <ele>157.8</ele>
        <time>2012-10-24T15:25:57Z</time>
      </trkpt>
      <trkpt lat="43.48818" lon="6.33527">
        <ele>157.2</ele>
        <time>2012-10-24T15:26:03Z</time>
      </trkpt>
      <trkpt lat="43.48826" lon="6.33522">
        <ele>156.8</ele>
        <time>2012-10-24T15:26:09Z</time>
      </trkpt>
      <trkpt lat="43.48834" lon="6.33516">
        <ele>157.6</ele>
        <time>2012-10-24T15:26:15Z</time>
      </trkpt>
      <trkpt lat="43.48841" lon="6.33512">
        <ele>157.4</ele>
        <time>2012-10-24T15:26:20Z</time>
      </trkpt>
      <trkpt lat="43.48848" lon="6.33504">
        <ele>157.5</ele>
        <time>2012-10-24T15:26:27Z</time>
      </trkpt>
      <trkpt lat="43.48855" lon="6.335">
        <ele>156.9</ele>
        <time>2012-10-24T15:26:33Z</time>
      </trkpt>
      <trkpt lat="43.48856" lon="6.33499">
        <ele>157</ele>
        <time>2012-10-24T15:26:34Z</time>
      </trkpt>
      <trkpt lat="43.48871" lon="6.33493">
        <ele>157.8</ele>
        <time>2012-10-24T15:26:44Z</time>
      </trkpt>
      <trkpt lat="43.48879" lon="6.33489">
        <ele>158.3</ele>
        <time>2012-10-24T15:26:51Z</time>
      </trkpt>
      <trkpt lat="43.48887" lon="6.33487">
        <ele>157.5</ele>
        <time>2012-10-24T15:26:58Z</time>
      </trkpt>
      <trkpt lat="43.48894" lon="6.33482">
        <ele>158.3</ele>
        <time>2012-10-24T15:27:05Z</time>
      </trkpt>
      <trkpt lat="43.48902" lon="6.33478">
        <ele>159</ele>
        <time>2012-10-24T15:27:11Z</time>
      </trkpt>
      <trkpt lat="43.4891" lon="6.33478">
        <ele>159.6</ele>
        <time>2012-10-24T15:27:17Z</time>
      </trkpt>
      <trkpt lat="43.48918" lon="6.33476">
        <ele>158.9</ele>
        <time>2012-10-24T15:27:24Z</time>
      </trkpt>
      <trkpt lat="43.48926" lon="6.33472">
        <ele>160</ele>
        <time>2012-10-24T15:27:30Z</time>
      </trkpt>
      <trkpt lat="43.48933" lon="6.33467">
        <ele>160.3</ele>
        <time>2012-10-24T15:27:35Z</time>
      </trkpt>
      <trkpt lat="43.48934" lon="6.33467">
        <ele>160</ele>
        <time>2012-10-24T15:27:36Z</time>
      </trkpt>
      <trkpt lat="43.48948" lon="6.33459">
        <ele>161.6</ele>
        <time>2012-10-24T15:27:48Z</time>
      </trkpt>
      <trkpt lat="43.48955" lon="6.33455">
        <ele>162.3</ele>
        <time>2012-10-24T15:27:54Z</time>
      </trkpt>
      <trkpt lat="43.48963" lon="6.3345">
        <ele>162</ele>
        <time>2012-10-24T15:28:00Z</time>
      </trkpt>
      <trkpt lat="43.4897" lon="6.33446">
        <ele>160.8</ele>
        <time>2012-10-24T15:28:06Z</time>
      </trkpt>
      <trkpt lat="43.48978" lon="6.33444">
        <ele>161</ele>
        <time>2012-10-24T15:28:11Z</time>
      </trkpt>
      <trkpt lat="43.48986" lon="6.33446">
        <ele>160.7</ele>
        <time>2012-10-24T15:28:17Z</time>
      </trkpt>
      <trkpt lat="43.48979" lon="6.33452">
        <ele>161.3</ele>
        <time>2012-10-24T15:28:38Z</time>
      </trkpt>
      <trkpt lat="43.48978" lon="6.33453">
        <ele>161.6</ele>
        <time>2012-10-24T15:28:39Z</time>
      </trkpt>
      <trkpt lat="43.48995" lon="6.33452">
        <ele>162.4</ele>
        <time>2012-10-24T15:28:56Z</time>
      </trkpt>
      <trkpt lat="43.49004" lon="6.33453">
        <ele>163</ele>
        <time>2012-10-24T15:29:03Z</time>
      </trkpt>
      <trkpt lat="43.49012" lon="6.33454">
        <ele>164.3</ele>
        <time>2012-10-24T15:29:12Z</time>
      </trkpt>
      <trkpt lat="43.49018" lon="6.3346">
        <ele>164.8</ele>
        <time>2012-10-24T15:29:18Z</time>
      </trkpt>
      <trkpt lat="43.49025" lon="6.33468">
        <ele>164</ele>
        <time>2012-10-24T15:29:25Z</time>
      </trkpt>
      <trkpt lat="43.49031" lon="6.33474">
        <ele>164.4</ele>
        <time>2012-10-24T15:29:31Z</time>
      </trkpt>
      <trkpt lat="43.49039" lon="6.33478">
        <ele>164.4</ele>
        <time>2012-10-24T15:29:40Z</time>
      </trkpt>
      <trkpt lat="43.4904" lon="6.33478">
        <ele>164.6</ele>
        <time>2012-10-24T15:29:41Z</time>
      </trkpt>
      <trkpt lat="43.49055" lon="6.33484">
        <ele>165.8</ele>
        <time>2012-10-24T15:29:57Z</time>
      </trkpt>
      <trkpt lat="43.49063" lon="6.33484">
        <ele>166.5</ele>
        <time>2012-10-24T15:30:10Z</time>
      </trkpt>
      <trkpt lat="43.49071" lon="6.33489">
        <ele>166.6</ele>
        <time>2012-10-24T15:30:19Z</time>
      </trkpt>
      <trkpt lat="43.4908" lon="6.33491">
        <ele>167.7</ele>
        <time>2012-10-24T15:30:28Z</time>
      </trkpt>
      <trkpt lat="43.49088" lon="6.33493">
        <ele>168.3</ele>
        <time>2012-10-24T15:30:36Z</time>
      </trkpt>
      <trkpt lat="43.49096" lon="6.33498">
        <ele>169.2</ele>
        <time>2012-10-24T15:30:45Z</time>
      </trkpt>
      <trkpt lat="43.49097" lon="6.33499">
        <ele>169</ele>
        <time>2012-10-24T15:30:46Z</time>
      </trkpt>
      <trkpt lat="43.49112" lon="6.33503">
        <ele>168.7</ele>
        <time>2012-10-24T15:31:00Z</time>
      </trkpt>
      <trkpt lat="43.49121" lon="6.33502">
        <ele>168.2</ele>
        <time>2012-10-24T15:31:07Z</time>
      </trkpt>
      <trkpt lat="43.49129" lon="6.33498">
        <ele>168.6</ele>
        <time>2012-10-24T15:31:15Z</time>
      </trkpt>
      <trkpt lat="43.49137" lon="6.33496">
        <ele>168.9</ele>
        <time>2012-10-24T15:31:21Z</time>
      </trkpt>
      <trkpt lat="43.49145" lon="6.33492">
        <ele>169.2</ele>
        <time>2012-10-24T15:31:26Z</time>
      </trkpt>
      <trkpt lat="43.49152" lon="6.33487">
        <ele>169.3</ele>
        <time>2012-10-24T15:31:33Z</time>
      </trkpt>
      <trkpt lat="43.4916" lon="6.3348">
        <ele>169.9</ele>
        <time>2012-10-24T15:31:40Z</time>
      </trkpt>
      <trkpt lat="43.49165" lon="6.33471">
        <ele>169.7</ele>
        <time>2012-10-24T15:31:47Z</time>
      </trkpt>
      <trkpt lat="43.49166" lon="6.3347">
        <ele>169.6</ele>
        <time>2012-10-24T15:31:48Z</time>
      </trkpt>
      <trkpt lat="43.49172" lon="6.33449">
        <ele>171.1</ele>
        <time>2012-10-24T15:32:08Z</time>
      </trkpt>
      <trkpt lat="43.49173" lon="6.33438">
        <ele>170.6</ele>
        <time>2012-10-24T15:32:14Z</time>
      </trkpt>
      <trkpt lat="43.49179" lon="6.3343">
        <ele>171</ele>
        <time>2012-10-24T15:32:20Z</time>
      </trkpt>
      <trkpt lat="43.49183" lon="6.3342">
        <ele>171.9</ele>
        <time>2012-10-24T15:32:26Z</time>
      </trkpt>
      <trkpt lat="43.49191" lon="6.33413">
        <ele>171.6</ele>
        <time>2012-10-24T15:32:37Z</time>
      </trkpt>
      <trkpt lat="43.49197" lon="6.33406">
        <ele>173</ele>
        <time>2012-10-24T15:32:48Z</time>
      </trkpt>
      <trkpt lat="43.49197" lon="6.33404">
        <ele>173</ele>
        <time>2012-10-24T15:32:49Z</time>
      </trkpt>
      <trkpt lat="43.49211" lon="6.33397">
        <ele>174.1</ele>
        <time>2012-10-24T15:33:03Z</time>
      </trkpt>
      <trkpt lat="43.4922" lon="6.334">
        <ele>173.5</ele>
        <time>2012-10-24T15:33:13Z</time>
      </trkpt>
      <trkpt lat="43.49227" lon="6.33406">
        <ele>174.1</ele>
        <time>2012-10-24T15:33:30Z</time>
      </trkpt>
      <trkpt lat="43.49231" lon="6.33415">
        <ele>174.4</ele>
        <time>2012-10-24T15:33:37Z</time>
      </trkpt>
      <trkpt lat="43.49233" lon="6.33427">
        <ele>174.2</ele>
        <time>2012-10-24T15:33:44Z</time>
      </trkpt>
      <trkpt lat="43.49236" lon="6.33438">
        <ele>174.8</ele>
        <time>2012-10-24T15:33:52Z</time>
      </trkpt>
      <trkpt lat="43.49236" lon="6.33439">
        <ele>175.1</ele>
        <time>2012-10-24T15:33:53Z</time>
      </trkpt>
      <trkpt lat="43.49241" lon="6.3346">
        <ele>175.5</ele>
        <time>2012-10-24T15:34:07Z</time>
      </trkpt>
      <trkpt lat="43.49243" lon="6.33472">
        <ele>177</ele>
        <time>2012-10-24T15:34:15Z</time>
      </trkpt>
      <trkpt lat="43.49243" lon="6.33484">
        <ele>177.9</ele>
        <time>2012-10-24T15:34:23Z</time>
      </trkpt>
      <trkpt lat="43.49244" lon="6.33495">
        <ele>178.1</ele>
        <time>2012-10-24T15:34:30Z</time>
      </trkpt>
      <trkpt lat="43.49242" lon="6.33507">
        <ele>178</ele>
        <time>2012-10-24T15:34:38Z</time>
      </trkpt>
      <trkpt lat="43.49244" lon="6.33519">
        <ele>179.5</ele>
        <time>2012-10-24T15:34:45Z</time>
      </trkpt>
      <trkpt lat="43.49242" lon="6.33531">
        <ele>179.7</ele>
        <time>2012-10-24T15:34:53Z</time>
      </trkpt>
      <trkpt lat="43.49242" lon="6.33532">
        <ele>179.9</ele>
        <time>2012-10-24T15:34:54Z</time>
      </trkpt>
      <trkpt lat="43.49241" lon="6.33554">
        <ele>179.9</ele>
        <time>2012-10-24T15:35:07Z</time>
      </trkpt>
      <trkpt lat="43.49243" lon="6.33565">
        <ele>180.6</ele>
        <time>2012-10-24T15:35:14Z</time>
      </trkpt>
      <trkpt lat="43.49244" lon="6.33576">
        <ele>180.4</ele>
        <time>2012-10-24T15:35:22Z</time>
      </trkpt>
      <trkpt lat="43.49248" lon="6.33587">
        <ele>180.8</ele>
        <time>2012-10-24T15:35:30Z</time>
      </trkpt>
      <trkpt lat="43.4925" lon="6.33597">
        <ele>181.2</ele>
        <time>2012-10-24T15:35:38Z</time>
      </trkpt>
      <trkpt lat="43.49255" lon="6.33607">
        <ele>180.6</ele>
        <time>2012-10-24T15:35:46Z</time>
      </trkpt>
      <trkpt lat="43.4926" lon="6.33617">
        <ele>181.6</ele>
        <time>2012-10-24T15:35:53Z</time>
      </trkpt>
      <trkpt lat="43.49261" lon="6.33628">
        <ele>181.8</ele>
        <time>2012-10-24T15:36:03Z</time>
      </trkpt>
      <trkpt lat="43.49262" lon="6.33629">
        <ele>182</ele>
        <time>2012-10-24T15:36:04Z</time>
      </trkpt>
      <trkpt lat="43.49264" lon="6.3365">
        <ele>180.6</ele>
        <time>2012-10-24T15:36:17Z</time>
      </trkpt>
      <trkpt lat="43.49262" lon="6.33662">
        <ele>180.3</ele>
        <time>2012-10-24T15:36:25Z</time>
      </trkpt>
      <trkpt lat="43.49259" lon="6.33672">
        <ele>181</ele>
        <time>2012-10-24T15:36:31Z</time>
      </trkpt>
      <trkpt lat="43.49256" lon="6.33684">
        <ele>181.2</ele>
        <time>2012-10-24T15:36:37Z</time>
      </trkpt>
      <trkpt lat="43.49254" lon="6.33694">
        <ele>182.1</ele>
        <time>2012-10-24T15:36:43Z</time>
      </trkpt>
      <trkpt lat="43.49253" lon="6.33706">
        <ele>182</ele>
        <time>2012-10-24T15:36:50Z</time>
      </trkpt>
      <trkpt lat="43.49253" lon="6.33717">
        <ele>181.7</ele>
        <time>2012-10-24T15:36:57Z</time>
      </trkpt>
      <trkpt lat="43.49252" lon="6.33728">
        <ele>182.8</ele>
        <time>2012-10-24T15:37:03Z</time>
      </trkpt>
      <trkpt lat="43.49253" lon="6.3374">
        <ele>183.7</ele>
        <time>2012-10-24T15:37:10Z</time>
      </trkpt>
      <trkpt lat="43.49253" lon="6.33742">
        <ele>183.5</ele>
        <time>2012-10-24T15:37:11Z</time>
      </trkpt>
    </trkseg>
  </trk>
</gpx>